<?xml version="1.0" encoding="UTF-8"?>
<gpx version="1.1" creator="https://www.youtrack.es" xsi:schemaLocation="http://www.topografix.com/GPX/1/1 http://www.topografix.com/GPX/1/1/gpx.xsd http://www.garmin.com/xmlschemas/GpxExtensions/v3 http://www.garmin.com/xmlschemas/GpxExtensionsv3.xsd http://www.garmin.com/xmlschemas/TrackPointExtension/v1 http://www.garmin.com/xmlschemas/TrackPointExtensionv1.xsd" xmlns:gpxtpx="http://www.garmin.com/xmlschemas/TrackPointExtension/v1" xmlns:gpxx="http://www.garmin.com/xmlschemas/GpxExtensions/v3" xmlns:xsi="http://www.w3.org/2001/XMLSchema-instance">
  <metadata>
    <link href="https://www.youtrack.es">
      <text>YouTrack.es</text>
    </link>
    <time>2026-05-08T18:49:36Z</time>
  </metadata>
  <trk>
    <src>https://www.youtrack.es</src>
    <link href="https://www.youtrack.es/ruta/38324-aguas-abiertas">
      <text>YouTrack.es</text>
    </link>
    <trkseg>
      <trkpt lat="-34.89845" lon="-56.07736">
        <ele>232.4</ele>
        <time>2022-11-18 12:31:56</time>
      </trkpt>
      <trkpt lat="-34.89845" lon="-56.07736">
        <ele>0.2</ele>
        <time>2022-11-18 12:31:57</time>
      </trkpt>
      <trkpt lat="-34.89846" lon="-56.07735">
        <ele>-0.8</ele>
        <time>2022-11-18 12:31:59</time>
      </trkpt>
      <trkpt lat="-34.89849" lon="-56.07732">
        <ele>-1.4</ele>
        <time>2022-11-18 12:32:02</time>
      </trkpt>
      <trkpt lat="-34.89852" lon="-56.07731">
        <ele>-0.8</ele>
        <time>2022-11-18 12:32:04</time>
      </trkpt>
      <trkpt lat="-34.89855" lon="-56.07729">
        <ele>-0.4</ele>
        <time>2022-11-18 12:32:06</time>
      </trkpt>
      <trkpt lat="-34.89859" lon="-56.07727">
        <ele>-1.6</ele>
        <time>2022-11-18 12:32:09</time>
      </trkpt>
      <trkpt lat="-34.89861" lon="-56.07726">
        <ele>-149.8</ele>
        <time>2022-11-18 12:32:10</time>
      </trkpt>
      <trkpt lat="-34.89864" lon="-56.07725">
        <ele>-294.2</ele>
        <time>2022-11-18 12:32:11</time>
      </trkpt>
      <trkpt lat="-34.89864" lon="-56.07725">
        <ele>-232.2</ele>
        <time>2022-11-18 12:32:12</time>
      </trkpt>
      <trkpt lat="-34.89866" lon="-56.07724">
        <ele>-123.4</ele>
        <time>2022-11-18 12:32:13</time>
      </trkpt>
      <trkpt lat="-34.89867" lon="-56.07723">
        <ele>-62.4</ele>
        <time>2022-11-18 12:32:14</time>
      </trkpt>
      <trkpt lat="-34.89866" lon="-56.07721">
        <ele>-31.8</ele>
        <time>2022-11-18 12:32:15</time>
      </trkpt>
      <trkpt lat="-34.89868" lon="-56.07722">
        <ele>-16.8</ele>
        <time>2022-11-18 12:32:16</time>
      </trkpt>
      <trkpt lat="-34.89869" lon="-56.0772">
        <ele>-9.2</ele>
        <time>2022-11-18 12:32:17</time>
      </trkpt>
      <trkpt lat="-34.8987" lon="-56.0772">
        <ele>-5.8</ele>
        <time>2022-11-18 12:32:18</time>
      </trkpt>
      <trkpt lat="-34.89871" lon="-56.07721">
        <ele>-4.2</ele>
        <time>2022-11-18 12:32:19</time>
      </trkpt>
      <trkpt lat="-34.89871" lon="-56.0772">
        <ele>-3.2</ele>
        <time>2022-11-18 12:32:20</time>
      </trkpt>
      <trkpt lat="-34.89872" lon="-56.0772">
        <ele>-2.8</ele>
        <time>2022-11-18 12:32:21</time>
      </trkpt>
      <trkpt lat="-34.89874" lon="-56.0772">
        <ele>-4.6</ele>
        <time>2022-11-18 12:32:22</time>
      </trkpt>
      <trkpt lat="-34.89877" lon="-56.07718">
        <ele>-5.6</ele>
        <time>2022-11-18 12:32:23</time>
      </trkpt>
      <trkpt lat="-34.89878" lon="-56.07718">
        <ele>-6.6</ele>
        <time>2022-11-18 12:32:24</time>
      </trkpt>
      <trkpt lat="-34.89882" lon="-56.07716">
        <ele>-8.4</ele>
        <time>2022-11-18 12:32:26</time>
      </trkpt>
      <trkpt lat="-34.89882" lon="-56.07716">
        <ele>-9.8</ele>
        <time>2022-11-18 12:32:27</time>
      </trkpt>
      <trkpt lat="-34.89883" lon="-56.07714">
        <ele>-10.8</ele>
        <time>2022-11-18 12:32:30</time>
      </trkpt>
      <trkpt lat="-34.89885" lon="-56.07713">
        <ele>-10.8</ele>
        <time>2022-11-18 12:32:31</time>
      </trkpt>
      <trkpt lat="-34.89887" lon="-56.07712">
        <ele>-10.8</ele>
        <time>2022-11-18 12:32:32</time>
      </trkpt>
      <trkpt lat="-34.89891" lon="-56.07711">
        <ele>-11</ele>
        <time>2022-11-18 12:32:33</time>
      </trkpt>
      <trkpt lat="-34.89893" lon="-56.0771">
        <ele>-11.8</ele>
        <time>2022-11-18 12:32:35</time>
      </trkpt>
      <trkpt lat="-34.8989" lon="-56.0771">
        <ele>-12.8</ele>
        <time>2022-11-18 12:32:36</time>
      </trkpt>
      <trkpt lat="-34.89889" lon="-56.0771">
        <ele>-13.2</ele>
        <time>2022-11-18 12:32:37</time>
      </trkpt>
      <trkpt lat="-34.89889" lon="-56.0771">
        <ele>-12.8</ele>
        <time>2022-11-18 12:32:41</time>
      </trkpt>
      <trkpt lat="-34.89889" lon="-56.0771">
        <ele>-11.4</ele>
        <time>2022-11-18 12:32:43</time>
      </trkpt>
      <trkpt lat="-34.89889" lon="-56.0771">
        <ele>-8.8</ele>
        <time>2022-11-18 12:32:44</time>
      </trkpt>
      <trkpt lat="-34.89889" lon="-56.0771">
        <ele>-7.2</ele>
        <time>2022-11-18 12:32:45</time>
      </trkpt>
      <trkpt lat="-34.89889" lon="-56.07709">
        <ele>-5.2</ele>
        <time>2022-11-18 12:32:46</time>
      </trkpt>
      <trkpt lat="-34.89889" lon="-56.07709">
        <ele>-3.6</ele>
        <time>2022-11-18 12:32:47</time>
      </trkpt>
      <trkpt lat="-34.89889" lon="-56.07709">
        <ele>-2.2</ele>
        <time>2022-11-18 12:32:48</time>
      </trkpt>
      <trkpt lat="-34.8989" lon="-56.07709">
        <ele>-1</ele>
        <time>2022-11-18 12:32:50</time>
      </trkpt>
      <trkpt lat="-34.89892" lon="-56.07708">
        <ele>-0.6</ele>
        <time>2022-11-18 12:32:56</time>
      </trkpt>
      <trkpt lat="-34.89894" lon="-56.07707">
        <ele>-0.6</ele>
        <time>2022-11-18 12:32:59</time>
      </trkpt>
      <trkpt lat="-34.89894" lon="-56.07708">
        <ele>-0.6</ele>
        <time>2022-11-18 12:33:00</time>
      </trkpt>
      <trkpt lat="-34.89894" lon="-56.07707">
        <ele>-0.8</ele>
        <time>2022-11-18 12:33:01</time>
      </trkpt>
      <trkpt lat="-34.89894" lon="-56.07707">
        <ele>-1.6</ele>
        <time>2022-11-18 12:33:03</time>
      </trkpt>
      <trkpt lat="-34.89894" lon="-56.07707">
        <ele>-3.2</ele>
        <time>2022-11-18 12:33:04</time>
      </trkpt>
      <trkpt lat="-34.89895" lon="-56.07706">
        <ele>-4.4</ele>
        <time>2022-11-18 12:33:06</time>
      </trkpt>
      <trkpt lat="-34.89895" lon="-56.07706">
        <ele>-4.6</ele>
        <time>2022-11-18 12:33:07</time>
      </trkpt>
      <trkpt lat="-34.89896" lon="-56.07706">
        <ele>-5.2</ele>
        <time>2022-11-18 12:33:10</time>
      </trkpt>
      <trkpt lat="-34.89896" lon="-56.07706">
        <ele>-6.2</ele>
        <time>2022-11-18 12:33:11</time>
      </trkpt>
      <trkpt lat="-34.89907" lon="-56.07705">
        <ele>-85</ele>
        <time>2022-11-18 12:33:15</time>
      </trkpt>
      <trkpt lat="-34.89907" lon="-56.07704">
        <ele>-79</ele>
        <time>2022-11-18 12:33:16</time>
      </trkpt>
      <trkpt lat="-34.89905" lon="-56.07702">
        <ele>-73.8</ele>
        <time>2022-11-18 12:33:17</time>
      </trkpt>
      <trkpt lat="-34.89905" lon="-56.07701">
        <ele>-71</ele>
        <time>2022-11-18 12:33:18</time>
      </trkpt>
      <trkpt lat="-34.89904" lon="-56.077">
        <ele>-63.8</ele>
        <time>2022-11-18 12:33:19</time>
      </trkpt>
      <trkpt lat="-34.89904" lon="-56.07699">
        <ele>-39.4</ele>
        <time>2022-11-18 12:33:20</time>
      </trkpt>
      <trkpt lat="-34.89903" lon="-56.07699">
        <ele>-25.2</ele>
        <time>2022-11-18 12:33:21</time>
      </trkpt>
      <trkpt lat="-34.89903" lon="-56.07699">
        <ele>-16.8</ele>
        <time>2022-11-18 12:33:22</time>
      </trkpt>
      <trkpt lat="-34.89902" lon="-56.07698">
        <ele>-12.6</ele>
        <time>2022-11-18 12:33:23</time>
      </trkpt>
      <trkpt lat="-34.89902" lon="-56.07697">
        <ele>-10.2</ele>
        <time>2022-11-18 12:33:24</time>
      </trkpt>
      <trkpt lat="-34.89901" lon="-56.07697">
        <ele>-9</ele>
        <time>2022-11-18 12:33:25</time>
      </trkpt>
      <trkpt lat="-34.899" lon="-56.07697">
        <ele>-4.8</ele>
        <time>2022-11-18 12:33:26</time>
      </trkpt>
      <trkpt lat="-34.899" lon="-56.07696">
        <ele>-2.6</ele>
        <time>2022-11-18 12:33:27</time>
      </trkpt>
      <trkpt lat="-34.89899" lon="-56.07696">
        <ele>-1.6</ele>
        <time>2022-11-18 12:33:29</time>
      </trkpt>
      <trkpt lat="-34.89899" lon="-56.07695">
        <ele>-0.6</ele>
        <time>2022-11-18 12:33:30</time>
      </trkpt>
      <trkpt lat="-34.89897" lon="-56.07692">
        <ele>-4.2</ele>
        <time>2022-11-18 12:33:31</time>
      </trkpt>
      <trkpt lat="-34.89897" lon="-56.07691">
        <ele>-18.2</ele>
        <time>2022-11-18 12:33:32</time>
      </trkpt>
      <trkpt lat="-34.89896" lon="-56.0769">
        <ele>-32.8</ele>
        <time>2022-11-18 12:33:33</time>
      </trkpt>
      <trkpt lat="-34.89895" lon="-56.07688">
        <ele>-49.6</ele>
        <time>2022-11-18 12:33:34</time>
      </trkpt>
      <trkpt lat="-34.89895" lon="-56.07685">
        <ele>-57.8</ele>
        <time>2022-11-18 12:33:35</time>
      </trkpt>
      <trkpt lat="-34.89894" lon="-56.07683">
        <ele>-69.8</ele>
        <time>2022-11-18 12:33:36</time>
      </trkpt>
      <trkpt lat="-34.89894" lon="-56.07681">
        <ele>-76</ele>
        <time>2022-11-18 12:33:37</time>
      </trkpt>
      <trkpt lat="-34.89894" lon="-56.07671">
        <ele>-93.8</ele>
        <time>2022-11-18 12:33:38</time>
      </trkpt>
      <trkpt lat="-34.89894" lon="-56.07664">
        <ele>-147.6</ele>
        <time>2022-11-18 12:33:39</time>
      </trkpt>
      <trkpt lat="-34.89895" lon="-56.07655">
        <ele>-222.8</ele>
        <time>2022-11-18 12:33:40</time>
      </trkpt>
      <trkpt lat="-34.89895" lon="-56.07655">
        <ele>-223.8</ele>
        <time>2022-11-18 12:33:41</time>
      </trkpt>
      <trkpt lat="-34.89896" lon="-56.07651">
        <ele>-217.2</ele>
        <time>2022-11-18 12:33:42</time>
      </trkpt>
      <trkpt lat="-34.89896" lon="-56.07645">
        <ele>-181</ele>
        <time>2022-11-18 12:33:43</time>
      </trkpt>
      <trkpt lat="-34.89896" lon="-56.07637">
        <ele>-151</ele>
        <time>2022-11-18 12:33:44</time>
      </trkpt>
      <trkpt lat="-34.89899" lon="-56.07636">
        <ele>-162</ele>
        <time>2022-11-18 12:33:45</time>
      </trkpt>
      <trkpt lat="-34.899" lon="-56.07634">
        <ele>-83.6</ele>
        <time>2022-11-18 12:33:46</time>
      </trkpt>
      <trkpt lat="-34.89902" lon="-56.07629">
        <ele>-146.4</ele>
        <time>2022-11-18 12:33:47</time>
      </trkpt>
      <trkpt lat="-34.89902" lon="-56.07628">
        <ele>-87.6</ele>
        <time>2022-11-18 12:33:48</time>
      </trkpt>
      <trkpt lat="-34.89904" lon="-56.07624">
        <ele>-146.8</ele>
        <time>2022-11-18 12:33:52</time>
      </trkpt>
      <trkpt lat="-34.89905" lon="-56.07622">
        <ele>-92.4</ele>
        <time>2022-11-18 12:33:56</time>
      </trkpt>
      <trkpt lat="-34.89906" lon="-56.07617">
        <ele>-116</ele>
        <time>2022-11-18 12:33:57</time>
      </trkpt>
      <trkpt lat="-34.89905" lon="-56.0762">
        <ele>-123.8</ele>
        <time>2022-11-18 12:33:58</time>
      </trkpt>
      <trkpt lat="-34.89902" lon="-56.07621">
        <ele>-190.6</ele>
        <time>2022-11-18 12:33:59</time>
      </trkpt>
      <trkpt lat="-34.89902" lon="-56.07621">
        <ele>-180.4</ele>
        <time>2022-11-18 12:34:00</time>
      </trkpt>
      <trkpt lat="-34.89902" lon="-56.07615">
        <ele>-172.4</ele>
        <time>2022-11-18 12:34:01</time>
      </trkpt>
      <trkpt lat="-34.89902" lon="-56.07614">
        <ele>-171.6</ele>
        <time>2022-11-18 12:34:02</time>
      </trkpt>
      <trkpt lat="-34.89901" lon="-56.07609">
        <ele>-170.4</ele>
        <time>2022-11-18 12:34:06</time>
      </trkpt>
      <trkpt lat="-34.89901" lon="-56.07612">
        <ele>-170.2</ele>
        <time>2022-11-18 12:34:09</time>
      </trkpt>
      <trkpt lat="-34.89899" lon="-56.07608">
        <ele>-170.2</ele>
        <time>2022-11-18 12:34:12</time>
      </trkpt>
      <trkpt lat="-34.89898" lon="-56.07603">
        <ele>-169</ele>
        <time>2022-11-18 12:34:13</time>
      </trkpt>
      <trkpt lat="-34.89899" lon="-56.07597">
        <ele>-169</ele>
        <time>2022-11-18 12:34:16</time>
      </trkpt>
      <trkpt lat="-34.89901" lon="-56.07597">
        <ele>-180</ele>
        <time>2022-11-18 12:34:19</time>
      </trkpt>
      <trkpt lat="-34.899" lon="-56.07597">
        <ele>-174.8</ele>
        <time>2022-11-18 12:34:22</time>
      </trkpt>
      <trkpt lat="-34.89899" lon="-56.07597">
        <ele>-160.8</ele>
        <time>2022-11-18 12:34:25</time>
      </trkpt>
      <trkpt lat="-34.89898" lon="-56.07598">
        <ele>-153.8</ele>
        <time>2022-11-18 12:34:26</time>
      </trkpt>
      <trkpt lat="-34.89897" lon="-56.07596">
        <ele>-150.4</ele>
        <time>2022-11-18 12:34:29</time>
      </trkpt>
      <trkpt lat="-34.89897" lon="-56.07595">
        <ele>-148.6</ele>
        <time>2022-11-18 12:34:30</time>
      </trkpt>
      <trkpt lat="-34.89897" lon="-56.07593">
        <ele>-147.8</ele>
        <time>2022-11-18 12:34:33</time>
      </trkpt>
      <trkpt lat="-34.89896" lon="-56.07591">
        <ele>-147.2</ele>
        <time>2022-11-18 12:34:34</time>
      </trkpt>
      <trkpt lat="-34.89896" lon="-56.07591">
        <ele>-147</ele>
        <time>2022-11-18 12:34:38</time>
      </trkpt>
      <trkpt lat="-34.89896" lon="-56.0759">
        <ele>-182.4</ele>
        <time>2022-11-18 12:34:42</time>
      </trkpt>
      <trkpt lat="-34.89896" lon="-56.07588">
        <ele>-164.6</ele>
        <time>2022-11-18 12:34:46</time>
      </trkpt>
      <trkpt lat="-34.89896" lon="-56.07586">
        <ele>-155.8</ele>
        <time>2022-11-18 12:34:47</time>
      </trkpt>
      <trkpt lat="-34.89896" lon="-56.07584">
        <ele>-151.2</ele>
        <time>2022-11-18 12:34:50</time>
      </trkpt>
      <trkpt lat="-34.89896" lon="-56.07582">
        <ele>-149</ele>
        <time>2022-11-18 12:34:51</time>
      </trkpt>
      <trkpt lat="-34.89896" lon="-56.07584">
        <ele>-148</ele>
        <time>2022-11-18 12:34:52</time>
      </trkpt>
      <trkpt lat="-34.89896" lon="-56.07584">
        <ele>-147</ele>
        <time>2022-11-18 12:34:55</time>
      </trkpt>
      <trkpt lat="-34.89896" lon="-56.07584">
        <ele>-147</ele>
        <time>2022-11-18 12:34:56</time>
      </trkpt>
      <trkpt lat="-34.89895" lon="-56.07583">
        <ele>-145.6</ele>
        <time>2022-11-18 12:34:59</time>
      </trkpt>
      <trkpt lat="-34.89894" lon="-56.07581">
        <ele>-144.6</ele>
        <time>2022-11-18 12:35:02</time>
      </trkpt>
      <trkpt lat="-34.89895" lon="-56.0758">
        <ele>-140.8</ele>
        <time>2022-11-18 12:35:06</time>
      </trkpt>
      <trkpt lat="-34.89895" lon="-56.07578">
        <ele>-321.8</ele>
        <time>2022-11-18 12:35:09</time>
      </trkpt>
      <trkpt lat="-34.89895" lon="-56.0757">
        <ele>-287.4</ele>
        <time>2022-11-18 12:35:12</time>
      </trkpt>
      <trkpt lat="-34.89895" lon="-56.07565">
        <ele>-367</ele>
        <time>2022-11-18 12:35:13</time>
      </trkpt>
      <trkpt lat="-34.89897" lon="-56.07562">
        <ele>-356</ele>
        <time>2022-11-18 12:35:14</time>
      </trkpt>
      <trkpt lat="-34.89898" lon="-56.07563">
        <ele>-256.2</ele>
        <time>2022-11-18 12:35:15</time>
      </trkpt>
      <trkpt lat="-34.89897" lon="-56.07562">
        <ele>-256.2</ele>
        <time>2022-11-18 12:35:16</time>
      </trkpt>
      <trkpt lat="-34.89898" lon="-56.07559">
        <ele>-369.4</ele>
        <time>2022-11-18 12:35:17</time>
      </trkpt>
      <trkpt lat="-34.89899" lon="-56.07554">
        <ele>-306.4</ele>
        <time>2022-11-18 12:35:18</time>
      </trkpt>
      <trkpt lat="-34.89899" lon="-56.07554">
        <ele>-330.4</ele>
        <time>2022-11-18 12:35:19</time>
      </trkpt>
      <trkpt lat="-34.899" lon="-56.07552">
        <ele>-347.6</ele>
        <time>2022-11-18 12:35:20</time>
      </trkpt>
      <trkpt lat="-34.89901" lon="-56.0755">
        <ele>-311.8</ele>
        <time>2022-11-18 12:35:21</time>
      </trkpt>
      <trkpt lat="-34.89902" lon="-56.07544">
        <ele>-343.8</ele>
        <time>2022-11-18 12:35:22</time>
      </trkpt>
      <trkpt lat="-34.89903" lon="-56.07546">
        <ele>-357</ele>
        <time>2022-11-18 12:35:23</time>
      </trkpt>
      <trkpt lat="-34.89903" lon="-56.07547">
        <ele>-339.8</ele>
        <time>2022-11-18 12:35:24</time>
      </trkpt>
      <trkpt lat="-34.89904" lon="-56.07544">
        <ele>-336.2</ele>
        <time>2022-11-18 12:35:25</time>
      </trkpt>
      <trkpt lat="-34.89904" lon="-56.07542">
        <ele>-334.4</ele>
        <time>2022-11-18 12:35:28</time>
      </trkpt>
      <trkpt lat="-34.89905" lon="-56.0754">
        <ele>-301.2</ele>
        <time>2022-11-18 12:35:29</time>
      </trkpt>
      <trkpt lat="-34.89905" lon="-56.07538">
        <ele>-284.8</ele>
        <time>2022-11-18 12:35:30</time>
      </trkpt>
      <trkpt lat="-34.89905" lon="-56.07536">
        <ele>-256.4</ele>
        <time>2022-11-18 12:35:34</time>
      </trkpt>
      <trkpt lat="-34.89906" lon="-56.07534">
        <ele>-240.2</ele>
        <time>2022-11-18 12:35:45</time>
      </trkpt>
      <trkpt lat="-34.89888" lon="-56.0757">
        <ele>-209.8</ele>
        <time>2022-11-18 12:35:49</time>
      </trkpt>
      <trkpt lat="-34.89889" lon="-56.07567">
        <ele>-211.2</ele>
        <time>2022-11-18 12:35:53</time>
      </trkpt>
      <trkpt lat="-34.89891" lon="-56.07562">
        <ele>-201.6</ele>
        <time>2022-11-18 12:35:56</time>
      </trkpt>
      <trkpt lat="-34.89893" lon="-56.07559">
        <ele>-207</ele>
        <time>2022-11-18 12:35:59</time>
      </trkpt>
      <trkpt lat="-34.89893" lon="-56.07557">
        <ele>-209.6</ele>
        <time>2022-11-18 12:36:00</time>
      </trkpt>
      <trkpt lat="-34.89894" lon="-56.07555">
        <ele>-222.6</ele>
        <time>2022-11-18 12:36:01</time>
      </trkpt>
      <trkpt lat="-34.899" lon="-56.07551">
        <ele>-229.2</ele>
        <time>2022-11-18 12:36:04</time>
      </trkpt>
      <trkpt lat="-34.89902" lon="-56.07549">
        <ele>-242</ele>
        <time>2022-11-18 12:36:08</time>
      </trkpt>
      <trkpt lat="-34.89903" lon="-56.07547">
        <ele>-248.6</ele>
        <time>2022-11-18 12:36:09</time>
      </trkpt>
      <trkpt lat="-34.89904" lon="-56.07543">
        <ele>-262.2</ele>
        <time>2022-11-18 12:36:12</time>
      </trkpt>
      <trkpt lat="-34.89904" lon="-56.07542">
        <ele>-263.6</ele>
        <time>2022-11-18 12:36:13</time>
      </trkpt>
      <trkpt lat="-34.89902" lon="-56.07543">
        <ele>-259.4</ele>
        <time>2022-11-18 12:36:17</time>
      </trkpt>
      <trkpt lat="-34.899" lon="-56.07539">
        <ele>-264.4</ele>
        <time>2022-11-18 12:36:20</time>
      </trkpt>
      <trkpt lat="-34.899" lon="-56.07538">
        <ele>-275</ele>
        <time>2022-11-18 12:36:23</time>
      </trkpt>
      <trkpt lat="-34.899" lon="-56.07537">
        <ele>-265</ele>
        <time>2022-11-18 12:36:24</time>
      </trkpt>
      <trkpt lat="-34.899" lon="-56.07536">
        <ele>-275.4</ele>
        <time>2022-11-18 12:36:25</time>
      </trkpt>
      <trkpt lat="-34.899" lon="-56.07536">
        <ele>-265.2</ele>
        <time>2022-11-18 12:36:26</time>
      </trkpt>
      <trkpt lat="-34.89902" lon="-56.07534">
        <ele>-277.4</ele>
        <time>2022-11-18 12:36:27</time>
      </trkpt>
      <trkpt lat="-34.89902" lon="-56.07534">
        <ele>-281</ele>
        <time>2022-11-18 12:36:28</time>
      </trkpt>
      <trkpt lat="-34.89902" lon="-56.07533">
        <ele>-283.2</ele>
        <time>2022-11-18 12:36:29</time>
      </trkpt>
      <trkpt lat="-34.89902" lon="-56.07532">
        <ele>-284.4</ele>
        <time>2022-11-18 12:36:30</time>
      </trkpt>
      <trkpt lat="-34.89902" lon="-56.07534">
        <ele>-285</ele>
        <time>2022-11-18 12:36:31</time>
      </trkpt>
      <trkpt lat="-34.89901" lon="-56.07533">
        <ele>-285.4</ele>
        <time>2022-11-18 12:36:32</time>
      </trkpt>
      <trkpt lat="-34.89899" lon="-56.07536">
        <ele>-285.4</ele>
        <time>2022-11-18 12:36:33</time>
      </trkpt>
      <trkpt lat="-34.89899" lon="-56.07531">
        <ele>-286.2</ele>
        <time>2022-11-18 12:36:34</time>
      </trkpt>
      <trkpt lat="-34.89899" lon="-56.07528">
        <ele>-291</ele>
        <time>2022-11-18 12:36:37</time>
      </trkpt>
      <trkpt lat="-34.89899" lon="-56.07528">
        <ele>-293.2</ele>
        <time>2022-11-18 12:36:40</time>
      </trkpt>
      <trkpt lat="-34.89899" lon="-56.07528">
        <ele>-294.4</ele>
        <time>2022-11-18 12:36:41</time>
      </trkpt>
      <trkpt lat="-34.89897" lon="-56.0753">
        <ele>-319.8</ele>
        <time>2022-11-18 12:36:42</time>
      </trkpt>
      <trkpt lat="-34.89897" lon="-56.07529">
        <ele>-307.6</ele>
        <time>2022-11-18 12:36:43</time>
      </trkpt>
      <trkpt lat="-34.89897" lon="-56.07527">
        <ele>-326</ele>
        <time>2022-11-18 12:36:44</time>
      </trkpt>
      <trkpt lat="-34.89897" lon="-56.07527">
        <ele>-335.4</ele>
        <time>2022-11-18 12:36:45</time>
      </trkpt>
      <trkpt lat="-34.89897" lon="-56.07526">
        <ele>-315.4</ele>
        <time>2022-11-18 12:36:46</time>
      </trkpt>
      <trkpt lat="-34.89898" lon="-56.07525">
        <ele>-330</ele>
        <time>2022-11-18 12:36:47</time>
      </trkpt>
      <trkpt lat="-34.89898" lon="-56.07523">
        <ele>-312.8</ele>
        <time>2022-11-18 12:36:48</time>
      </trkpt>
      <trkpt lat="-34.89898" lon="-56.07522">
        <ele>-328.6</ele>
        <time>2022-11-18 12:36:49</time>
      </trkpt>
      <trkpt lat="-34.89897" lon="-56.07521">
        <ele>-312</ele>
        <time>2022-11-18 12:36:50</time>
      </trkpt>
      <trkpt lat="-34.89898" lon="-56.07521">
        <ele>-328.4</ele>
        <time>2022-11-18 12:36:53</time>
      </trkpt>
      <trkpt lat="-34.89898" lon="-56.0752">
        <ele>-311.8</ele>
        <time>2022-11-18 12:36:54</time>
      </trkpt>
      <trkpt lat="-34.89899" lon="-56.0752">
        <ele>-328.2</ele>
        <time>2022-11-18 12:36:55</time>
      </trkpt>
      <trkpt lat="-34.899" lon="-56.07519">
        <ele>-336.4</ele>
        <time>2022-11-18 12:36:58</time>
      </trkpt>
      <trkpt lat="-34.89901" lon="-56.07518">
        <ele>-294.4</ele>
        <time>2022-11-18 12:36:59</time>
      </trkpt>
      <trkpt lat="-34.89902" lon="-56.07516">
        <ele>-273.6</ele>
        <time>2022-11-18 12:37:00</time>
      </trkpt>
      <trkpt lat="-34.89903" lon="-56.07514">
        <ele>-263</ele>
        <time>2022-11-18 12:37:01</time>
      </trkpt>
      <trkpt lat="-34.89903" lon="-56.07513">
        <ele>-257.8</ele>
        <time>2022-11-18 12:37:02</time>
      </trkpt>
      <trkpt lat="-34.89904" lon="-56.0751">
        <ele>-255.2</ele>
        <time>2022-11-18 12:37:03</time>
      </trkpt>
      <trkpt lat="-34.89904" lon="-56.0751">
        <ele>-253.8</ele>
        <time>2022-11-18 12:37:04</time>
      </trkpt>
      <trkpt lat="-34.89902" lon="-56.07507">
        <ele>-252.6</ele>
        <time>2022-11-18 12:37:05</time>
      </trkpt>
      <trkpt lat="-34.89901" lon="-56.07507">
        <ele>-243.8</ele>
        <time>2022-11-18 12:37:06</time>
      </trkpt>
      <trkpt lat="-34.899" lon="-56.07505">
        <ele>-239.6</ele>
        <time>2022-11-18 12:37:07</time>
      </trkpt>
      <trkpt lat="-34.899" lon="-56.07503">
        <ele>-237.4</ele>
        <time>2022-11-18 12:37:08</time>
      </trkpt>
      <trkpt lat="-34.89899" lon="-56.07501">
        <ele>-236.2</ele>
        <time>2022-11-18 12:37:09</time>
      </trkpt>
      <trkpt lat="-34.89899" lon="-56.07499">
        <ele>-244.4</ele>
        <time>2022-11-18 12:37:12</time>
      </trkpt>
      <trkpt lat="-34.89898" lon="-56.07498">
        <ele>-242.8</ele>
        <time>2022-11-18 12:37:14</time>
      </trkpt>
      <trkpt lat="-34.89897" lon="-56.07496">
        <ele>-247.6</ele>
        <time>2022-11-18 12:37:15</time>
      </trkpt>
      <trkpt lat="-34.89895" lon="-56.07496">
        <ele>-244.4</ele>
        <time>2022-11-18 12:37:16</time>
      </trkpt>
      <trkpt lat="-34.89894" lon="-56.07494">
        <ele>-248.4</ele>
        <time>2022-11-18 12:37:18</time>
      </trkpt>
      <trkpt lat="-34.89894" lon="-56.07493">
        <ele>-244.8</ele>
        <time>2022-11-18 12:37:19</time>
      </trkpt>
      <trkpt lat="-34.89893" lon="-56.07494">
        <ele>-272.6</ele>
        <time>2022-11-18 12:37:20</time>
      </trkpt>
      <trkpt lat="-34.89892" lon="-56.07493">
        <ele>-286.6</ele>
        <time>2022-11-18 12:37:21</time>
      </trkpt>
      <trkpt lat="-34.89891" lon="-56.07493">
        <ele>-293.4</ele>
        <time>2022-11-18 12:37:22</time>
      </trkpt>
      <trkpt lat="-34.89891" lon="-56.07492">
        <ele>-297</ele>
        <time>2022-11-18 12:37:23</time>
      </trkpt>
      <trkpt lat="-34.89889" lon="-56.07494">
        <ele>-298.6</ele>
        <time>2022-11-18 12:37:24</time>
      </trkpt>
      <trkpt lat="-34.89888" lon="-56.07492">
        <ele>-300</ele>
        <time>2022-11-18 12:37:25</time>
      </trkpt>
      <trkpt lat="-34.89888" lon="-56.07491">
        <ele>-306.4</ele>
        <time>2022-11-18 12:37:26</time>
      </trkpt>
      <trkpt lat="-34.89888" lon="-56.07489">
        <ele>-303.4</ele>
        <time>2022-11-18 12:37:27</time>
      </trkpt>
      <trkpt lat="-34.89888" lon="-56.07488">
        <ele>-302</ele>
        <time>2022-11-18 12:37:28</time>
      </trkpt>
      <trkpt lat="-34.89887" lon="-56.07486">
        <ele>-271.4</ele>
        <time>2022-11-18 12:37:29</time>
      </trkpt>
      <trkpt lat="-34.89887" lon="-56.07481">
        <ele>-256.2</ele>
        <time>2022-11-18 12:37:30</time>
      </trkpt>
      <trkpt lat="-34.89887" lon="-56.07479">
        <ele>-234</ele>
        <time>2022-11-18 12:37:31</time>
      </trkpt>
      <trkpt lat="-34.89887" lon="-56.07479">
        <ele>-220.4</ele>
        <time>2022-11-18 12:37:32</time>
      </trkpt>
      <trkpt lat="-34.89889" lon="-56.07491">
        <ele>-210.2</ele>
        <time>2022-11-18 12:37:33</time>
      </trkpt>
      <trkpt lat="-34.8989" lon="-56.07492">
        <ele>-205</ele>
        <time>2022-11-18 12:37:34</time>
      </trkpt>
      <trkpt lat="-34.89889" lon="-56.07492">
        <ele>-202.6</ele>
        <time>2022-11-18 12:37:35</time>
      </trkpt>
      <trkpt lat="-34.89889" lon="-56.07492">
        <ele>-214.4</ele>
        <time>2022-11-18 12:37:36</time>
      </trkpt>
      <trkpt lat="-34.8989" lon="-56.07493">
        <ele>-220.2</ele>
        <time>2022-11-18 12:37:39</time>
      </trkpt>
      <trkpt lat="-34.8989" lon="-56.07493">
        <ele>-224.2</ele>
        <time>2022-11-18 12:37:41</time>
      </trkpt>
      <trkpt lat="-34.8989" lon="-56.07493">
        <ele>-226.2</ele>
        <time>2022-11-18 12:37:42</time>
      </trkpt>
      <trkpt lat="-34.89891" lon="-56.07493">
        <ele>-269.8</ele>
        <time>2022-11-18 12:37:43</time>
      </trkpt>
      <trkpt lat="-34.89891" lon="-56.07494">
        <ele>-271.6</ele>
        <time>2022-11-18 12:37:44</time>
      </trkpt>
      <trkpt lat="-34.8989" lon="-56.07493">
        <ele>-269</ele>
        <time>2022-11-18 12:37:45</time>
      </trkpt>
      <trkpt lat="-34.8989" lon="-56.07493">
        <ele>-267.8</ele>
        <time>2022-11-18 12:37:46</time>
      </trkpt>
      <trkpt lat="-34.8989" lon="-56.07492">
        <ele>-261.4</ele>
        <time>2022-11-18 12:37:47</time>
      </trkpt>
      <trkpt lat="-34.89891" lon="-56.07487">
        <ele>-258.2</ele>
        <time>2022-11-18 12:37:48</time>
      </trkpt>
      <trkpt lat="-34.89891" lon="-56.07484">
        <ele>-246.8</ele>
        <time>2022-11-18 12:37:49</time>
      </trkpt>
      <trkpt lat="-34.89892" lon="-56.07482">
        <ele>-252</ele>
        <time>2022-11-18 12:37:50</time>
      </trkpt>
      <trkpt lat="-34.89892" lon="-56.0748">
        <ele>-254.6</ele>
        <time>2022-11-18 12:37:51</time>
      </trkpt>
      <trkpt lat="-34.89892" lon="-56.0748">
        <ele>-255.8</ele>
        <time>2022-11-18 12:37:52</time>
      </trkpt>
      <trkpt lat="-34.89896" lon="-56.07478">
        <ele>-250</ele>
        <time>2022-11-18 12:37:53</time>
      </trkpt>
      <trkpt lat="-34.89897" lon="-56.07476">
        <ele>-253.6</ele>
        <time>2022-11-18 12:37:54</time>
      </trkpt>
      <trkpt lat="-34.89898" lon="-56.07474">
        <ele>-255.4</ele>
        <time>2022-11-18 12:37:55</time>
      </trkpt>
      <trkpt lat="-34.899" lon="-56.07473">
        <ele>-280.8</ele>
        <time>2022-11-18 12:37:57</time>
      </trkpt>
      <trkpt lat="-34.89901" lon="-56.07472">
        <ele>-293.4</ele>
        <time>2022-11-18 12:37:58</time>
      </trkpt>
      <trkpt lat="-34.89902" lon="-56.07469">
        <ele>-305.6</ele>
        <time>2022-11-18 12:37:59</time>
      </trkpt>
      <trkpt lat="-34.89904" lon="-56.07465">
        <ele>-302.4</ele>
        <time>2022-11-18 12:38:00</time>
      </trkpt>
      <trkpt lat="-34.89903" lon="-56.07464">
        <ele>-304.2</ele>
        <time>2022-11-18 12:38:01</time>
      </trkpt>
      <trkpt lat="-34.89903" lon="-56.07462">
        <ele>-301.6</ele>
        <time>2022-11-18 12:38:02</time>
      </trkpt>
      <trkpt lat="-34.89902" lon="-56.0746">
        <ele>-303.8</ele>
        <time>2022-11-18 12:38:03</time>
      </trkpt>
      <trkpt lat="-34.89902" lon="-56.07458">
        <ele>-301.4</ele>
        <time>2022-11-18 12:38:04</time>
      </trkpt>
      <trkpt lat="-34.89902" lon="-56.07457">
        <ele>-303.8</ele>
        <time>2022-11-18 12:38:05</time>
      </trkpt>
      <trkpt lat="-34.89903" lon="-56.07456">
        <ele>-301.4</ele>
        <time>2022-11-18 12:38:06</time>
      </trkpt>
      <trkpt lat="-34.89903" lon="-56.07455">
        <ele>-303.8</ele>
        <time>2022-11-18 12:38:07</time>
      </trkpt>
      <trkpt lat="-34.89904" lon="-56.07455">
        <ele>-301.4</ele>
        <time>2022-11-18 12:38:08</time>
      </trkpt>
      <trkpt lat="-34.89905" lon="-56.07455">
        <ele>-300.2</ele>
        <time>2022-11-18 12:38:09</time>
      </trkpt>
      <trkpt lat="-34.89905" lon="-56.07453">
        <ele>-299.6</ele>
        <time>2022-11-18 12:38:10</time>
      </trkpt>
      <trkpt lat="-34.89906" lon="-56.0745">
        <ele>-299</ele>
        <time>2022-11-18 12:38:11</time>
      </trkpt>
      <trkpt lat="-34.89906" lon="-56.07449">
        <ele>-299</ele>
        <time>2022-11-18 12:38:12</time>
      </trkpt>
      <trkpt lat="-34.89906" lon="-56.07448">
        <ele>-284.6</ele>
        <time>2022-11-18 12:38:13</time>
      </trkpt>
      <trkpt lat="-34.89906" lon="-56.07446">
        <ele>-291.8</ele>
        <time>2022-11-18 12:38:14</time>
      </trkpt>
      <trkpt lat="-34.89905" lon="-56.07446">
        <ele>-278.2</ele>
        <time>2022-11-18 12:38:15</time>
      </trkpt>
      <trkpt lat="-34.89906" lon="-56.07443">
        <ele>-275</ele>
        <time>2022-11-18 12:38:16</time>
      </trkpt>
      <trkpt lat="-34.89905" lon="-56.07443">
        <ele>-242.4</ele>
        <time>2022-11-18 12:38:17</time>
      </trkpt>
      <trkpt lat="-34.89905" lon="-56.07443">
        <ele>-256.2</ele>
        <time>2022-11-18 12:38:18</time>
      </trkpt>
      <trkpt lat="-34.89905" lon="-56.07442">
        <ele>-224.4</ele>
        <time>2022-11-18 12:38:20</time>
      </trkpt>
      <trkpt lat="-34.89906" lon="-56.0744">
        <ele>-247.2</ele>
        <time>2022-11-18 12:38:21</time>
      </trkpt>
      <trkpt lat="-34.89906" lon="-56.07438">
        <ele>-219.8</ele>
        <time>2022-11-18 12:38:22</time>
      </trkpt>
      <trkpt lat="-34.89906" lon="-56.07437">
        <ele>-245</ele>
        <time>2022-11-18 12:38:24</time>
      </trkpt>
      <trkpt lat="-34.89906" lon="-56.07436">
        <ele>-218.6</ele>
        <time>2022-11-18 12:38:28</time>
      </trkpt>
      <trkpt lat="-34.89906" lon="-56.07434">
        <ele>-218.6</ele>
        <time>2022-11-18 12:38:29</time>
      </trkpt>
      <trkpt lat="-34.89904" lon="-56.07436">
        <ele>-256.4</ele>
        <time>2022-11-18 12:38:30</time>
      </trkpt>
      <trkpt lat="-34.89903" lon="-56.07436">
        <ele>-225.2</ele>
        <time>2022-11-18 12:38:31</time>
      </trkpt>
      <trkpt lat="-34.89901" lon="-56.07433">
        <ele>-257.2</ele>
        <time>2022-11-18 12:38:32</time>
      </trkpt>
      <trkpt lat="-34.899" lon="-56.07432">
        <ele>-227.2</ele>
        <time>2022-11-18 12:38:34</time>
      </trkpt>
      <trkpt lat="-34.89899" lon="-56.0743">
        <ele>-209.8</ele>
        <time>2022-11-18 12:38:35</time>
      </trkpt>
      <trkpt lat="-34.89899" lon="-56.07428">
        <ele>-270</ele>
        <time>2022-11-18 12:38:36</time>
      </trkpt>
      <trkpt lat="-34.89898" lon="-56.07426">
        <ele>-300.2</ele>
        <time>2022-11-18 12:38:37</time>
      </trkpt>
      <trkpt lat="-34.89896" lon="-56.07423">
        <ele>-283.4</ele>
        <time>2022-11-18 12:38:39</time>
      </trkpt>
      <trkpt lat="-34.89896" lon="-56.07421">
        <ele>-274.8</ele>
        <time>2022-11-18 12:38:40</time>
      </trkpt>
      <trkpt lat="-34.89895" lon="-56.07419">
        <ele>-263.6</ele>
        <time>2022-11-18 12:38:41</time>
      </trkpt>
      <trkpt lat="-34.89892" lon="-56.07413">
        <ele>-216.4</ele>
        <time>2022-11-18 12:38:42</time>
      </trkpt>
      <trkpt lat="-34.8989" lon="-56.07418">
        <ele>-212.2</ele>
        <time>2022-11-18 12:38:43</time>
      </trkpt>
      <trkpt lat="-34.89895" lon="-56.07431">
        <ele>-210</ele>
        <time>2022-11-18 12:38:44</time>
      </trkpt>
      <trkpt lat="-34.89898" lon="-56.07435">
        <ele>-201.8</ele>
        <time>2022-11-18 12:38:46</time>
      </trkpt>
      <trkpt lat="-34.89899" lon="-56.07437">
        <ele>-197.6</ele>
        <time>2022-11-18 12:38:47</time>
      </trkpt>
      <trkpt lat="-34.899" lon="-56.07437">
        <ele>-195.6</ele>
        <time>2022-11-18 12:38:48</time>
      </trkpt>
      <trkpt lat="-34.899" lon="-56.07436">
        <ele>-194.6</ele>
        <time>2022-11-18 12:38:49</time>
      </trkpt>
      <trkpt lat="-34.899" lon="-56.07435">
        <ele>-201.2</ele>
        <time>2022-11-18 12:38:50</time>
      </trkpt>
      <trkpt lat="-34.899" lon="-56.07435">
        <ele>-197.2</ele>
        <time>2022-11-18 12:38:51</time>
      </trkpt>
      <trkpt lat="-34.899" lon="-56.07434">
        <ele>-194.4</ele>
        <time>2022-11-18 12:38:52</time>
      </trkpt>
      <trkpt lat="-34.89902" lon="-56.07422">
        <ele>-156.4</ele>
        <time>2022-11-18 12:38:53</time>
      </trkpt>
      <trkpt lat="-34.89902" lon="-56.07421">
        <ele>-158.2</ele>
        <time>2022-11-18 12:38:54</time>
      </trkpt>
      <trkpt lat="-34.89902" lon="-56.0742">
        <ele>-161.4</ele>
        <time>2022-11-18 12:38:55</time>
      </trkpt>
      <trkpt lat="-34.89904" lon="-56.07421">
        <ele>-168</ele>
        <time>2022-11-18 12:38:56</time>
      </trkpt>
      <trkpt lat="-34.89905" lon="-56.0742">
        <ele>-179.8</ele>
        <time>2022-11-18 12:38:58</time>
      </trkpt>
      <trkpt lat="-34.89905" lon="-56.07419">
        <ele>-192.4</ele>
        <time>2022-11-18 12:39:00</time>
      </trkpt>
      <trkpt lat="-34.89906" lon="-56.0742">
        <ele>-204.4</ele>
        <time>2022-11-18 12:39:01</time>
      </trkpt>
      <trkpt lat="-34.89906" lon="-56.0741">
        <ele>-210.6</ele>
        <time>2022-11-18 12:39:02</time>
      </trkpt>
      <trkpt lat="-34.89906" lon="-56.07407">
        <ele>-207.8</ele>
        <time>2022-11-18 12:39:03</time>
      </trkpt>
      <trkpt lat="-34.89908" lon="-56.07408">
        <ele>-233.2</ele>
        <time>2022-11-18 12:39:04</time>
      </trkpt>
      <trkpt lat="-34.89911" lon="-56.07407">
        <ele>-245.6</ele>
        <time>2022-11-18 12:39:05</time>
      </trkpt>
      <trkpt lat="-34.89912" lon="-56.07405">
        <ele>-249.2</ele>
        <time>2022-11-18 12:39:06</time>
      </trkpt>
      <trkpt lat="-34.89914" lon="-56.07398">
        <ele>-294.8</ele>
        <time>2022-11-18 12:39:07</time>
      </trkpt>
      <trkpt lat="-34.89915" lon="-56.07397">
        <ele>-301.4</ele>
        <time>2022-11-18 12:39:08</time>
      </trkpt>
      <trkpt lat="-34.89918" lon="-56.07389">
        <ele>-318.6</ele>
        <time>2022-11-18 12:39:09</time>
      </trkpt>
      <trkpt lat="-34.89917" lon="-56.07385">
        <ele>-359.4</ele>
        <time>2022-11-18 12:39:10</time>
      </trkpt>
      <trkpt lat="-34.89917" lon="-56.07385">
        <ele>-359.4</ele>
        <time>2022-11-18 12:39:11</time>
      </trkpt>
      <trkpt lat="-34.89918" lon="-56.07386">
        <ele>-299</ele>
        <time>2022-11-18 12:39:12</time>
      </trkpt>
      <trkpt lat="-34.89921" lon="-56.07376">
        <ele>-295.8</ele>
        <time>2022-11-18 12:39:14</time>
      </trkpt>
      <trkpt lat="-34.89921" lon="-56.07374">
        <ele>-298.4</ele>
        <time>2022-11-18 12:39:15</time>
      </trkpt>
      <trkpt lat="-34.89922" lon="-56.07371">
        <ele>-256</ele>
        <time>2022-11-18 12:39:18</time>
      </trkpt>
      <trkpt lat="-34.89923" lon="-56.07368">
        <ele>-234.8</ele>
        <time>2022-11-18 12:39:19</time>
      </trkpt>
      <trkpt lat="-34.89923" lon="-56.07372">
        <ele>-213.2</ele>
        <time>2022-11-18 12:39:20</time>
      </trkpt>
      <trkpt lat="-34.89924" lon="-56.07371">
        <ele>-202.4</ele>
        <time>2022-11-18 12:39:21</time>
      </trkpt>
      <trkpt lat="-34.89925" lon="-56.0737">
        <ele>-197</ele>
        <time>2022-11-18 12:39:22</time>
      </trkpt>
      <trkpt lat="-34.89926" lon="-56.07369">
        <ele>-194.4</ele>
        <time>2022-11-18 12:39:23</time>
      </trkpt>
      <trkpt lat="-34.89926" lon="-56.07368">
        <ele>-191.6</ele>
        <time>2022-11-18 12:39:24</time>
      </trkpt>
      <trkpt lat="-34.89927" lon="-56.07367">
        <ele>-190.4</ele>
        <time>2022-11-18 12:39:25</time>
      </trkpt>
      <trkpt lat="-34.89928" lon="-56.07365">
        <ele>-189.4</ele>
        <time>2022-11-18 12:39:26</time>
      </trkpt>
      <trkpt lat="-34.89928" lon="-56.07365">
        <ele>-187</ele>
        <time>2022-11-18 12:39:27</time>
      </trkpt>
      <trkpt lat="-34.89926" lon="-56.07372">
        <ele>-186</ele>
        <time>2022-11-18 12:39:28</time>
      </trkpt>
      <trkpt lat="-34.89924" lon="-56.0738">
        <ele>-174</ele>
        <time>2022-11-18 12:39:29</time>
      </trkpt>
      <trkpt lat="-34.89922" lon="-56.07386">
        <ele>-168</ele>
        <time>2022-11-18 12:39:30</time>
      </trkpt>
      <trkpt lat="-34.89917" lon="-56.07389">
        <ele>-161.6</ele>
        <time>2022-11-18 12:39:31</time>
      </trkpt>
      <trkpt lat="-34.89914" lon="-56.07389">
        <ele>-158.4</ele>
        <time>2022-11-18 12:39:32</time>
      </trkpt>
      <trkpt lat="-34.89914" lon="-56.07389">
        <ele>-157</ele>
        <time>2022-11-18 12:39:33</time>
      </trkpt>
      <trkpt lat="-34.89914" lon="-56.07389">
        <ele>-155</ele>
        <time>2022-11-18 12:39:34</time>
      </trkpt>
      <trkpt lat="-34.89913" lon="-56.07389">
        <ele>-153.2</ele>
        <time>2022-11-18 12:39:35</time>
      </trkpt>
      <trkpt lat="-34.89914" lon="-56.07389">
        <ele>-150.6</ele>
        <time>2022-11-18 12:39:36</time>
      </trkpt>
      <trkpt lat="-34.89912" lon="-56.07387">
        <ele>-149.2</ele>
        <time>2022-11-18 12:39:37</time>
      </trkpt>
      <trkpt lat="-34.89912" lon="-56.07387">
        <ele>-148.2</ele>
        <time>2022-11-18 12:39:38</time>
      </trkpt>
      <trkpt lat="-34.89909" lon="-56.07388">
        <ele>-146.2</ele>
        <time>2022-11-18 12:39:39</time>
      </trkpt>
      <trkpt lat="-34.89907" lon="-56.07387">
        <ele>-143.8</ele>
        <time>2022-11-18 12:39:40</time>
      </trkpt>
      <trkpt lat="-34.89907" lon="-56.07387">
        <ele>-140.2</ele>
        <time>2022-11-18 12:39:41</time>
      </trkpt>
      <trkpt lat="-34.89906" lon="-56.07387">
        <ele>-138.6</ele>
        <time>2022-11-18 12:39:42</time>
      </trkpt>
      <trkpt lat="-34.89906" lon="-56.07387">
        <ele>-134.8</ele>
        <time>2022-11-18 12:39:43</time>
      </trkpt>
      <trkpt lat="-34.89906" lon="-56.07387">
        <ele>-135.8</ele>
        <time>2022-11-18 12:39:44</time>
      </trkpt>
      <trkpt lat="-34.89907" lon="-56.07386">
        <ele>-136.4</ele>
        <time>2022-11-18 12:39:45</time>
      </trkpt>
      <trkpt lat="-34.89908" lon="-56.07383">
        <ele>-136.8</ele>
        <time>2022-11-18 12:39:46</time>
      </trkpt>
      <trkpt lat="-34.89909" lon="-56.0738">
        <ele>-138</ele>
        <time>2022-11-18 12:39:47</time>
      </trkpt>
      <trkpt lat="-34.89911" lon="-56.07378">
        <ele>-142.4</ele>
        <time>2022-11-18 12:39:48</time>
      </trkpt>
      <trkpt lat="-34.89911" lon="-56.07377">
        <ele>-142.4</ele>
        <time>2022-11-18 12:39:49</time>
      </trkpt>
      <trkpt lat="-34.89914" lon="-56.07371">
        <ele>-167.2</ele>
        <time>2022-11-18 12:39:50</time>
      </trkpt>
      <trkpt lat="-34.89918" lon="-56.07362">
        <ele>-209</ele>
        <time>2022-11-18 12:39:51</time>
      </trkpt>
      <trkpt lat="-34.89925" lon="-56.07362">
        <ele>-224</ele>
        <time>2022-11-18 12:39:52</time>
      </trkpt>
      <trkpt lat="-34.89933" lon="-56.07356">
        <ele>-310.6</ele>
        <time>2022-11-18 12:39:53</time>
      </trkpt>
      <trkpt lat="-34.89938" lon="-56.0735">
        <ele>-322</ele>
        <time>2022-11-18 12:39:55</time>
      </trkpt>
      <trkpt lat="-34.89941" lon="-56.07344">
        <ele>-330</ele>
        <time>2022-11-18 12:39:56</time>
      </trkpt>
      <trkpt lat="-34.89943" lon="-56.07339">
        <ele>-300.2</ele>
        <time>2022-11-18 12:39:59</time>
      </trkpt>
      <trkpt lat="-34.89943" lon="-56.07338">
        <ele>-317.2</ele>
        <time>2022-11-18 12:40:02</time>
      </trkpt>
      <trkpt lat="-34.89943" lon="-56.07336">
        <ele>-228.8</ele>
        <time>2022-11-18 12:40:05</time>
      </trkpt>
      <trkpt lat="-34.89942" lon="-56.07337">
        <ele>-281.6</ele>
        <time>2022-11-18 12:40:09</time>
      </trkpt>
      <trkpt lat="-34.8994" lon="-56.07336">
        <ele>-211</ele>
        <time>2022-11-18 12:40:10</time>
      </trkpt>
      <trkpt lat="-34.89939" lon="-56.07335">
        <ele>-232</ele>
        <time>2022-11-18 12:40:14</time>
      </trkpt>
      <trkpt lat="-34.89938" lon="-56.07334">
        <ele>-186.2</ele>
        <time>2022-11-18 12:40:18</time>
      </trkpt>
      <trkpt lat="-34.89937" lon="-56.07335">
        <ele>-219.6</ele>
        <time>2022-11-18 12:40:19</time>
      </trkpt>
      <trkpt lat="-34.89937" lon="-56.07334">
        <ele>-236.4</ele>
        <time>2022-11-18 12:40:22</time>
      </trkpt>
      <trkpt lat="-34.89938" lon="-56.07331">
        <ele>-267.8</ele>
        <time>2022-11-18 12:40:26</time>
      </trkpt>
      <trkpt lat="-34.89941" lon="-56.07327">
        <ele>-269.2</ele>
        <time>2022-11-18 12:40:27</time>
      </trkpt>
      <trkpt lat="-34.89938" lon="-56.07337">
        <ele>-198.2</ele>
        <time>2022-11-18 12:40:28</time>
      </trkpt>
      <trkpt lat="-34.8994" lon="-56.07334">
        <ele>-196.6</ele>
        <time>2022-11-18 12:40:29</time>
      </trkpt>
      <trkpt lat="-34.89943" lon="-56.0733">
        <ele>-198</ele>
        <time>2022-11-18 12:40:30</time>
      </trkpt>
      <trkpt lat="-34.89944" lon="-56.07328">
        <ele>-182.8</ele>
        <time>2022-11-18 12:40:31</time>
      </trkpt>
      <trkpt lat="-34.89944" lon="-56.07326">
        <ele>-243.4</ele>
        <time>2022-11-18 12:40:32</time>
      </trkpt>
      <trkpt lat="-34.89946" lon="-56.07324">
        <ele>-285.8</ele>
        <time>2022-11-18 12:40:33</time>
      </trkpt>
      <trkpt lat="-34.89946" lon="-56.07323">
        <ele>-307</ele>
        <time>2022-11-18 12:40:34</time>
      </trkpt>
      <trkpt lat="-34.89951" lon="-56.07316">
        <ele>-357.8</ele>
        <time>2022-11-18 12:40:35</time>
      </trkpt>
      <trkpt lat="-34.89953" lon="-56.07315">
        <ele>-362.2</ele>
        <time>2022-11-18 12:40:37</time>
      </trkpt>
      <trkpt lat="-34.89947" lon="-56.07317">
        <ele>-333.2</ele>
        <time>2022-11-18 12:40:38</time>
      </trkpt>
      <trkpt lat="-34.89944" lon="-56.07316">
        <ele>-318.6</ele>
        <time>2022-11-18 12:40:39</time>
      </trkpt>
      <trkpt lat="-34.89942" lon="-56.07319">
        <ele>-275.4</ele>
        <time>2022-11-18 12:40:40</time>
      </trkpt>
      <trkpt lat="-34.89939" lon="-56.07323">
        <ele>-253.8</ele>
        <time>2022-11-18 12:40:41</time>
      </trkpt>
      <trkpt lat="-34.89933" lon="-56.07327">
        <ele>-231.8</ele>
        <time>2022-11-18 12:40:42</time>
      </trkpt>
      <trkpt lat="-34.89933" lon="-56.07327">
        <ele>-220.6</ele>
        <time>2022-11-18 12:40:43</time>
      </trkpt>
      <trkpt lat="-34.89931" lon="-56.07327">
        <ele>-215</ele>
        <time>2022-11-18 12:40:44</time>
      </trkpt>
      <trkpt lat="-34.8993" lon="-56.07327">
        <ele>-178.2</ele>
        <time>2022-11-18 12:40:45</time>
      </trkpt>
      <trkpt lat="-34.8993" lon="-56.07326">
        <ele>-160</ele>
        <time>2022-11-18 12:40:47</time>
      </trkpt>
      <trkpt lat="-34.89929" lon="-56.07326">
        <ele>-148.4</ele>
        <time>2022-11-18 12:40:51</time>
      </trkpt>
      <trkpt lat="-34.89929" lon="-56.07326">
        <ele>-142.2</ele>
        <time>2022-11-18 12:40:52</time>
      </trkpt>
      <trkpt lat="-34.8993" lon="-56.07326">
        <ele>-138.8</ele>
        <time>2022-11-18 12:40:53</time>
      </trkpt>
      <trkpt lat="-34.89931" lon="-56.07326">
        <ele>-137</ele>
        <time>2022-11-18 12:40:54</time>
      </trkpt>
      <trkpt lat="-34.8993" lon="-56.07327">
        <ele>-135.4</ele>
        <time>2022-11-18 12:40:55</time>
      </trkpt>
      <trkpt lat="-34.8993" lon="-56.0733">
        <ele>-134.2</ele>
        <time>2022-11-18 12:40:56</time>
      </trkpt>
      <trkpt lat="-34.89929" lon="-56.0733">
        <ele>-135.4</ele>
        <time>2022-11-18 12:40:57</time>
      </trkpt>
      <trkpt lat="-34.89929" lon="-56.0733">
        <ele>-137.2</ele>
        <time>2022-11-18 12:40:58</time>
      </trkpt>
      <trkpt lat="-34.89929" lon="-56.0733">
        <ele>-139</ele>
        <time>2022-11-18 12:40:59</time>
      </trkpt>
      <trkpt lat="-34.89921" lon="-56.07338">
        <ele>-291.6</ele>
        <time>2022-11-18 12:41:01</time>
      </trkpt>
      <trkpt lat="-34.89929" lon="-56.07331">
        <ele>-276.6</ele>
        <time>2022-11-18 12:41:06</time>
      </trkpt>
      <trkpt lat="-34.89931" lon="-56.0733">
        <ele>-255.8</ele>
        <time>2022-11-18 12:41:09</time>
      </trkpt>
      <trkpt lat="-34.89929" lon="-56.07329">
        <ele>-231.2</ele>
        <time>2022-11-18 12:41:11</time>
      </trkpt>
      <trkpt lat="-34.89928" lon="-56.0733">
        <ele>-200</ele>
        <time>2022-11-18 12:41:12</time>
      </trkpt>
      <trkpt lat="-34.89928" lon="-56.0733">
        <ele>-183.8</ele>
        <time>2022-11-18 12:41:15</time>
      </trkpt>
      <trkpt lat="-34.89928" lon="-56.07329">
        <ele>-167</ele>
        <time>2022-11-18 12:41:19</time>
      </trkpt>
      <trkpt lat="-34.89928" lon="-56.07329">
        <ele>-154.8</ele>
        <time>2022-11-18 12:41:23</time>
      </trkpt>
      <trkpt lat="-34.89928" lon="-56.07329">
        <ele>-146.8</ele>
        <time>2022-11-18 12:41:27</time>
      </trkpt>
      <trkpt lat="-34.89929" lon="-56.07329">
        <ele>-142.8</ele>
        <time>2022-11-18 12:41:30</time>
      </trkpt>
      <trkpt lat="-34.89929" lon="-56.07329">
        <ele>-140.8</ele>
        <time>2022-11-18 12:41:34</time>
      </trkpt>
      <trkpt lat="-34.8993" lon="-56.07331">
        <ele>-139.2</ele>
        <time>2022-11-18 12:41:35</time>
      </trkpt>
      <trkpt lat="-34.8993" lon="-56.07331">
        <ele>-138.6</ele>
        <time>2022-11-18 12:41:37</time>
      </trkpt>
      <trkpt lat="-34.89931" lon="-56.07332">
        <ele>-136.6</ele>
        <time>2022-11-18 12:41:38</time>
      </trkpt>
      <trkpt lat="-34.89931" lon="-56.07332">
        <ele>-137.2</ele>
        <time>2022-11-18 12:41:39</time>
      </trkpt>
      <trkpt lat="-34.89931" lon="-56.07332">
        <ele>-135.2</ele>
        <time>2022-11-18 12:41:40</time>
      </trkpt>
      <trkpt lat="-34.89931" lon="-56.07332">
        <ele>-133.4</ele>
        <time>2022-11-18 12:41:41</time>
      </trkpt>
      <trkpt lat="-34.8993" lon="-56.07332">
        <ele>-132.2</ele>
        <time>2022-11-18 12:41:42</time>
      </trkpt>
      <trkpt lat="-34.89932" lon="-56.07333">
        <ele>-135.6</ele>
        <time>2022-11-18 12:41:43</time>
      </trkpt>
      <trkpt lat="-34.89931" lon="-56.07332">
        <ele>-135.6</ele>
        <time>2022-11-18 12:41:44</time>
      </trkpt>
      <trkpt lat="-34.89931" lon="-56.07332">
        <ele>-135.6</ele>
        <time>2022-11-18 12:41:45</time>
      </trkpt>
      <trkpt lat="-34.8993" lon="-56.07332">
        <ele>-135.6</ele>
        <time>2022-11-18 12:41:46</time>
      </trkpt>
      <trkpt lat="-34.8993" lon="-56.07332">
        <ele>-135.6</ele>
        <time>2022-11-18 12:41:48</time>
      </trkpt>
      <trkpt lat="-34.89925" lon="-56.07337">
        <ele>-376.4</ele>
        <time>2022-11-18 12:41:49</time>
      </trkpt>
      <trkpt lat="-34.89925" lon="-56.07338">
        <ele>-308.6</ele>
        <time>2022-11-18 12:41:50</time>
      </trkpt>
      <trkpt lat="-34.89925" lon="-56.07339">
        <ele>-338.8</ele>
        <time>2022-11-18 12:41:51</time>
      </trkpt>
      <trkpt lat="-34.89924" lon="-56.07341">
        <ele>-287.8</ele>
        <time>2022-11-18 12:41:52</time>
      </trkpt>
      <trkpt lat="-34.89924" lon="-56.07342">
        <ele>-350.6</ele>
        <time>2022-11-18 12:41:53</time>
      </trkpt>
      <trkpt lat="-34.89924" lon="-56.07343">
        <ele>-271.4</ele>
        <time>2022-11-18 12:41:54</time>
      </trkpt>
      <trkpt lat="-34.89924" lon="-56.07345">
        <ele>-359.6</ele>
        <time>2022-11-18 12:41:55</time>
      </trkpt>
      <trkpt lat="-34.89924" lon="-56.07347">
        <ele>-292.2</ele>
        <time>2022-11-18 12:41:58</time>
      </trkpt>
      <trkpt lat="-34.89924" lon="-56.07349">
        <ele>-371.2</ele>
        <time>2022-11-18 12:41:59</time>
      </trkpt>
      <trkpt lat="-34.89924" lon="-56.07351">
        <ele>-302.4</ele>
        <time>2022-11-18 12:42:04</time>
      </trkpt>
      <trkpt lat="-34.89925" lon="-56.07352">
        <ele>-405.4</ele>
        <time>2022-11-18 12:42:05</time>
      </trkpt>
      <trkpt lat="-34.89925" lon="-56.07356">
        <ele>-328.2</ele>
        <time>2022-11-18 12:42:07</time>
      </trkpt>
      <trkpt lat="-34.89925" lon="-56.07358">
        <ele>-374</ele>
        <time>2022-11-18 12:42:08</time>
      </trkpt>
      <trkpt lat="-34.89925" lon="-56.0736">
        <ele>-300</ele>
        <time>2022-11-18 12:42:09</time>
      </trkpt>
      <trkpt lat="-34.89925" lon="-56.07362">
        <ele>-339.8</ele>
        <time>2022-11-18 12:42:10</time>
      </trkpt>
      <trkpt lat="-34.89924" lon="-56.07363">
        <ele>-273</ele>
        <time>2022-11-18 12:42:11</time>
      </trkpt>
      <trkpt lat="-34.89923" lon="-56.07364">
        <ele>-317</ele>
        <time>2022-11-18 12:42:15</time>
      </trkpt>
      <trkpt lat="-34.89923" lon="-56.07366">
        <ele>-284</ele>
        <time>2022-11-18 12:42:16</time>
      </trkpt>
      <trkpt lat="-34.89922" lon="-56.07368">
        <ele>-267.6</ele>
        <time>2022-11-18 12:42:17</time>
      </trkpt>
      <trkpt lat="-34.89922" lon="-56.0737">
        <ele>-259.2</ele>
        <time>2022-11-18 12:42:18</time>
      </trkpt>
      <trkpt lat="-34.89921" lon="-56.07371">
        <ele>-255.2</ele>
        <time>2022-11-18 12:42:19</time>
      </trkpt>
      <trkpt lat="-34.8992" lon="-56.07373">
        <ele>-263.2</ele>
        <time>2022-11-18 12:42:20</time>
      </trkpt>
      <trkpt lat="-34.89918" lon="-56.07376">
        <ele>-286.2</ele>
        <time>2022-11-18 12:42:21</time>
      </trkpt>
      <trkpt lat="-34.89918" lon="-56.07378">
        <ele>-297.6</ele>
        <time>2022-11-18 12:42:22</time>
      </trkpt>
      <trkpt lat="-34.89917" lon="-56.07379">
        <ele>-303.4</ele>
        <time>2022-11-18 12:42:23</time>
      </trkpt>
      <trkpt lat="-34.89917" lon="-56.07381">
        <ele>-306.4</ele>
        <time>2022-11-18 12:42:24</time>
      </trkpt>
      <trkpt lat="-34.89916" lon="-56.07383">
        <ele>-314.6</ele>
        <time>2022-11-18 12:42:25</time>
      </trkpt>
      <trkpt lat="-34.89915" lon="-56.07385">
        <ele>-311.8</ele>
        <time>2022-11-18 12:42:26</time>
      </trkpt>
      <trkpt lat="-34.89914" lon="-56.07387">
        <ele>-317.2</ele>
        <time>2022-11-18 12:42:27</time>
      </trkpt>
      <trkpt lat="-34.89914" lon="-56.07389">
        <ele>-313.2</ele>
        <time>2022-11-18 12:42:28</time>
      </trkpt>
      <trkpt lat="-34.89914" lon="-56.0739">
        <ele>-318</ele>
        <time>2022-11-18 12:42:29</time>
      </trkpt>
      <trkpt lat="-34.89914" lon="-56.07389">
        <ele>-313.6</ele>
        <time>2022-11-18 12:42:31</time>
      </trkpt>
      <trkpt lat="-34.89913" lon="-56.0739">
        <ele>-318.2</ele>
        <time>2022-11-18 12:42:33</time>
      </trkpt>
      <trkpt lat="-34.89912" lon="-56.07392">
        <ele>-313.6</ele>
        <time>2022-11-18 12:42:43</time>
      </trkpt>
      <trkpt lat="-34.89911" lon="-56.07394">
        <ele>-318.2</ele>
        <time>2022-11-18 12:42:45</time>
      </trkpt>
      <trkpt lat="-34.8991" lon="-56.07396">
        <ele>-313.8</ele>
        <time>2022-11-18 12:42:47</time>
      </trkpt>
      <trkpt lat="-34.8991" lon="-56.07396">
        <ele>-318.2</ele>
        <time>2022-11-18 12:42:48</time>
      </trkpt>
      <trkpt lat="-34.89909" lon="-56.07397">
        <ele>-313.8</ele>
        <time>2022-11-18 12:42:49</time>
      </trkpt>
      <trkpt lat="-34.89908" lon="-56.07399">
        <ele>-318.2</ele>
        <time>2022-11-18 12:42:50</time>
      </trkpt>
      <trkpt lat="-34.89908" lon="-56.074">
        <ele>-313.8</ele>
        <time>2022-11-18 12:42:51</time>
      </trkpt>
      <trkpt lat="-34.89907" lon="-56.07401">
        <ele>-318.2</ele>
        <time>2022-11-18 12:42:52</time>
      </trkpt>
      <trkpt lat="-34.89904" lon="-56.07403">
        <ele>-320.4</ele>
        <time>2022-11-18 12:42:53</time>
      </trkpt>
      <trkpt lat="-34.89904" lon="-56.07404">
        <ele>-323.4</ele>
        <time>2022-11-18 12:42:54</time>
      </trkpt>
      <trkpt lat="-34.89904" lon="-56.07406">
        <ele>-325</ele>
        <time>2022-11-18 12:42:55</time>
      </trkpt>
      <trkpt lat="-34.89904" lon="-56.07407">
        <ele>-330.6</ele>
        <time>2022-11-18 12:42:56</time>
      </trkpt>
      <trkpt lat="-34.89903" lon="-56.07409">
        <ele>-333.4</ele>
        <time>2022-11-18 12:42:57</time>
      </trkpt>
      <trkpt lat="-34.89902" lon="-56.0741">
        <ele>-334.8</ele>
        <time>2022-11-18 12:42:58</time>
      </trkpt>
      <trkpt lat="-34.89901" lon="-56.07412">
        <ele>-333.4</ele>
        <time>2022-11-18 12:42:59</time>
      </trkpt>
      <trkpt lat="-34.89912" lon="-56.0742">
        <ele>-333.6</ele>
        <time>2022-11-18 12:43:00</time>
      </trkpt>
      <trkpt lat="-34.89908" lon="-56.07422">
        <ele>-357.6</ele>
        <time>2022-11-18 12:43:01</time>
      </trkpt>
      <trkpt lat="-34.89913" lon="-56.07419">
        <ele>-369.8</ele>
        <time>2022-11-18 12:43:02</time>
      </trkpt>
      <trkpt lat="-34.89916" lon="-56.07418">
        <ele>-375.8</ele>
        <time>2022-11-18 12:43:03</time>
      </trkpt>
      <trkpt lat="-34.89918" lon="-56.07416">
        <ele>-378.8</ele>
        <time>2022-11-18 12:43:04</time>
      </trkpt>
      <trkpt lat="-34.89917" lon="-56.07417">
        <ele>-380.2</ele>
        <time>2022-11-18 12:43:05</time>
      </trkpt>
      <trkpt lat="-34.89917" lon="-56.07416">
        <ele>-381.4</ele>
        <time>2022-11-18 12:43:08</time>
      </trkpt>
      <trkpt lat="-34.89916" lon="-56.07417">
        <ele>-353.8</ele>
        <time>2022-11-18 12:43:10</time>
      </trkpt>
      <trkpt lat="-34.89916" lon="-56.07418">
        <ele>-295.8</ele>
        <time>2022-11-18 12:43:11</time>
      </trkpt>
      <trkpt lat="-34.89915" lon="-56.07419">
        <ele>-281.8</ele>
        <time>2022-11-18 12:43:12</time>
      </trkpt>
      <trkpt lat="-34.89914" lon="-56.0742">
        <ele>-274.8</ele>
        <time>2022-11-18 12:43:13</time>
      </trkpt>
      <trkpt lat="-34.89913" lon="-56.07421">
        <ele>-271.4</ele>
        <time>2022-11-18 12:43:14</time>
      </trkpt>
      <trkpt lat="-34.89912" lon="-56.07424">
        <ele>-269.6</ele>
        <time>2022-11-18 12:43:15</time>
      </trkpt>
      <trkpt lat="-34.8991" lon="-56.07423">
        <ele>-268.2</ele>
        <time>2022-11-18 12:43:16</time>
      </trkpt>
      <trkpt lat="-34.8991" lon="-56.07423">
        <ele>-267.8</ele>
        <time>2022-11-18 12:43:17</time>
      </trkpt>
      <trkpt lat="-34.89905" lon="-56.07437">
        <ele>-267.8</ele>
        <time>2022-11-18 12:43:18</time>
      </trkpt>
      <trkpt lat="-34.89906" lon="-56.07438">
        <ele>-279.6</ele>
        <time>2022-11-18 12:43:19</time>
      </trkpt>
      <trkpt lat="-34.89905" lon="-56.07438">
        <ele>-273.8</ele>
        <time>2022-11-18 12:43:20</time>
      </trkpt>
      <trkpt lat="-34.89905" lon="-56.0744">
        <ele>-282.6</ele>
        <time>2022-11-18 12:43:21</time>
      </trkpt>
      <trkpt lat="-34.89905" lon="-56.07441">
        <ele>-287</ele>
        <time>2022-11-18 12:43:22</time>
      </trkpt>
      <trkpt lat="-34.89905" lon="-56.07443">
        <ele>-289.2</ele>
        <time>2022-11-18 12:43:23</time>
      </trkpt>
      <trkpt lat="-34.89904" lon="-56.07444">
        <ele>-290.4</ele>
        <time>2022-11-18 12:43:24</time>
      </trkpt>
      <trkpt lat="-34.89903" lon="-56.07448">
        <ele>-333.2</ele>
        <time>2022-11-18 12:43:25</time>
      </trkpt>
      <trkpt lat="-34.89902" lon="-56.07451">
        <ele>-354.4</ele>
        <time>2022-11-18 12:43:26</time>
      </trkpt>
      <trkpt lat="-34.89901" lon="-56.07453">
        <ele>-365</ele>
        <time>2022-11-18 12:43:27</time>
      </trkpt>
      <trkpt lat="-34.89881" lon="-56.07548">
        <ele>-306.2</ele>
        <time>2022-11-18 12:43:28</time>
      </trkpt>
      <trkpt lat="-34.89882" lon="-56.0755">
        <ele>-309.4</ele>
        <time>2022-11-18 12:43:30</time>
      </trkpt>
      <trkpt lat="-34.89882" lon="-56.07552">
        <ele>-311</ele>
        <time>2022-11-18 12:43:31</time>
      </trkpt>
      <trkpt lat="-34.89881" lon="-56.07556">
        <ele>-322.6</ele>
        <time>2022-11-18 12:43:32</time>
      </trkpt>
      <trkpt lat="-34.8988" lon="-56.07558">
        <ele>-328.2</ele>
        <time>2022-11-18 12:43:33</time>
      </trkpt>
      <trkpt lat="-34.8988" lon="-56.0756">
        <ele>-311.8</ele>
        <time>2022-11-18 12:43:35</time>
      </trkpt>
      <trkpt lat="-34.89879" lon="-56.07561">
        <ele>-303.8</ele>
        <time>2022-11-18 12:43:39</time>
      </trkpt>
      <trkpt lat="-34.89879" lon="-56.07563">
        <ele>-299.6</ele>
        <time>2022-11-18 12:43:46</time>
      </trkpt>
      <trkpt lat="-34.89878" lon="-56.07567">
        <ele>-296.4</ele>
        <time>2022-11-18 12:43:59</time>
      </trkpt>
      <trkpt lat="-34.8989" lon="-56.0764">
        <ele>-264.2</ele>
        <time>2022-11-18 12:44:12</time>
      </trkpt>
      <trkpt lat="-34.89889" lon="-56.07641">
        <ele>-266.2</ele>
        <time>2022-11-18 12:44:14</time>
      </trkpt>
      <trkpt lat="-34.89887" lon="-56.07644">
        <ele>-222.6</ele>
        <time>2022-11-18 12:44:25</time>
      </trkpt>
      <trkpt lat="-34.89887" lon="-56.07646">
        <ele>-245.4</ele>
        <time>2022-11-18 12:44:34</time>
      </trkpt>
      <trkpt lat="-34.89888" lon="-56.0765">
        <ele>-201.4</ele>
        <time>2022-11-18 12:45:00</time>
      </trkpt>
      <trkpt lat="-34.89887" lon="-56.07652">
        <ele>-234.8</ele>
        <time>2022-11-18 12:45:01</time>
      </trkpt>
      <trkpt lat="-34.89886" lon="-56.07654">
        <ele>-196</ele>
        <time>2022-11-18 12:45:02</time>
      </trkpt>
      <trkpt lat="-34.89885" lon="-56.07655">
        <ele>-232.2</ele>
        <time>2022-11-18 12:45:03</time>
      </trkpt>
      <trkpt lat="-34.89884" lon="-56.07657">
        <ele>-194.8</ele>
        <time>2022-11-18 12:45:04</time>
      </trkpt>
      <trkpt lat="-34.89885" lon="-56.07658">
        <ele>-231.6</ele>
        <time>2022-11-18 12:45:05</time>
      </trkpt>
      <trkpt lat="-34.89884" lon="-56.0766">
        <ele>-194.4</ele>
        <time>2022-11-18 12:45:06</time>
      </trkpt>
      <trkpt lat="-34.89885" lon="-56.07662">
        <ele>-231.4</ele>
        <time>2022-11-18 12:45:07</time>
      </trkpt>
      <trkpt lat="-34.89885" lon="-56.07664">
        <ele>-194.4</ele>
        <time>2022-11-18 12:45:08</time>
      </trkpt>
      <trkpt lat="-34.89885" lon="-56.07664">
        <ele>-231.4</ele>
        <time>2022-11-18 12:45:09</time>
      </trkpt>
      <trkpt lat="-34.89884" lon="-56.07666">
        <ele>-220.2</ele>
        <time>2022-11-18 12:45:10</time>
      </trkpt>
      <trkpt lat="-34.89884" lon="-56.07668">
        <ele>-239.8</ele>
        <time>2022-11-18 12:45:11</time>
      </trkpt>
      <trkpt lat="-34.89884" lon="-56.0767">
        <ele>-249.6</ele>
        <time>2022-11-18 12:45:12</time>
      </trkpt>
      <trkpt lat="-34.89884" lon="-56.0767">
        <ele>-254.6</ele>
        <time>2022-11-18 12:45:13</time>
      </trkpt>
      <trkpt lat="-34.89883" lon="-56.07671">
        <ele>-257</ele>
        <time>2022-11-18 12:45:14</time>
      </trkpt>
      <trkpt lat="-34.89884" lon="-56.07671">
        <ele>-258.2</ele>
        <time>2022-11-18 12:45:15</time>
      </trkpt>
      <trkpt lat="-34.89882" lon="-56.07674">
        <ele>-259.4</ele>
        <time>2022-11-18 12:45:16</time>
      </trkpt>
      <trkpt lat="-34.89883" lon="-56.07679">
        <ele>-266.4</ele>
        <time>2022-11-18 12:45:17</time>
      </trkpt>
      <trkpt lat="-34.89883" lon="-56.07679">
        <ele>-278.2</ele>
        <time>2022-11-18 12:45:18</time>
      </trkpt>
      <trkpt lat="-34.89883" lon="-56.07675">
        <ele>-268.8</ele>
        <time>2022-11-18 12:45:19</time>
      </trkpt>
      <trkpt lat="-34.89882" lon="-56.07677">
        <ele>-279.4</ele>
        <time>2022-11-18 12:45:20</time>
      </trkpt>
      <trkpt lat="-34.89882" lon="-56.07678">
        <ele>-269.4</ele>
        <time>2022-11-18 12:45:21</time>
      </trkpt>
      <trkpt lat="-34.89881" lon="-56.0768">
        <ele>-288.2</ele>
        <time>2022-11-18 12:45:22</time>
      </trkpt>
      <trkpt lat="-34.8988" lon="-56.07682">
        <ele>-297.6</ele>
        <time>2022-11-18 12:45:23</time>
      </trkpt>
      <trkpt lat="-34.89879" lon="-56.07682">
        <ele>-281.8</ele>
        <time>2022-11-18 12:45:24</time>
      </trkpt>
      <trkpt lat="-34.89879" lon="-56.07685">
        <ele>-294.4</ele>
        <time>2022-11-18 12:45:25</time>
      </trkpt>
      <trkpt lat="-34.89878" lon="-56.07686">
        <ele>-280.2</ele>
        <time>2022-11-18 12:45:26</time>
      </trkpt>
      <trkpt lat="-34.89877" lon="-56.07689">
        <ele>-293.6</ele>
        <time>2022-11-18 12:45:27</time>
      </trkpt>
      <trkpt lat="-34.89875" lon="-56.0769">
        <ele>-279.8</ele>
        <time>2022-11-18 12:45:28</time>
      </trkpt>
      <trkpt lat="-34.89874" lon="-56.07692">
        <ele>-293.4</ele>
        <time>2022-11-18 12:45:29</time>
      </trkpt>
      <trkpt lat="-34.89874" lon="-56.07692">
        <ele>-279.8</ele>
        <time>2022-11-18 12:45:30</time>
      </trkpt>
      <trkpt lat="-34.89874" lon="-56.07693">
        <ele>-293.4</ele>
        <time>2022-11-18 12:45:31</time>
      </trkpt>
      <trkpt lat="-34.89872" lon="-56.07696">
        <ele>-279.8</ele>
        <time>2022-11-18 12:45:32</time>
      </trkpt>
      <trkpt lat="-34.89872" lon="-56.07698">
        <ele>-293.4</ele>
        <time>2022-11-18 12:45:33</time>
      </trkpt>
      <trkpt lat="-34.89872" lon="-56.07699">
        <ele>-300.2</ele>
        <time>2022-11-18 12:45:34</time>
      </trkpt>
      <trkpt lat="-34.89873" lon="-56.077">
        <ele>-283.2</ele>
        <time>2022-11-18 12:45:35</time>
      </trkpt>
      <trkpt lat="-34.89873" lon="-56.077">
        <ele>-274.6</ele>
        <time>2022-11-18 12:45:36</time>
      </trkpt>
      <trkpt lat="-34.89876" lon="-56.07695">
        <ele>-257</ele>
        <time>2022-11-18 12:45:37</time>
      </trkpt>
      <trkpt lat="-34.89877" lon="-56.07695">
        <ele>-248.2</ele>
        <time>2022-11-18 12:45:38</time>
      </trkpt>
      <trkpt lat="-34.89879" lon="-56.07689">
        <ele>-235.2</ele>
        <time>2022-11-18 12:45:39</time>
      </trkpt>
      <trkpt lat="-34.8988" lon="-56.07685">
        <ele>-228.8</ele>
        <time>2022-11-18 12:45:40</time>
      </trkpt>
      <trkpt lat="-34.89881" lon="-56.07684">
        <ele>-202.8</ele>
        <time>2022-11-18 12:45:41</time>
      </trkpt>
      <trkpt lat="-34.89883" lon="-56.07682">
        <ele>-189.8</ele>
        <time>2022-11-18 12:45:42</time>
      </trkpt>
      <trkpt lat="-34.89883" lon="-56.07682">
        <ele>-168.4</ele>
        <time>2022-11-18 12:45:43</time>
      </trkpt>
      <trkpt lat="-34.89883" lon="-56.07682">
        <ele>-155.8</ele>
        <time>2022-11-18 12:45:44</time>
      </trkpt>
      <trkpt lat="-34.89883" lon="-56.07682">
        <ele>-149.4</ele>
        <time>2022-11-18 12:45:45</time>
      </trkpt>
      <trkpt lat="-34.89884" lon="-56.07683">
        <ele>-146.4</ele>
        <time>2022-11-18 12:45:46</time>
      </trkpt>
      <trkpt lat="-34.89884" lon="-56.07683">
        <ele>-144.6</ele>
        <time>2022-11-18 12:45:47</time>
      </trkpt>
      <trkpt lat="-34.89885" lon="-56.07683">
        <ele>-143.4</ele>
        <time>2022-11-18 12:45:49</time>
      </trkpt>
      <trkpt lat="-34.89887" lon="-56.07682">
        <ele>-142</ele>
        <time>2022-11-18 12:45:50</time>
      </trkpt>
      <trkpt lat="-34.89889" lon="-56.07683">
        <ele>-139.8</ele>
        <time>2022-11-18 12:45:51</time>
      </trkpt>
      <trkpt lat="-34.89889" lon="-56.07685">
        <ele>-141.2</ele>
        <time>2022-11-18 12:45:52</time>
      </trkpt>
      <trkpt lat="-34.8989" lon="-56.07687">
        <ele>-142.4</ele>
        <time>2022-11-18 12:45:53</time>
      </trkpt>
      <trkpt lat="-34.8989" lon="-56.07689">
        <ele>-144.4</ele>
        <time>2022-11-18 12:45:54</time>
      </trkpt>
      <trkpt lat="-34.8989" lon="-56.0769">
        <ele>-145.4</ele>
        <time>2022-11-18 12:45:55</time>
      </trkpt>
      <trkpt lat="-34.89887" lon="-56.07691">
        <ele>-146.4</ele>
        <time>2022-11-18 12:46:00</time>
      </trkpt>
      <trkpt lat="-34.89883" lon="-56.07693">
        <ele>-143.6</ele>
        <time>2022-11-18 12:46:01</time>
      </trkpt>
      <trkpt lat="-34.89882" lon="-56.07693">
        <ele>-141.6</ele>
        <time>2022-11-18 12:46:03</time>
      </trkpt>
      <trkpt lat="-34.89882" lon="-56.07694">
        <ele>-140.2</ele>
        <time>2022-11-18 12:46:04</time>
      </trkpt>
      <trkpt lat="-34.89881" lon="-56.07696">
        <ele>-139.2</ele>
        <time>2022-11-18 12:46:05</time>
      </trkpt>
      <trkpt lat="-34.8988" lon="-56.07696">
        <ele>-137.6</ele>
        <time>2022-11-18 12:46:06</time>
      </trkpt>
      <trkpt lat="-34.8988" lon="-56.07697">
        <ele>-136.2</ele>
        <time>2022-11-18 12:46:07</time>
      </trkpt>
      <trkpt lat="-34.89879" lon="-56.07698">
        <ele>-135.6</ele>
        <time>2022-11-18 12:46:08</time>
      </trkpt>
      <trkpt lat="-34.89878" lon="-56.07698">
        <ele>-135.6</ele>
        <time>2022-11-18 12:46:09</time>
      </trkpt>
      <trkpt lat="-34.89878" lon="-56.07698">
        <ele>-136</ele>
        <time>2022-11-18 12:46:10</time>
      </trkpt>
      <trkpt lat="-34.89877" lon="-56.07699">
        <ele>-136.6</ele>
        <time>2022-11-18 12:46:11</time>
      </trkpt>
      <trkpt lat="-34.89876" lon="-56.07699">
        <ele>-136.8</ele>
        <time>2022-11-18 12:46:12</time>
      </trkpt>
      <trkpt lat="-34.89872" lon="-56.07704">
        <ele>-137.2</ele>
        <time>2022-11-18 12:46:13</time>
      </trkpt>
      <trkpt lat="-34.89867" lon="-56.0771">
        <ele>-137.4</ele>
        <time>2022-11-18 12:46:14</time>
      </trkpt>
      <trkpt lat="-34.89863" lon="-56.07715">
        <ele>-135.8</ele>
        <time>2022-11-18 12:46:15</time>
      </trkpt>
      <trkpt lat="-34.89858" lon="-56.07719">
        <ele>-135.4</ele>
        <time>2022-11-18 12:46:16</time>
      </trkpt>
      <trkpt lat="-34.89856" lon="-56.07721">
        <ele>-134.6</ele>
        <time>2022-11-18 12:46:18</time>
      </trkpt>
      <trkpt lat="-34.89853" lon="-56.07724">
        <ele>-134.4</ele>
        <time>2022-11-18 12:46:21</time>
      </trkpt>
      <trkpt lat="-34.8985" lon="-56.07727">
        <ele>-135</ele>
        <time>2022-11-18 12:46:22</time>
      </trkpt>
      <trkpt lat="-34.89844" lon="-56.07731">
        <ele>-133.6</ele>
        <time>2022-11-18 12:46:23</time>
      </trkpt>
      <trkpt lat="-34.89841" lon="-56.07733">
        <ele>-133</ele>
        <time>2022-11-18 12:46:24</time>
      </trkpt>
      <trkpt lat="-34.89836" lon="-56.07738">
        <ele>-135</ele>
        <time>2022-11-18 12:46:25</time>
      </trkpt>
      <trkpt lat="-34.89833" lon="-56.07742">
        <ele>-136</ele>
        <time>2022-11-18 12:46:26</time>
      </trkpt>
      <trkpt lat="-34.89827" lon="-56.0775">
        <ele>-136.4</ele>
        <time>2022-11-18 12:46:28</time>
      </trkpt>
      <trkpt lat="-34.89826" lon="-56.07751">
        <ele>-135.8</ele>
        <time>2022-11-18 12:46:31</time>
      </trkpt>
      <trkpt lat="-34.89826" lon="-56.07751">
        <ele>-134.8</ele>
        <time>2022-11-18 12:46:37</time>
      </trkpt>
      <trkpt lat="-34.89827" lon="-56.07751">
        <ele>-133.8</ele>
        <time>2022-11-18 12:46:39</time>
      </trkpt>
      <trkpt lat="-34.89827" lon="-56.07749">
        <ele>-134</ele>
        <time>2022-11-18 12:46:40</time>
      </trkpt>
      <trkpt lat="-34.89827" lon="-56.07749">
        <ele>-134.8</ele>
        <time>2022-11-18 12:46:41</time>
      </trkpt>
      <trkpt lat="-34.89827" lon="-56.07749">
        <ele>-135</ele>
        <time>2022-11-18 12:46:42</time>
      </trkpt>
      <trkpt lat="-34.89827" lon="-56.07749">
        <ele>-135</ele>
        <time>2022-11-18 12:46:43</time>
      </trkpt>
      <trkpt lat="-34.89857" lon="-56.07734">
        <ele>1</ele>
        <time>2022-11-18 13:01:02</time>
      </trkpt>
      <trkpt lat="-34.89869" lon="-56.07727">
        <ele>-245</ele>
        <time>2022-11-18 13:01:16</time>
      </trkpt>
      <trkpt lat="-34.8987" lon="-56.07726">
        <ele>-301.6</ele>
        <time>2022-11-18 13:01:17</time>
      </trkpt>
      <trkpt lat="-34.89872" lon="-56.07726">
        <ele>-309</ele>
        <time>2022-11-18 13:01:18</time>
      </trkpt>
      <trkpt lat="-34.89873" lon="-56.07725">
        <ele>-154.4</ele>
        <time>2022-11-18 13:01:19</time>
      </trkpt>
      <trkpt lat="-34.89874" lon="-56.07724">
        <ele>-76.8</ele>
        <time>2022-11-18 13:01:20</time>
      </trkpt>
      <trkpt lat="-34.89878" lon="-56.07725">
        <ele>-38.4</ele>
        <time>2022-11-18 13:01:21</time>
      </trkpt>
      <trkpt lat="-34.8988" lon="-56.07724">
        <ele>-19</ele>
        <time>2022-11-18 13:01:22</time>
      </trkpt>
      <trkpt lat="-34.89882" lon="-56.07724">
        <ele>-9.4</ele>
        <time>2022-11-18 13:01:23</time>
      </trkpt>
      <trkpt lat="-34.89884" lon="-56.07724">
        <ele>-4.6</ele>
        <time>2022-11-18 13:01:24</time>
      </trkpt>
      <trkpt lat="-34.89886" lon="-56.07724">
        <ele>-2.4</ele>
        <time>2022-11-18 13:01:25</time>
      </trkpt>
      <trkpt lat="-34.89888" lon="-56.07724">
        <ele>-5.8</ele>
        <time>2022-11-18 13:01:26</time>
      </trkpt>
      <trkpt lat="-34.89884" lon="-56.07724">
        <ele>-7.6</ele>
        <time>2022-11-18 13:01:27</time>
      </trkpt>
      <trkpt lat="-34.89887" lon="-56.07725">
        <ele>-9</ele>
        <time>2022-11-18 13:01:29</time>
      </trkpt>
      <trkpt lat="-34.89891" lon="-56.07725">
        <ele>-59.8</ele>
        <time>2022-11-18 13:01:31</time>
      </trkpt>
      <trkpt lat="-34.89893" lon="-56.07726">
        <ele>-188</ele>
        <time>2022-11-18 13:01:32</time>
      </trkpt>
      <trkpt lat="-34.89895" lon="-56.07726">
        <ele>-252.2</ele>
        <time>2022-11-18 13:01:33</time>
      </trkpt>
      <trkpt lat="-34.89897" lon="-56.07726">
        <ele>-284.2</ele>
        <time>2022-11-18 13:01:34</time>
      </trkpt>
      <trkpt lat="-34.89898" lon="-56.07729">
        <ele>-232</ele>
        <time>2022-11-18 13:01:35</time>
      </trkpt>
      <trkpt lat="-34.89897" lon="-56.0773">
        <ele>-171</ele>
        <time>2022-11-18 13:01:36</time>
      </trkpt>
      <trkpt lat="-34.89894" lon="-56.07728">
        <ele>-130</ele>
        <time>2022-11-18 13:01:37</time>
      </trkpt>
      <trkpt lat="-34.89893" lon="-56.07726">
        <ele>-109.4</ele>
        <time>2022-11-18 13:01:38</time>
      </trkpt>
      <trkpt lat="-34.89892" lon="-56.07726">
        <ele>-99.2</ele>
        <time>2022-11-18 13:01:39</time>
      </trkpt>
      <trkpt lat="-34.89891" lon="-56.07726">
        <ele>-94</ele>
        <time>2022-11-18 13:01:40</time>
      </trkpt>
      <trkpt lat="-34.8989" lon="-56.07726">
        <ele>-52.8</ele>
        <time>2022-11-18 13:01:41</time>
      </trkpt>
      <trkpt lat="-34.89891" lon="-56.07725">
        <ele>-31.8</ele>
        <time>2022-11-18 13:01:42</time>
      </trkpt>
      <trkpt lat="-34.89891" lon="-56.07725">
        <ele>-21.4</ele>
        <time>2022-11-18 13:01:43</time>
      </trkpt>
      <trkpt lat="-34.89891" lon="-56.07724">
        <ele>-16</ele>
        <time>2022-11-18 13:01:44</time>
      </trkpt>
      <trkpt lat="-34.89891" lon="-56.07723">
        <ele>-13.2</ele>
        <time>2022-11-18 13:01:45</time>
      </trkpt>
      <trkpt lat="-34.8989" lon="-56.07723">
        <ele>-11.8</ele>
        <time>2022-11-18 13:01:46</time>
      </trkpt>
      <trkpt lat="-34.8989" lon="-56.07723">
        <ele>-9.8</ele>
        <time>2022-11-18 13:01:48</time>
      </trkpt>
      <trkpt lat="-34.89889" lon="-56.07722">
        <ele>-8.2</ele>
        <time>2022-11-18 13:01:49</time>
      </trkpt>
      <trkpt lat="-34.89889" lon="-56.07721">
        <ele>-7.2</ele>
        <time>2022-11-18 13:01:50</time>
      </trkpt>
      <trkpt lat="-34.89889" lon="-56.07721">
        <ele>-5.8</ele>
        <time>2022-11-18 13:01:51</time>
      </trkpt>
      <trkpt lat="-34.89889" lon="-56.07721">
        <ele>-3.2</ele>
        <time>2022-11-18 13:01:52</time>
      </trkpt>
      <trkpt lat="-34.89889" lon="-56.07721">
        <ele>-2</ele>
        <time>2022-11-18 13:01:53</time>
      </trkpt>
      <trkpt lat="-34.89888" lon="-56.07721">
        <ele>-0.6</ele>
        <time>2022-11-18 13:01:55</time>
      </trkpt>
      <trkpt lat="-34.89888" lon="-56.07721">
        <ele>0.6</ele>
        <time>2022-11-18 13:01:57</time>
      </trkpt>
      <trkpt lat="-34.89889" lon="-56.07718">
        <ele>0.6</ele>
        <time>2022-11-18 13:02:07</time>
      </trkpt>
      <trkpt lat="-34.89889" lon="-56.07716">
        <ele>0.4</ele>
        <time>2022-11-18 13:02:11</time>
      </trkpt>
      <trkpt lat="-34.8989" lon="-56.07714">
        <ele>-1</ele>
        <time>2022-11-18 13:02:15</time>
      </trkpt>
      <trkpt lat="-34.8989" lon="-56.07713">
        <ele>-3.2</ele>
        <time>2022-11-18 13:02:17</time>
      </trkpt>
      <trkpt lat="-34.8989" lon="-56.07712">
        <ele>-7.2</ele>
        <time>2022-11-18 13:02:18</time>
      </trkpt>
      <trkpt lat="-34.89891" lon="-56.07711">
        <ele>-9.8</ele>
        <time>2022-11-18 13:02:19</time>
      </trkpt>
      <trkpt lat="-34.89891" lon="-56.0771">
        <ele>-14.4</ele>
        <time>2022-11-18 13:02:20</time>
      </trkpt>
      <trkpt lat="-34.89891" lon="-56.07708">
        <ele>-18</ele>
        <time>2022-11-18 13:02:21</time>
      </trkpt>
      <trkpt lat="-34.89891" lon="-56.07707">
        <ele>-42</ele>
        <time>2022-11-18 13:02:22</time>
      </trkpt>
      <trkpt lat="-34.89891" lon="-56.07704">
        <ele>-66.6</ele>
        <time>2022-11-18 13:02:23</time>
      </trkpt>
      <trkpt lat="-34.89891" lon="-56.07702">
        <ele>-94.4</ele>
        <time>2022-11-18 13:02:24</time>
      </trkpt>
      <trkpt lat="-34.89891" lon="-56.077">
        <ele>-108.4</ele>
        <time>2022-11-18 13:02:25</time>
      </trkpt>
      <trkpt lat="-34.89891" lon="-56.07698">
        <ele>-117.8</ele>
        <time>2022-11-18 13:02:26</time>
      </trkpt>
      <trkpt lat="-34.89892" lon="-56.07695">
        <ele>-122.6</ele>
        <time>2022-11-18 13:02:27</time>
      </trkpt>
      <trkpt lat="-34.89892" lon="-56.07693">
        <ele>-131.8</ele>
        <time>2022-11-18 13:02:28</time>
      </trkpt>
      <trkpt lat="-34.89892" lon="-56.07689">
        <ele>-136.4</ele>
        <time>2022-11-18 13:02:29</time>
      </trkpt>
      <trkpt lat="-34.89891" lon="-56.07687">
        <ele>-140.4</ele>
        <time>2022-11-18 13:02:30</time>
      </trkpt>
      <trkpt lat="-34.8989" lon="-56.07686">
        <ele>-142.2</ele>
        <time>2022-11-18 13:02:31</time>
      </trkpt>
      <trkpt lat="-34.89889" lon="-56.07682">
        <ele>-143.6</ele>
        <time>2022-11-18 13:02:33</time>
      </trkpt>
      <trkpt lat="-34.8989" lon="-56.07677">
        <ele>-156.2</ele>
        <time>2022-11-18 13:02:36</time>
      </trkpt>
      <trkpt lat="-34.8989" lon="-56.07675">
        <ele>-150.2</ele>
        <time>2022-11-18 13:02:37</time>
      </trkpt>
      <trkpt lat="-34.89892" lon="-56.07674">
        <ele>-159.2</ele>
        <time>2022-11-18 13:02:38</time>
      </trkpt>
      <trkpt lat="-34.89893" lon="-56.07672">
        <ele>-151.6</ele>
        <time>2022-11-18 13:02:39</time>
      </trkpt>
      <trkpt lat="-34.89892" lon="-56.07671">
        <ele>-160</ele>
        <time>2022-11-18 13:02:40</time>
      </trkpt>
      <trkpt lat="-34.89893" lon="-56.0767">
        <ele>-152</ele>
        <time>2022-11-18 13:02:41</time>
      </trkpt>
      <trkpt lat="-34.89894" lon="-56.07668">
        <ele>-173.8</ele>
        <time>2022-11-18 13:02:42</time>
      </trkpt>
      <trkpt lat="-34.89895" lon="-56.07667">
        <ele>-128.2</ele>
        <time>2022-11-18 13:02:43</time>
      </trkpt>
      <trkpt lat="-34.89897" lon="-56.07665">
        <ele>-161.8</ele>
        <time>2022-11-18 13:02:44</time>
      </trkpt>
      <trkpt lat="-34.89899" lon="-56.07663">
        <ele>-105</ele>
        <time>2022-11-18 13:02:45</time>
      </trkpt>
      <trkpt lat="-34.89902" lon="-56.07661">
        <ele>-150.4</ele>
        <time>2022-11-18 13:02:46</time>
      </trkpt>
      <trkpt lat="-34.89904" lon="-56.0766">
        <ele>-81.8</ele>
        <time>2022-11-18 13:02:47</time>
      </trkpt>
      <trkpt lat="-34.89906" lon="-56.07659">
        <ele>-138.8</ele>
        <time>2022-11-18 13:02:48</time>
      </trkpt>
      <trkpt lat="-34.89907" lon="-56.07657">
        <ele>-77</ele>
        <time>2022-11-18 13:02:49</time>
      </trkpt>
      <trkpt lat="-34.89909" lon="-56.07656">
        <ele>-136.4</ele>
        <time>2022-11-18 13:02:50</time>
      </trkpt>
      <trkpt lat="-34.8991" lon="-56.07655">
        <ele>-75.8</ele>
        <time>2022-11-18 13:02:51</time>
      </trkpt>
      <trkpt lat="-34.89908" lon="-56.07657">
        <ele>-135.8</ele>
        <time>2022-11-18 13:02:52</time>
      </trkpt>
      <trkpt lat="-34.89909" lon="-56.07656">
        <ele>-157.4</ele>
        <time>2022-11-18 13:02:53</time>
      </trkpt>
      <trkpt lat="-34.8991" lon="-56.07656">
        <ele>-176.6</ele>
        <time>2022-11-18 13:02:54</time>
      </trkpt>
      <trkpt lat="-34.89909" lon="-56.07656">
        <ele>-177.8</ele>
        <time>2022-11-18 13:02:55</time>
      </trkpt>
      <trkpt lat="-34.89909" lon="-56.07657">
        <ele>-179</ele>
        <time>2022-11-18 13:02:57</time>
      </trkpt>
      <trkpt lat="-34.89909" lon="-56.0766">
        <ele>-173</ele>
        <time>2022-11-18 13:02:59</time>
      </trkpt>
      <trkpt lat="-34.89909" lon="-56.07661">
        <ele>-170</ele>
        <time>2022-11-18 13:03:00</time>
      </trkpt>
      <trkpt lat="-34.8991" lon="-56.0766">
        <ele>-162</ele>
        <time>2022-11-18 13:03:01</time>
      </trkpt>
      <trkpt lat="-34.89911" lon="-56.07659">
        <ele>-158</ele>
        <time>2022-11-18 13:03:02</time>
      </trkpt>
      <trkpt lat="-34.89911" lon="-56.07658">
        <ele>-140.2</ele>
        <time>2022-11-18 13:03:03</time>
      </trkpt>
      <trkpt lat="-34.89912" lon="-56.07658">
        <ele>-126.6</ele>
        <time>2022-11-18 13:03:04</time>
      </trkpt>
      <trkpt lat="-34.89913" lon="-56.07657">
        <ele>-115.2</ele>
        <time>2022-11-18 13:03:05</time>
      </trkpt>
      <trkpt lat="-34.89912" lon="-56.0765">
        <ele>-110</ele>
        <time>2022-11-18 13:03:06</time>
      </trkpt>
      <trkpt lat="-34.89909" lon="-56.0765">
        <ele>-107</ele>
        <time>2022-11-18 13:03:07</time>
      </trkpt>
      <trkpt lat="-34.89909" lon="-56.07649">
        <ele>-105.4</ele>
        <time>2022-11-18 13:03:08</time>
      </trkpt>
      <trkpt lat="-34.89909" lon="-56.07648">
        <ele>-100.4</ele>
        <time>2022-11-18 13:03:09</time>
      </trkpt>
      <trkpt lat="-34.89909" lon="-56.07646">
        <ele>-98</ele>
        <time>2022-11-18 13:03:10</time>
      </trkpt>
      <trkpt lat="-34.89909" lon="-56.07644">
        <ele>-100.8</ele>
        <time>2022-11-18 13:03:11</time>
      </trkpt>
      <trkpt lat="-34.89908" lon="-56.07644">
        <ele>-99.2</ele>
        <time>2022-11-18 13:03:12</time>
      </trkpt>
      <trkpt lat="-34.89912" lon="-56.07646">
        <ele>-96.8</ele>
        <time>2022-11-18 13:03:13</time>
      </trkpt>
      <trkpt lat="-34.89912" lon="-56.07646">
        <ele>-95.6</ele>
        <time>2022-11-18 13:03:14</time>
      </trkpt>
      <trkpt lat="-34.89911" lon="-56.07642">
        <ele>-97</ele>
        <time>2022-11-18 13:03:16</time>
      </trkpt>
      <trkpt lat="-34.89908" lon="-56.07643">
        <ele>-104.2</ele>
        <time>2022-11-18 13:03:18</time>
      </trkpt>
      <trkpt lat="-34.89908" lon="-56.07643">
        <ele>-120.8</ele>
        <time>2022-11-18 13:03:21</time>
      </trkpt>
      <trkpt lat="-34.89908" lon="-56.07642">
        <ele>-129.2</ele>
        <time>2022-11-18 13:03:22</time>
      </trkpt>
      <trkpt lat="-34.89908" lon="-56.07642">
        <ele>-136.2</ele>
        <time>2022-11-18 13:03:23</time>
      </trkpt>
      <trkpt lat="-34.89907" lon="-56.07642">
        <ele>-124</ele>
        <time>2022-11-18 13:03:24</time>
      </trkpt>
      <trkpt lat="-34.89907" lon="-56.07641">
        <ele>-133.6</ele>
        <time>2022-11-18 13:03:25</time>
      </trkpt>
      <trkpt lat="-34.89905" lon="-56.07638">
        <ele>-138.4</ele>
        <time>2022-11-18 13:03:26</time>
      </trkpt>
      <trkpt lat="-34.89905" lon="-56.07638">
        <ele>-141.6</ele>
        <time>2022-11-18 13:03:27</time>
      </trkpt>
      <trkpt lat="-34.89904" lon="-56.07637">
        <ele>-143.2</ele>
        <time>2022-11-18 13:03:28</time>
      </trkpt>
      <trkpt lat="-34.89904" lon="-56.07637">
        <ele>-149.6</ele>
        <time>2022-11-18 13:03:29</time>
      </trkpt>
      <trkpt lat="-34.89906" lon="-56.07638">
        <ele>-147</ele>
        <time>2022-11-18 13:03:30</time>
      </trkpt>
      <trkpt lat="-34.89905" lon="-56.07637">
        <ele>-151.6</ele>
        <time>2022-11-18 13:03:31</time>
      </trkpt>
      <trkpt lat="-34.89905" lon="-56.07636">
        <ele>-148</ele>
        <time>2022-11-18 13:03:32</time>
      </trkpt>
      <trkpt lat="-34.89906" lon="-56.07636">
        <ele>-152</ele>
        <time>2022-11-18 13:03:33</time>
      </trkpt>
      <trkpt lat="-34.89907" lon="-56.07635">
        <ele>-148.4</ele>
        <time>2022-11-18 13:03:34</time>
      </trkpt>
      <trkpt lat="-34.89906" lon="-56.07634">
        <ele>-152.2</ele>
        <time>2022-11-18 13:03:35</time>
      </trkpt>
      <trkpt lat="-34.89906" lon="-56.07632">
        <ele>-148.4</ele>
        <time>2022-11-18 13:03:36</time>
      </trkpt>
      <trkpt lat="-34.89907" lon="-56.07631">
        <ele>-152.2</ele>
        <time>2022-11-18 13:03:37</time>
      </trkpt>
      <trkpt lat="-34.89907" lon="-56.0763">
        <ele>-154</ele>
        <time>2022-11-18 13:03:38</time>
      </trkpt>
      <trkpt lat="-34.89907" lon="-56.07629">
        <ele>-206.6</ele>
        <time>2022-11-18 13:03:39</time>
      </trkpt>
      <trkpt lat="-34.89907" lon="-56.07629">
        <ele>-156</ele>
        <time>2022-11-18 13:03:40</time>
      </trkpt>
      <trkpt lat="-34.89908" lon="-56.07628">
        <ele>-182</ele>
        <time>2022-11-18 13:03:41</time>
      </trkpt>
      <trkpt lat="-34.89909" lon="-56.07626">
        <ele>-113.8</ele>
        <time>2022-11-18 13:03:42</time>
      </trkpt>
      <trkpt lat="-34.8991" lon="-56.07626">
        <ele>-161</ele>
        <time>2022-11-18 13:03:43</time>
      </trkpt>
      <trkpt lat="-34.89909" lon="-56.07627">
        <ele>-94.8</ele>
        <time>2022-11-18 13:03:44</time>
      </trkpt>
      <trkpt lat="-34.89909" lon="-56.0763">
        <ele>-151.4</ele>
        <time>2022-11-18 13:03:45</time>
      </trkpt>
      <trkpt lat="-34.89909" lon="-56.07629">
        <ele>-89.8</ele>
        <time>2022-11-18 13:03:46</time>
      </trkpt>
      <trkpt lat="-34.8991" lon="-56.07628">
        <ele>-135.6</ele>
        <time>2022-11-18 13:03:47</time>
      </trkpt>
      <trkpt lat="-34.8991" lon="-56.07627">
        <ele>-82.2</ele>
        <time>2022-11-18 13:03:48</time>
      </trkpt>
      <trkpt lat="-34.8991" lon="-56.07627">
        <ele>-100.2</ele>
        <time>2022-11-18 13:03:49</time>
      </trkpt>
      <trkpt lat="-34.8991" lon="-56.07625">
        <ele>-66.2</ele>
        <time>2022-11-18 13:03:50</time>
      </trkpt>
      <trkpt lat="-34.8991" lon="-56.07625">
        <ele>-92</ele>
        <time>2022-11-18 13:03:51</time>
      </trkpt>
      <trkpt lat="-34.8991" lon="-56.07624">
        <ele>-105</ele>
        <time>2022-11-18 13:03:52</time>
      </trkpt>
      <trkpt lat="-34.89911" lon="-56.07624">
        <ele>-111.6</ele>
        <time>2022-11-18 13:03:53</time>
      </trkpt>
      <trkpt lat="-34.89912" lon="-56.07623">
        <ele>-114.8</ele>
        <time>2022-11-18 13:03:54</time>
      </trkpt>
      <trkpt lat="-34.89912" lon="-56.07621">
        <ele>-116.4</ele>
        <time>2022-11-18 13:03:55</time>
      </trkpt>
      <trkpt lat="-34.89914" lon="-56.07621">
        <ele>-117.6</ele>
        <time>2022-11-18 13:03:56</time>
      </trkpt>
      <trkpt lat="-34.89914" lon="-56.07617">
        <ele>-118</ele>
        <time>2022-11-18 13:03:57</time>
      </trkpt>
      <trkpt lat="-34.89915" lon="-56.07615">
        <ele>-118</ele>
        <time>2022-11-18 13:03:59</time>
      </trkpt>
      <trkpt lat="-34.89915" lon="-56.07612">
        <ele>-118</ele>
        <time>2022-11-18 13:04:01</time>
      </trkpt>
      <trkpt lat="-34.89916" lon="-56.07611">
        <ele>-92.6</ele>
        <time>2022-11-18 13:04:02</time>
      </trkpt>
      <trkpt lat="-34.89917" lon="-56.07609">
        <ele>-68.2</ele>
        <time>2022-11-18 13:04:03</time>
      </trkpt>
      <trkpt lat="-34.89915" lon="-56.0761">
        <ele>-93.2</ele>
        <time>2022-11-18 13:04:04</time>
      </trkpt>
      <trkpt lat="-34.89914" lon="-56.0761">
        <ele>-105.6</ele>
        <time>2022-11-18 13:04:05</time>
      </trkpt>
      <trkpt lat="-34.89914" lon="-56.0761">
        <ele>-111.8</ele>
        <time>2022-11-18 13:04:06</time>
      </trkpt>
      <trkpt lat="-34.89914" lon="-56.07607">
        <ele>-131.4</ele>
        <time>2022-11-18 13:04:07</time>
      </trkpt>
      <trkpt lat="-34.89913" lon="-56.07611">
        <ele>-141.4</ele>
        <time>2022-11-18 13:04:08</time>
      </trkpt>
      <trkpt lat="-34.89914" lon="-56.07609">
        <ele>-146.2</ele>
        <time>2022-11-18 13:04:09</time>
      </trkpt>
      <trkpt lat="-34.89915" lon="-56.07607">
        <ele>-120.8</ele>
        <time>2022-11-18 13:04:10</time>
      </trkpt>
      <trkpt lat="-34.89916" lon="-56.07605">
        <ele>-145.8</ele>
        <time>2022-11-18 13:04:11</time>
      </trkpt>
      <trkpt lat="-34.89916" lon="-56.07603">
        <ele>-120.6</ele>
        <time>2022-11-18 13:04:12</time>
      </trkpt>
      <trkpt lat="-34.89917" lon="-56.07602">
        <ele>-145.6</ele>
        <time>2022-11-18 13:04:13</time>
      </trkpt>
      <trkpt lat="-34.89918" lon="-56.076">
        <ele>-120.4</ele>
        <time>2022-11-18 13:04:14</time>
      </trkpt>
      <trkpt lat="-34.89918" lon="-56.07601">
        <ele>-145.6</ele>
        <time>2022-11-18 13:04:15</time>
      </trkpt>
      <trkpt lat="-34.89918" lon="-56.07601">
        <ele>-120.4</ele>
        <time>2022-11-18 13:04:16</time>
      </trkpt>
      <trkpt lat="-34.89919" lon="-56.07601">
        <ele>-145.6</ele>
        <time>2022-11-18 13:04:17</time>
      </trkpt>
      <trkpt lat="-34.8992" lon="-56.07601">
        <ele>-120.4</ele>
        <time>2022-11-18 13:04:18</time>
      </trkpt>
      <trkpt lat="-34.89922" lon="-56.07602">
        <ele>-145.6</ele>
        <time>2022-11-18 13:04:19</time>
      </trkpt>
      <trkpt lat="-34.89923" lon="-56.07602">
        <ele>-158.2</ele>
        <time>2022-11-18 13:04:20</time>
      </trkpt>
      <trkpt lat="-34.89924" lon="-56.07602">
        <ele>-164.4</ele>
        <time>2022-11-18 13:04:21</time>
      </trkpt>
      <trkpt lat="-34.89924" lon="-56.07601">
        <ele>-167.6</ele>
        <time>2022-11-18 13:04:22</time>
      </trkpt>
      <trkpt lat="-34.89925" lon="-56.076">
        <ele>-169.2</ele>
        <time>2022-11-18 13:04:23</time>
      </trkpt>
      <trkpt lat="-34.89924" lon="-56.07599">
        <ele>-170.2</ele>
        <time>2022-11-18 13:04:24</time>
      </trkpt>
      <trkpt lat="-34.89925" lon="-56.07598">
        <ele>-239.8</ele>
        <time>2022-11-18 13:04:25</time>
      </trkpt>
      <trkpt lat="-34.89926" lon="-56.07597">
        <ele>-205</ele>
        <time>2022-11-18 13:04:27</time>
      </trkpt>
      <trkpt lat="-34.89925" lon="-56.07595">
        <ele>-317.6</ele>
        <time>2022-11-18 13:04:32</time>
      </trkpt>
      <trkpt lat="-34.89926" lon="-56.07594">
        <ele>-260.4</ele>
        <time>2022-11-18 13:04:33</time>
      </trkpt>
      <trkpt lat="-34.89926" lon="-56.07593">
        <ele>-253</ele>
        <time>2022-11-18 13:04:34</time>
      </trkpt>
      <trkpt lat="-34.89925" lon="-56.07591">
        <ele>-394.4</ele>
        <time>2022-11-18 13:04:35</time>
      </trkpt>
      <trkpt lat="-34.89927" lon="-56.0759">
        <ele>-279.6</ele>
        <time>2022-11-18 13:04:36</time>
      </trkpt>
      <trkpt lat="-34.89927" lon="-56.07589">
        <ele>-413.4</ele>
        <time>2022-11-18 13:04:37</time>
      </trkpt>
      <trkpt lat="-34.89926" lon="-56.07588">
        <ele>-286.8</ele>
        <time>2022-11-18 13:04:38</time>
      </trkpt>
      <trkpt lat="-34.89926" lon="-56.07588">
        <ele>-376.2</ele>
        <time>2022-11-18 13:04:39</time>
      </trkpt>
      <trkpt lat="-34.89926" lon="-56.07588">
        <ele>-269.6</ele>
        <time>2022-11-18 13:04:40</time>
      </trkpt>
      <trkpt lat="-34.89926" lon="-56.07587">
        <ele>-362</ele>
        <time>2022-11-18 13:04:41</time>
      </trkpt>
      <trkpt lat="-34.89927" lon="-56.07585">
        <ele>-269.6</ele>
        <time>2022-11-18 13:04:42</time>
      </trkpt>
      <trkpt lat="-34.89928" lon="-56.07583">
        <ele>-327.4</ele>
        <time>2022-11-18 13:04:43</time>
      </trkpt>
      <trkpt lat="-34.89927" lon="-56.07582">
        <ele>-394.2</ele>
        <time>2022-11-18 13:04:44</time>
      </trkpt>
      <trkpt lat="-34.89926" lon="-56.07582">
        <ele>-310.4</ele>
        <time>2022-11-18 13:04:45</time>
      </trkpt>
      <trkpt lat="-34.89924" lon="-56.07584">
        <ele>-401.8</ele>
        <time>2022-11-18 13:04:46</time>
      </trkpt>
      <trkpt lat="-34.89925" lon="-56.07583">
        <ele>-302.6</ele>
        <time>2022-11-18 13:04:47</time>
      </trkpt>
      <trkpt lat="-34.89924" lon="-56.07583">
        <ele>-343.8</ele>
        <time>2022-11-18 13:04:48</time>
      </trkpt>
      <trkpt lat="-34.89923" lon="-56.0758">
        <ele>-294.6</ele>
        <time>2022-11-18 13:04:49</time>
      </trkpt>
      <trkpt lat="-34.89923" lon="-56.07579">
        <ele>-339.8</ele>
        <time>2022-11-18 13:04:50</time>
      </trkpt>
      <trkpt lat="-34.89923" lon="-56.07577">
        <ele>-292.8</ele>
        <time>2022-11-18 13:04:51</time>
      </trkpt>
      <trkpt lat="-34.89923" lon="-56.07576">
        <ele>-332.8</ele>
        <time>2022-11-18 13:04:52</time>
      </trkpt>
      <trkpt lat="-34.89923" lon="-56.07574">
        <ele>-352.8</ele>
        <time>2022-11-18 13:04:53</time>
      </trkpt>
      <trkpt lat="-34.89924" lon="-56.07572">
        <ele>-345.4</ele>
        <time>2022-11-18 13:04:54</time>
      </trkpt>
      <trkpt lat="-34.89924" lon="-56.07569">
        <ele>-341.6</ele>
        <time>2022-11-18 13:04:55</time>
      </trkpt>
      <trkpt lat="-34.89925" lon="-56.07569">
        <ele>-294.8</ele>
        <time>2022-11-18 13:04:56</time>
      </trkpt>
      <trkpt lat="-34.89924" lon="-56.07569">
        <ele>-316.4</ele>
        <time>2022-11-18 13:04:57</time>
      </trkpt>
      <trkpt lat="-34.8992" lon="-56.07577">
        <ele>-287.4</ele>
        <time>2022-11-18 13:04:58</time>
      </trkpt>
      <trkpt lat="-34.89921" lon="-56.07575">
        <ele>-312.6</ele>
        <time>2022-11-18 13:04:59</time>
      </trkpt>
      <trkpt lat="-34.89921" lon="-56.07573">
        <ele>-285.6</ele>
        <time>2022-11-18 13:05:00</time>
      </trkpt>
      <trkpt lat="-34.89921" lon="-56.0757">
        <ele>-311.8</ele>
        <time>2022-11-18 13:05:01</time>
      </trkpt>
      <trkpt lat="-34.89917" lon="-56.07571">
        <ele>-309.8</ele>
        <time>2022-11-18 13:05:02</time>
      </trkpt>
      <trkpt lat="-34.89916" lon="-56.07569">
        <ele>-323.8</ele>
        <time>2022-11-18 13:05:03</time>
      </trkpt>
      <trkpt lat="-34.89916" lon="-56.07567">
        <ele>-291.2</ele>
        <time>2022-11-18 13:05:04</time>
      </trkpt>
      <trkpt lat="-34.89916" lon="-56.07565">
        <ele>-314.6</ele>
        <time>2022-11-18 13:05:05</time>
      </trkpt>
      <trkpt lat="-34.89915" lon="-56.07564">
        <ele>-286.4</ele>
        <time>2022-11-18 13:05:06</time>
      </trkpt>
      <trkpt lat="-34.89915" lon="-56.07562">
        <ele>-312.2</ele>
        <time>2022-11-18 13:05:07</time>
      </trkpt>
      <trkpt lat="-34.89915" lon="-56.0756">
        <ele>-315.2</ele>
        <time>2022-11-18 13:05:08</time>
      </trkpt>
      <trkpt lat="-34.89915" lon="-56.07559">
        <ele>-316.8</ele>
        <time>2022-11-18 13:05:09</time>
      </trkpt>
      <trkpt lat="-34.89917" lon="-56.07558">
        <ele>-318</ele>
        <time>2022-11-18 13:05:10</time>
      </trkpt>
      <trkpt lat="-34.89918" lon="-56.07552">
        <ele>-357.4</ele>
        <time>2022-11-18 13:05:11</time>
      </trkpt>
      <trkpt lat="-34.89919" lon="-56.07552">
        <ele>-337.8</ele>
        <time>2022-11-18 13:05:13</time>
      </trkpt>
      <trkpt lat="-34.8992" lon="-56.07551">
        <ele>-351.4</ele>
        <time>2022-11-18 13:05:16</time>
      </trkpt>
      <trkpt lat="-34.89921" lon="-56.0755">
        <ele>-334.8</ele>
        <time>2022-11-18 13:05:17</time>
      </trkpt>
      <trkpt lat="-34.89923" lon="-56.07549">
        <ele>-326.6</ele>
        <time>2022-11-18 13:05:18</time>
      </trkpt>
      <trkpt lat="-34.89924" lon="-56.07548">
        <ele>-304.8</ele>
        <time>2022-11-18 13:05:19</time>
      </trkpt>
      <trkpt lat="-34.89925" lon="-56.07547">
        <ele>-293.8</ele>
        <time>2022-11-18 13:05:20</time>
      </trkpt>
      <trkpt lat="-34.89924" lon="-56.07546">
        <ele>-285.6</ele>
        <time>2022-11-18 13:05:21</time>
      </trkpt>
      <trkpt lat="-34.89927" lon="-56.07547">
        <ele>-284.2</ele>
        <time>2022-11-18 13:05:22</time>
      </trkpt>
      <trkpt lat="-34.89925" lon="-56.07549">
        <ele>-283.2</ele>
        <time>2022-11-18 13:05:23</time>
      </trkpt>
      <trkpt lat="-34.89912" lon="-56.07561">
        <ele>-261.8</ele>
        <time>2022-11-18 13:05:24</time>
      </trkpt>
      <trkpt lat="-34.89911" lon="-56.07562">
        <ele>-251.2</ele>
        <time>2022-11-18 13:05:25</time>
      </trkpt>
      <trkpt lat="-34.89905" lon="-56.07576">
        <ele>-245.8</ele>
        <time>2022-11-18 13:05:27</time>
      </trkpt>
      <trkpt lat="-34.89904" lon="-56.07576">
        <ele>-243.2</ele>
        <time>2022-11-18 13:05:30</time>
      </trkpt>
      <trkpt lat="-34.89903" lon="-56.07575">
        <ele>-241.8</ele>
        <time>2022-11-18 13:05:31</time>
      </trkpt>
      <trkpt lat="-34.899" lon="-56.07571">
        <ele>-240.6</ele>
        <time>2022-11-18 13:05:32</time>
      </trkpt>
      <trkpt lat="-34.89899" lon="-56.07569">
        <ele>-240.6</ele>
        <time>2022-11-18 13:05:33</time>
      </trkpt>
      <trkpt lat="-34.89898" lon="-56.07569">
        <ele>-266.2</ele>
        <time>2022-11-18 13:05:34</time>
      </trkpt>
      <trkpt lat="-34.89898" lon="-56.07567">
        <ele>-279</ele>
        <time>2022-11-18 13:05:37</time>
      </trkpt>
      <trkpt lat="-34.89897" lon="-56.07565">
        <ele>-285.4</ele>
        <time>2022-11-18 13:05:38</time>
      </trkpt>
      <trkpt lat="-34.89897" lon="-56.07562">
        <ele>-303.2</ele>
        <time>2022-11-18 13:05:39</time>
      </trkpt>
      <trkpt lat="-34.89896" lon="-56.07561">
        <ele>-297.6</ele>
        <time>2022-11-18 13:05:40</time>
      </trkpt>
      <trkpt lat="-34.89895" lon="-56.07559">
        <ele>-309.2</ele>
        <time>2022-11-18 13:05:41</time>
      </trkpt>
      <trkpt lat="-34.89895" lon="-56.07558">
        <ele>-300.6</ele>
        <time>2022-11-18 13:05:42</time>
      </trkpt>
      <trkpt lat="-34.89894" lon="-56.07557">
        <ele>-310.8</ele>
        <time>2022-11-18 13:05:43</time>
      </trkpt>
      <trkpt lat="-34.89894" lon="-56.07555">
        <ele>-315.8</ele>
        <time>2022-11-18 13:05:44</time>
      </trkpt>
      <trkpt lat="-34.89894" lon="-56.07554">
        <ele>-318.4</ele>
        <time>2022-11-18 13:05:45</time>
      </trkpt>
      <trkpt lat="-34.89893" lon="-56.07554">
        <ele>-319.6</ele>
        <time>2022-11-18 13:05:46</time>
      </trkpt>
      <trkpt lat="-34.89892" lon="-56.07548">
        <ele>-320.8</ele>
        <time>2022-11-18 13:05:47</time>
      </trkpt>
      <trkpt lat="-34.89894" lon="-56.07545">
        <ele>-324.4</ele>
        <time>2022-11-18 13:05:48</time>
      </trkpt>
      <trkpt lat="-34.89899" lon="-56.07551">
        <ele>-322.6</ele>
        <time>2022-11-18 13:05:49</time>
      </trkpt>
      <trkpt lat="-34.89901" lon="-56.0755">
        <ele>-325.4</ele>
        <time>2022-11-18 13:05:52</time>
      </trkpt>
      <trkpt lat="-34.89905" lon="-56.0755">
        <ele>-323.2</ele>
        <time>2022-11-18 13:05:57</time>
      </trkpt>
      <trkpt lat="-34.89906" lon="-56.07549">
        <ele>-346.2</ele>
        <time>2022-11-18 13:05:58</time>
      </trkpt>
      <trkpt lat="-34.89906" lon="-56.07548">
        <ele>-357.8</ele>
        <time>2022-11-18 13:05:59</time>
      </trkpt>
      <trkpt lat="-34.89906" lon="-56.07546">
        <ele>-363.6</ele>
        <time>2022-11-18 13:06:00</time>
      </trkpt>
      <trkpt lat="-34.89905" lon="-56.07544">
        <ele>-372</ele>
        <time>2022-11-18 13:06:01</time>
      </trkpt>
      <trkpt lat="-34.89904" lon="-56.07543">
        <ele>-376.6</ele>
        <time>2022-11-18 13:06:02</time>
      </trkpt>
      <trkpt lat="-34.89904" lon="-56.07542">
        <ele>-373</ele>
        <time>2022-11-18 13:06:03</time>
      </trkpt>
      <trkpt lat="-34.89904" lon="-56.07542">
        <ele>-371.2</ele>
        <time>2022-11-18 13:06:04</time>
      </trkpt>
      <trkpt lat="-34.899" lon="-56.07542">
        <ele>-369.8</ele>
        <time>2022-11-18 13:06:05</time>
      </trkpt>
      <trkpt lat="-34.899" lon="-56.07536">
        <ele>-373.8</ele>
        <time>2022-11-18 13:06:06</time>
      </trkpt>
      <trkpt lat="-34.89901" lon="-56.07535">
        <ele>-341.8</ele>
        <time>2022-11-18 13:06:07</time>
      </trkpt>
      <trkpt lat="-34.89902" lon="-56.07532">
        <ele>-360.2</ele>
        <time>2022-11-18 13:06:09</time>
      </trkpt>
      <trkpt lat="-34.89902" lon="-56.07531">
        <ele>-335</ele>
        <time>2022-11-18 13:06:14</time>
      </trkpt>
      <trkpt lat="-34.89901" lon="-56.0753">
        <ele>-325.8</ele>
        <time>2022-11-18 13:06:15</time>
      </trkpt>
      <trkpt lat="-34.89902" lon="-56.07528">
        <ele>-317.8</ele>
        <time>2022-11-18 13:06:16</time>
      </trkpt>
      <trkpt lat="-34.89902" lon="-56.07526">
        <ele>-313.8</ele>
        <time>2022-11-18 13:06:17</time>
      </trkpt>
      <trkpt lat="-34.89902" lon="-56.07524">
        <ele>-285.6</ele>
        <time>2022-11-18 13:06:18</time>
      </trkpt>
      <trkpt lat="-34.89903" lon="-56.07522">
        <ele>-255.2</ele>
        <time>2022-11-18 13:06:19</time>
      </trkpt>
      <trkpt lat="-34.89902" lon="-56.0752">
        <ele>-256.4</ele>
        <time>2022-11-18 13:06:20</time>
      </trkpt>
      <trkpt lat="-34.89902" lon="-56.07518">
        <ele>-253.6</ele>
        <time>2022-11-18 13:06:21</time>
      </trkpt>
      <trkpt lat="-34.89902" lon="-56.07515">
        <ele>-255.6</ele>
        <time>2022-11-18 13:06:22</time>
      </trkpt>
      <trkpt lat="-34.899" lon="-56.0751">
        <ele>-256.8</ele>
        <time>2022-11-18 13:06:23</time>
      </trkpt>
      <trkpt lat="-34.899" lon="-56.07507">
        <ele>-258.4</ele>
        <time>2022-11-18 13:06:24</time>
      </trkpt>
      <trkpt lat="-34.89899" lon="-56.07503">
        <ele>-263.4</ele>
        <time>2022-11-18 13:06:25</time>
      </trkpt>
      <trkpt lat="-34.89899" lon="-56.075">
        <ele>-261.8</ele>
        <time>2022-11-18 13:06:27</time>
      </trkpt>
      <trkpt lat="-34.89915" lon="-56.07506">
        <ele>-277.6</ele>
        <time>2022-11-18 13:06:28</time>
      </trkpt>
      <trkpt lat="-34.89916" lon="-56.07505">
        <ele>-282</ele>
        <time>2022-11-18 13:06:30</time>
      </trkpt>
      <trkpt lat="-34.89913" lon="-56.07505">
        <ele>-299.2</ele>
        <time>2022-11-18 13:06:31</time>
      </trkpt>
      <trkpt lat="-34.89909" lon="-56.07506">
        <ele>-307.8</ele>
        <time>2022-11-18 13:06:35</time>
      </trkpt>
      <trkpt lat="-34.89907" lon="-56.07508">
        <ele>-312</ele>
        <time>2022-11-18 13:06:36</time>
      </trkpt>
      <trkpt lat="-34.89906" lon="-56.07508">
        <ele>-314.2</ele>
        <time>2022-11-18 13:06:37</time>
      </trkpt>
      <trkpt lat="-34.89905" lon="-56.07508">
        <ele>-315.2</ele>
        <time>2022-11-18 13:06:39</time>
      </trkpt>
      <trkpt lat="-34.89903" lon="-56.0751">
        <ele>-292.6</ele>
        <time>2022-11-18 13:06:41</time>
      </trkpt>
      <trkpt lat="-34.899" lon="-56.07514">
        <ele>-274.4</ele>
        <time>2022-11-18 13:06:42</time>
      </trkpt>
      <trkpt lat="-34.89898" lon="-56.07516">
        <ele>-295.4</ele>
        <time>2022-11-18 13:06:43</time>
      </trkpt>
      <trkpt lat="-34.89897" lon="-56.07517">
        <ele>-305.8</ele>
        <time>2022-11-18 13:06:44</time>
      </trkpt>
      <trkpt lat="-34.89896" lon="-56.07517">
        <ele>-311.2</ele>
        <time>2022-11-18 13:06:45</time>
      </trkpt>
      <trkpt lat="-34.89894" lon="-56.07518">
        <ele>-283.8</ele>
        <time>2022-11-18 13:06:46</time>
      </trkpt>
      <trkpt lat="-34.8989" lon="-56.07522">
        <ele>-270.2</ele>
        <time>2022-11-18 13:06:47</time>
      </trkpt>
      <trkpt lat="-34.89884" lon="-56.07528">
        <ele>-263.4</ele>
        <time>2022-11-18 13:06:48</time>
      </trkpt>
      <trkpt lat="-34.89885" lon="-56.0753">
        <ele>-260</ele>
        <time>2022-11-18 13:06:49</time>
      </trkpt>
      <trkpt lat="-34.89887" lon="-56.07529">
        <ele>-258.2</ele>
        <time>2022-11-18 13:06:50</time>
      </trkpt>
      <trkpt lat="-34.89896" lon="-56.07523">
        <ele>-257</ele>
        <time>2022-11-18 13:06:51</time>
      </trkpt>
      <trkpt lat="-34.89905" lon="-56.07518">
        <ele>-262.8</ele>
        <time>2022-11-18 13:06:52</time>
      </trkpt>
      <trkpt lat="-34.89913" lon="-56.07514">
        <ele>-259.6</ele>
        <time>2022-11-18 13:06:53</time>
      </trkpt>
      <trkpt lat="-34.89915" lon="-56.07513">
        <ele>-264.2</ele>
        <time>2022-11-18 13:06:54</time>
      </trkpt>
      <trkpt lat="-34.89915" lon="-56.07511">
        <ele>-266.6</ele>
        <time>2022-11-18 13:06:55</time>
      </trkpt>
      <trkpt lat="-34.89914" lon="-56.0751">
        <ele>-267.8</ele>
        <time>2022-11-18 13:06:56</time>
      </trkpt>
      <trkpt lat="-34.89913" lon="-56.07508">
        <ele>-338</ele>
        <time>2022-11-18 13:06:57</time>
      </trkpt>
      <trkpt lat="-34.89913" lon="-56.07505">
        <ele>-303.4</ele>
        <time>2022-11-18 13:06:59</time>
      </trkpt>
      <trkpt lat="-34.89913" lon="-56.07504">
        <ele>-322.6</ele>
        <time>2022-11-18 13:07:01</time>
      </trkpt>
      <trkpt lat="-34.89912" lon="-56.07503">
        <ele>-295.8</ele>
        <time>2022-11-18 13:07:02</time>
      </trkpt>
      <trkpt lat="-34.8991" lon="-56.07504">
        <ele>-318.8</ele>
        <time>2022-11-18 13:07:03</time>
      </trkpt>
      <trkpt lat="-34.89909" lon="-56.07505">
        <ele>-293.8</ele>
        <time>2022-11-18 13:07:04</time>
      </trkpt>
      <trkpt lat="-34.89909" lon="-56.07504">
        <ele>-318</ele>
        <time>2022-11-18 13:07:05</time>
      </trkpt>
      <trkpt lat="-34.89909" lon="-56.07503">
        <ele>-330</ele>
        <time>2022-11-18 13:07:07</time>
      </trkpt>
      <trkpt lat="-34.89908" lon="-56.07501">
        <ele>-336</ele>
        <time>2022-11-18 13:07:08</time>
      </trkpt>
      <trkpt lat="-34.89907" lon="-56.075">
        <ele>-339</ele>
        <time>2022-11-18 13:07:09</time>
      </trkpt>
      <trkpt lat="-34.89905" lon="-56.07504">
        <ele>-340.4</ele>
        <time>2022-11-18 13:07:10</time>
      </trkpt>
      <trkpt lat="-34.89904" lon="-56.07503">
        <ele>-367.8</ele>
        <time>2022-11-18 13:07:11</time>
      </trkpt>
      <trkpt lat="-34.89901" lon="-56.07502">
        <ele>-354.8</ele>
        <time>2022-11-18 13:07:12</time>
      </trkpt>
      <trkpt lat="-34.89901" lon="-56.07501">
        <ele>-361</ele>
        <time>2022-11-18 13:07:13</time>
      </trkpt>
      <trkpt lat="-34.89901" lon="-56.07499">
        <ele>-351.4</ele>
        <time>2022-11-18 13:07:14</time>
      </trkpt>
      <trkpt lat="-34.89898" lon="-56.07499">
        <ele>-346.8</ele>
        <time>2022-11-18 13:07:15</time>
      </trkpt>
      <trkpt lat="-34.89897" lon="-56.07497">
        <ele>-344.4</ele>
        <time>2022-11-18 13:07:16</time>
      </trkpt>
      <trkpt lat="-34.89896" lon="-56.07497">
        <ele>-343.2</ele>
        <time>2022-11-18 13:07:17</time>
      </trkpt>
      <trkpt lat="-34.89895" lon="-56.07497">
        <ele>-342</ele>
        <time>2022-11-18 13:07:18</time>
      </trkpt>
      <trkpt lat="-34.89895" lon="-56.07496">
        <ele>-354.4</ele>
        <time>2022-11-18 13:07:19</time>
      </trkpt>
      <trkpt lat="-34.89897" lon="-56.07499">
        <ele>-348</ele>
        <time>2022-11-18 13:07:20</time>
      </trkpt>
      <trkpt lat="-34.89896" lon="-56.07498">
        <ele>-357.4</ele>
        <time>2022-11-18 13:07:21</time>
      </trkpt>
      <trkpt lat="-34.89897" lon="-56.07499">
        <ele>-349.6</ele>
        <time>2022-11-18 13:07:22</time>
      </trkpt>
      <trkpt lat="-34.89897" lon="-56.07498">
        <ele>-345.6</ele>
        <time>2022-11-18 13:07:23</time>
      </trkpt>
      <trkpt lat="-34.89897" lon="-56.07496">
        <ele>-343.6</ele>
        <time>2022-11-18 13:07:24</time>
      </trkpt>
      <trkpt lat="-34.89897" lon="-56.07492">
        <ele>-342</ele>
        <time>2022-11-18 13:07:26</time>
      </trkpt>
      <trkpt lat="-34.89897" lon="-56.0749">
        <ele>-312.4</ele>
        <time>2022-11-18 13:07:29</time>
      </trkpt>
      <trkpt lat="-34.89897" lon="-56.07488">
        <ele>-327</ele>
        <time>2022-11-18 13:07:30</time>
      </trkpt>
      <trkpt lat="-34.899" lon="-56.07491">
        <ele>-305</ele>
        <time>2022-11-18 13:07:31</time>
      </trkpt>
      <trkpt lat="-34.899" lon="-56.07489">
        <ele>-323.2</ele>
        <time>2022-11-18 13:07:32</time>
      </trkpt>
      <trkpt lat="-34.899" lon="-56.07487">
        <ele>-303.2</ele>
        <time>2022-11-18 13:07:33</time>
      </trkpt>
      <trkpt lat="-34.89899" lon="-56.07487">
        <ele>-322.4</ele>
        <time>2022-11-18 13:07:34</time>
      </trkpt>
      <trkpt lat="-34.89899" lon="-56.07485">
        <ele>-302.6</ele>
        <time>2022-11-18 13:07:36</time>
      </trkpt>
      <trkpt lat="-34.89898" lon="-56.07485">
        <ele>-322</ele>
        <time>2022-11-18 13:07:37</time>
      </trkpt>
      <trkpt lat="-34.89898" lon="-56.07485">
        <ele>-302.6</ele>
        <time>2022-11-18 13:07:38</time>
      </trkpt>
      <trkpt lat="-34.89897" lon="-56.07484">
        <ele>-274</ele>
        <time>2022-11-18 13:07:39</time>
      </trkpt>
      <trkpt lat="-34.89896" lon="-56.07483">
        <ele>-278.4</ele>
        <time>2022-11-18 13:07:40</time>
      </trkpt>
      <trkpt lat="-34.89895" lon="-56.07485">
        <ele>-256</ele>
        <time>2022-11-18 13:07:41</time>
      </trkpt>
      <trkpt lat="-34.89894" lon="-56.07485">
        <ele>-269.6</ele>
        <time>2022-11-18 13:07:42</time>
      </trkpt>
      <trkpt lat="-34.89893" lon="-56.07485">
        <ele>-251.6</ele>
        <time>2022-11-18 13:07:43</time>
      </trkpt>
      <trkpt lat="-34.89891" lon="-56.07485">
        <ele>-267.2</ele>
        <time>2022-11-18 13:07:44</time>
      </trkpt>
      <trkpt lat="-34.8989" lon="-56.07484">
        <ele>-250.6</ele>
        <time>2022-11-18 13:07:45</time>
      </trkpt>
      <trkpt lat="-34.89889" lon="-56.07482">
        <ele>-266.8</ele>
        <time>2022-11-18 13:07:46</time>
      </trkpt>
      <trkpt lat="-34.89888" lon="-56.0748">
        <ele>-274.8</ele>
        <time>2022-11-18 13:07:47</time>
      </trkpt>
      <trkpt lat="-34.89887" lon="-56.07479">
        <ele>-278.8</ele>
        <time>2022-11-18 13:07:48</time>
      </trkpt>
      <trkpt lat="-34.89886" lon="-56.07477">
        <ele>-302.8</ele>
        <time>2022-11-18 13:07:49</time>
      </trkpt>
      <trkpt lat="-34.89885" lon="-56.07476">
        <ele>-305.2</ele>
        <time>2022-11-18 13:07:50</time>
      </trkpt>
      <trkpt lat="-34.89884" lon="-56.07474">
        <ele>-306.4</ele>
        <time>2022-11-18 13:07:51</time>
      </trkpt>
      <trkpt lat="-34.899" lon="-56.07457">
        <ele>-300.8</ele>
        <time>2022-11-18 13:07:52</time>
      </trkpt>
      <trkpt lat="-34.899" lon="-56.07455">
        <ele>-302.4</ele>
        <time>2022-11-18 13:07:53</time>
      </trkpt>
      <trkpt lat="-34.89897" lon="-56.07451">
        <ele>-303.8</ele>
        <time>2022-11-18 13:07:54</time>
      </trkpt>
      <trkpt lat="-34.89901" lon="-56.07446">
        <ele>-304.2</ele>
        <time>2022-11-18 13:07:55</time>
      </trkpt>
      <trkpt lat="-34.89902" lon="-56.07444">
        <ele>-301.8</ele>
        <time>2022-11-18 13:07:56</time>
      </trkpt>
      <trkpt lat="-34.89905" lon="-56.07442">
        <ele>-300.6</ele>
        <time>2022-11-18 13:07:57</time>
      </trkpt>
      <trkpt lat="-34.89905" lon="-56.07441">
        <ele>-300</ele>
        <time>2022-11-18 13:07:58</time>
      </trkpt>
      <trkpt lat="-34.89913" lon="-56.07441">
        <ele>-299.8</ele>
        <time>2022-11-18 13:07:59</time>
      </trkpt>
      <trkpt lat="-34.89913" lon="-56.07442">
        <ele>-299.6</ele>
        <time>2022-11-18 13:08:00</time>
      </trkpt>
      <trkpt lat="-34.89912" lon="-56.07442">
        <ele>-285.2</ele>
        <time>2022-11-18 13:08:01</time>
      </trkpt>
      <trkpt lat="-34.89912" lon="-56.07441">
        <ele>-278.2</ele>
        <time>2022-11-18 13:08:02</time>
      </trkpt>
      <trkpt lat="-34.89912" lon="-56.07441">
        <ele>-274.6</ele>
        <time>2022-11-18 13:08:05</time>
      </trkpt>
      <trkpt lat="-34.89912" lon="-56.0744">
        <ele>-272.8</ele>
        <time>2022-11-18 13:08:06</time>
      </trkpt>
      <trkpt lat="-34.89915" lon="-56.07441">
        <ele>-276.8</ele>
        <time>2022-11-18 13:08:07</time>
      </trkpt>
      <trkpt lat="-34.89915" lon="-56.07435">
        <ele>-280.4</ele>
        <time>2022-11-18 13:08:08</time>
      </trkpt>
      <trkpt lat="-34.89912" lon="-56.07428">
        <ele>-268</ele>
        <time>2022-11-18 13:08:11</time>
      </trkpt>
      <trkpt lat="-34.89917" lon="-56.0742">
        <ele>-279.6</ele>
        <time>2022-11-18 13:08:16</time>
      </trkpt>
      <trkpt lat="-34.89916" lon="-56.0742">
        <ele>-281.8</ele>
        <time>2022-11-18 13:08:17</time>
      </trkpt>
      <trkpt lat="-34.89917" lon="-56.07421">
        <ele>-290.6</ele>
        <time>2022-11-18 13:08:20</time>
      </trkpt>
      <trkpt lat="-34.89915" lon="-56.07423">
        <ele>-287.4</ele>
        <time>2022-11-18 13:08:21</time>
      </trkpt>
      <trkpt lat="-34.89916" lon="-56.07422">
        <ele>-293.2</ele>
        <time>2022-11-18 13:08:22</time>
      </trkpt>
      <trkpt lat="-34.89917" lon="-56.07421">
        <ele>-288.6</ele>
        <time>2022-11-18 13:08:23</time>
      </trkpt>
      <trkpt lat="-34.89918" lon="-56.07419">
        <ele>-294</ele>
        <time>2022-11-18 13:08:24</time>
      </trkpt>
      <trkpt lat="-34.89919" lon="-56.07419">
        <ele>-296.6</ele>
        <time>2022-11-18 13:08:25</time>
      </trkpt>
      <trkpt lat="-34.8992" lon="-56.07419">
        <ele>-298</ele>
        <time>2022-11-18 13:08:28</time>
      </trkpt>
      <trkpt lat="-34.89921" lon="-56.07418">
        <ele>-291.4</ele>
        <time>2022-11-18 13:08:29</time>
      </trkpt>
      <trkpt lat="-34.89912" lon="-56.07418">
        <ele>-266</ele>
        <time>2022-11-18 13:08:30</time>
      </trkpt>
      <trkpt lat="-34.89927" lon="-56.07406">
        <ele>-312</ele>
        <time>2022-11-18 13:08:31</time>
      </trkpt>
      <trkpt lat="-34.89927" lon="-56.07406">
        <ele>-296.2</ele>
        <time>2022-11-18 13:08:34</time>
      </trkpt>
      <trkpt lat="-34.89925" lon="-56.07408">
        <ele>-315</ele>
        <time>2022-11-18 13:08:37</time>
      </trkpt>
      <trkpt lat="-34.89925" lon="-56.07406">
        <ele>-297.8</ele>
        <time>2022-11-18 13:08:38</time>
      </trkpt>
      <trkpt lat="-34.89925" lon="-56.07404">
        <ele>-315.8</ele>
        <time>2022-11-18 13:08:39</time>
      </trkpt>
      <trkpt lat="-34.89924" lon="-56.07401">
        <ele>-324.8</ele>
        <time>2022-11-18 13:08:40</time>
      </trkpt>
      <trkpt lat="-34.89924" lon="-56.07398">
        <ele>-329.2</ele>
        <time>2022-11-18 13:08:41</time>
      </trkpt>
      <trkpt lat="-34.89923" lon="-56.07394">
        <ele>-331.4</ele>
        <time>2022-11-18 13:08:42</time>
      </trkpt>
      <trkpt lat="-34.89917" lon="-56.07398">
        <ele>-317.4</ele>
        <time>2022-11-18 13:08:43</time>
      </trkpt>
      <trkpt lat="-34.89917" lon="-56.07396">
        <ele>-325.6</ele>
        <time>2022-11-18 13:08:45</time>
      </trkpt>
      <trkpt lat="-34.89917" lon="-56.07394">
        <ele>-314.6</ele>
        <time>2022-11-18 13:08:46</time>
      </trkpt>
      <trkpt lat="-34.89918" lon="-56.07393">
        <ele>-324.2</ele>
        <time>2022-11-18 13:08:47</time>
      </trkpt>
      <trkpt lat="-34.89913" lon="-56.07394">
        <ele>-313.8</ele>
        <time>2022-11-18 13:08:48</time>
      </trkpt>
      <trkpt lat="-34.89914" lon="-56.07393">
        <ele>-323.8</ele>
        <time>2022-11-18 13:08:49</time>
      </trkpt>
      <trkpt lat="-34.89915" lon="-56.0739">
        <ele>-313.6</ele>
        <time>2022-11-18 13:08:50</time>
      </trkpt>
      <trkpt lat="-34.89914" lon="-56.07391">
        <ele>-308.6</ele>
        <time>2022-11-18 13:08:51</time>
      </trkpt>
      <trkpt lat="-34.89915" lon="-56.0739">
        <ele>-306</ele>
        <time>2022-11-18 13:08:52</time>
      </trkpt>
      <trkpt lat="-34.89916" lon="-56.07389">
        <ele>-304.8</ele>
        <time>2022-11-18 13:08:53</time>
      </trkpt>
      <trkpt lat="-34.89927" lon="-56.0738">
        <ele>-305.2</ele>
        <time>2022-11-18 13:08:54</time>
      </trkpt>
      <trkpt lat="-34.8993" lon="-56.07376">
        <ele>-278.6</ele>
        <time>2022-11-18 13:08:55</time>
      </trkpt>
      <trkpt lat="-34.89931" lon="-56.07373">
        <ele>-292</ele>
        <time>2022-11-18 13:08:56</time>
      </trkpt>
      <trkpt lat="-34.89931" lon="-56.07367">
        <ele>-272</ele>
        <time>2022-11-18 13:08:57</time>
      </trkpt>
      <trkpt lat="-34.89931" lon="-56.07365">
        <ele>-288.6</ele>
        <time>2022-11-18 13:08:58</time>
      </trkpt>
      <trkpt lat="-34.89932" lon="-56.07363">
        <ele>-270.4</ele>
        <time>2022-11-18 13:08:59</time>
      </trkpt>
      <trkpt lat="-34.89933" lon="-56.07362">
        <ele>-287.8</ele>
        <time>2022-11-18 13:09:00</time>
      </trkpt>
      <trkpt lat="-34.89934" lon="-56.07361">
        <ele>-270</ele>
        <time>2022-11-18 13:09:01</time>
      </trkpt>
      <trkpt lat="-34.89936" lon="-56.07359">
        <ele>-260.8</ele>
        <time>2022-11-18 13:09:02</time>
      </trkpt>
      <trkpt lat="-34.89937" lon="-56.07359">
        <ele>-256.4</ele>
        <time>2022-11-18 13:09:03</time>
      </trkpt>
      <trkpt lat="-34.89936" lon="-56.07364">
        <ele>-254.2</ele>
        <time>2022-11-18 13:09:04</time>
      </trkpt>
      <trkpt lat="-34.89937" lon="-56.07364">
        <ele>-253.2</ele>
        <time>2022-11-18 13:09:05</time>
      </trkpt>
      <trkpt lat="-34.8993" lon="-56.07375">
        <ele>-252.6</ele>
        <time>2022-11-18 13:09:06</time>
      </trkpt>
      <trkpt lat="-34.8993" lon="-56.07375">
        <ele>-252.4</ele>
        <time>2022-11-18 13:09:07</time>
      </trkpt>
      <trkpt lat="-34.89933" lon="-56.07373">
        <ele>-252.2</ele>
        <time>2022-11-18 13:09:08</time>
      </trkpt>
      <trkpt lat="-34.89934" lon="-56.07373">
        <ele>-252.2</ele>
        <time>2022-11-18 13:09:10</time>
      </trkpt>
      <trkpt lat="-34.89934" lon="-56.07373">
        <ele>-252.2</ele>
        <time>2022-11-18 13:09:14</time>
      </trkpt>
      <trkpt lat="-34.89936" lon="-56.07372">
        <ele>-252</ele>
        <time>2022-11-18 13:09:15</time>
      </trkpt>
      <trkpt lat="-34.89937" lon="-56.07371">
        <ele>-252</ele>
        <time>2022-11-18 13:09:16</time>
      </trkpt>
      <trkpt lat="-34.89938" lon="-56.07371">
        <ele>-262</ele>
        <time>2022-11-18 13:09:17</time>
      </trkpt>
      <trkpt lat="-34.89939" lon="-56.0737">
        <ele>-267</ele>
        <time>2022-11-18 13:09:18</time>
      </trkpt>
      <trkpt lat="-34.89939" lon="-56.07368">
        <ele>-269.6</ele>
        <time>2022-11-18 13:09:19</time>
      </trkpt>
      <trkpt lat="-34.89939" lon="-56.07367">
        <ele>-270.8</ele>
        <time>2022-11-18 13:09:22</time>
      </trkpt>
      <trkpt lat="-34.8994" lon="-56.07364">
        <ele>-292</ele>
        <time>2022-11-18 13:09:23</time>
      </trkpt>
      <trkpt lat="-34.89941" lon="-56.07363">
        <ele>-328.4</ele>
        <time>2022-11-18 13:09:24</time>
      </trkpt>
      <trkpt lat="-34.89941" lon="-56.07362">
        <ele>-320.4</ele>
        <time>2022-11-18 13:09:25</time>
      </trkpt>
      <trkpt lat="-34.89942" lon="-56.07361">
        <ele>-296.2</ele>
        <time>2022-11-18 13:09:29</time>
      </trkpt>
      <trkpt lat="-34.89942" lon="-56.0736">
        <ele>-284.2</ele>
        <time>2022-11-18 13:09:33</time>
      </trkpt>
      <trkpt lat="-34.89941" lon="-56.0736">
        <ele>-277.8</ele>
        <time>2022-11-18 13:09:38</time>
      </trkpt>
      <trkpt lat="-34.8994" lon="-56.0736">
        <ele>-274.6</ele>
        <time>2022-11-18 13:09:46</time>
      </trkpt>
      <trkpt lat="-34.89941" lon="-56.0736">
        <ele>-254</ele>
        <time>2022-11-18 13:09:47</time>
      </trkpt>
      <trkpt lat="-34.89933" lon="-56.07354">
        <ele>-243.6</ele>
        <time>2022-11-18 13:09:48</time>
      </trkpt>
      <trkpt lat="-34.8993" lon="-56.07357">
        <ele>-221.6</ele>
        <time>2022-11-18 13:09:49</time>
      </trkpt>
      <trkpt lat="-34.89929" lon="-56.07357">
        <ele>-210.6</ele>
        <time>2022-11-18 13:09:50</time>
      </trkpt>
      <trkpt lat="-34.89928" lon="-56.07361">
        <ele>-202</ele>
        <time>2022-11-18 13:09:51</time>
      </trkpt>
      <trkpt lat="-34.89924" lon="-56.07365">
        <ele>-197.8</ele>
        <time>2022-11-18 13:09:52</time>
      </trkpt>
      <trkpt lat="-34.89923" lon="-56.07366">
        <ele>-184</ele>
        <time>2022-11-18 13:09:53</time>
      </trkpt>
      <trkpt lat="-34.89922" lon="-56.07368">
        <ele>-175.4</ele>
        <time>2022-11-18 13:09:54</time>
      </trkpt>
      <trkpt lat="-34.89922" lon="-56.07368">
        <ele>-171.2</ele>
        <time>2022-11-18 13:09:56</time>
      </trkpt>
      <trkpt lat="-34.89922" lon="-56.07368">
        <ele>-168.2</ele>
        <time>2022-11-18 13:09:57</time>
      </trkpt>
      <trkpt lat="-34.89922" lon="-56.07368">
        <ele>-166.6</ele>
        <time>2022-11-18 13:09:58</time>
      </trkpt>
      <trkpt lat="-34.89922" lon="-56.07367">
        <ele>-164.2</ele>
        <time>2022-11-18 13:09:59</time>
      </trkpt>
      <trkpt lat="-34.89921" lon="-56.07365">
        <ele>-161.8</ele>
        <time>2022-11-18 13:10:00</time>
      </trkpt>
      <trkpt lat="-34.89922" lon="-56.07364">
        <ele>-160.6</ele>
        <time>2022-11-18 13:10:01</time>
      </trkpt>
      <trkpt lat="-34.89922" lon="-56.07361">
        <ele>-160.2</ele>
        <time>2022-11-18 13:10:02</time>
      </trkpt>
      <trkpt lat="-34.89923" lon="-56.07355">
        <ele>-166.4</ele>
        <time>2022-11-18 13:10:04</time>
      </trkpt>
      <trkpt lat="-34.89923" lon="-56.07354">
        <ele>-169</ele>
        <time>2022-11-18 13:10:05</time>
      </trkpt>
      <trkpt lat="-34.89923" lon="-56.07352">
        <ele>-170.2</ele>
        <time>2022-11-18 13:10:06</time>
      </trkpt>
      <trkpt lat="-34.89923" lon="-56.0735">
        <ele>-172</ele>
        <time>2022-11-18 13:10:07</time>
      </trkpt>
      <trkpt lat="-34.89924" lon="-56.07347">
        <ele>-188.4</ele>
        <time>2022-11-18 13:10:08</time>
      </trkpt>
      <trkpt lat="-34.89924" lon="-56.07345">
        <ele>-196.2</ele>
        <time>2022-11-18 13:10:12</time>
      </trkpt>
      <trkpt lat="-34.89925" lon="-56.07343">
        <ele>-203.2</ele>
        <time>2022-11-18 13:10:13</time>
      </trkpt>
      <trkpt lat="-34.89925" lon="-56.07342">
        <ele>-209.8</ele>
        <time>2022-11-18 13:10:14</time>
      </trkpt>
      <trkpt lat="-34.89926" lon="-56.07339">
        <ele>-259.6</ele>
        <time>2022-11-18 13:10:18</time>
      </trkpt>
      <trkpt lat="-34.89926" lon="-56.07337">
        <ele>-284.6</ele>
        <time>2022-11-18 13:10:19</time>
      </trkpt>
      <trkpt lat="-34.89927" lon="-56.07336">
        <ele>-297</ele>
        <time>2022-11-18 13:10:20</time>
      </trkpt>
      <trkpt lat="-34.89928" lon="-56.07334">
        <ele>-290.6</ele>
        <time>2022-11-18 13:10:21</time>
      </trkpt>
      <trkpt lat="-34.89929" lon="-56.07332">
        <ele>-287.6</ele>
        <time>2022-11-18 13:10:22</time>
      </trkpt>
      <trkpt lat="-34.89929" lon="-56.0733">
        <ele>-286.2</ele>
        <time>2022-11-18 13:10:23</time>
      </trkpt>
      <trkpt lat="-34.8993" lon="-56.07329">
        <ele>-285.4</ele>
        <time>2022-11-18 13:10:24</time>
      </trkpt>
      <trkpt lat="-34.89931" lon="-56.07329">
        <ele>-285</ele>
        <time>2022-11-18 13:10:25</time>
      </trkpt>
      <trkpt lat="-34.89932" lon="-56.07328">
        <ele>-274.8</ele>
        <time>2022-11-18 13:10:26</time>
      </trkpt>
      <trkpt lat="-34.89931" lon="-56.07327">
        <ele>-279.8</ele>
        <time>2022-11-18 13:10:27</time>
      </trkpt>
      <trkpt lat="-34.89932" lon="-56.07327">
        <ele>-272.2</ele>
        <time>2022-11-18 13:10:28</time>
      </trkpt>
      <trkpt lat="-34.89931" lon="-56.07326">
        <ele>-278.4</ele>
        <time>2022-11-18 13:10:29</time>
      </trkpt>
      <trkpt lat="-34.89931" lon="-56.07325">
        <ele>-271.6</ele>
        <time>2022-11-18 13:10:30</time>
      </trkpt>
      <trkpt lat="-34.89931" lon="-56.07325">
        <ele>-278.2</ele>
        <time>2022-11-18 13:10:31</time>
      </trkpt>
      <trkpt lat="-34.89932" lon="-56.07324">
        <ele>-281.4</ele>
        <time>2022-11-18 13:10:32</time>
      </trkpt>
      <trkpt lat="-34.89933" lon="-56.07324">
        <ele>-303</ele>
        <time>2022-11-18 13:10:33</time>
      </trkpt>
      <trkpt lat="-34.89933" lon="-56.07322">
        <ele>-314</ele>
        <time>2022-11-18 13:10:34</time>
      </trkpt>
      <trkpt lat="-34.89931" lon="-56.07326">
        <ele>-319.4</ele>
        <time>2022-11-18 13:10:35</time>
      </trkpt>
      <trkpt lat="-34.89932" lon="-56.07325">
        <ele>-322</ele>
        <time>2022-11-18 13:10:36</time>
      </trkpt>
      <trkpt lat="-34.89933" lon="-56.07323">
        <ele>-323.4</ele>
        <time>2022-11-18 13:10:37</time>
      </trkpt>
      <trkpt lat="-34.89933" lon="-56.07322">
        <ele>-329.4</ele>
        <time>2022-11-18 13:10:38</time>
      </trkpt>
      <trkpt lat="-34.89933" lon="-56.0732">
        <ele>-337</ele>
        <time>2022-11-18 13:10:39</time>
      </trkpt>
      <trkpt lat="-34.89933" lon="-56.07319">
        <ele>-336.2</ele>
        <time>2022-11-18 13:10:40</time>
      </trkpt>
      <trkpt lat="-34.8993" lon="-56.07319">
        <ele>-335.6</ele>
        <time>2022-11-18 13:10:41</time>
      </trkpt>
      <trkpt lat="-34.89928" lon="-56.0732">
        <ele>-330.2</ele>
        <time>2022-11-18 13:10:42</time>
      </trkpt>
      <trkpt lat="-34.89928" lon="-56.0732">
        <ele>-327.6</ele>
        <time>2022-11-18 13:10:43</time>
      </trkpt>
      <trkpt lat="-34.89926" lon="-56.07322">
        <ele>-272.4</ele>
        <time>2022-11-18 13:10:57</time>
      </trkpt>
      <trkpt lat="-34.89925" lon="-56.07324">
        <ele>-245</ele>
        <time>2022-11-18 13:10:58</time>
      </trkpt>
      <trkpt lat="-34.89924" lon="-56.07326">
        <ele>-215</ele>
        <time>2022-11-18 13:10:59</time>
      </trkpt>
      <trkpt lat="-34.89924" lon="-56.07327">
        <ele>-200.2</ele>
        <time>2022-11-18 13:11:00</time>
      </trkpt>
      <trkpt lat="-34.89924" lon="-56.07327">
        <ele>-188.8</ele>
        <time>2022-11-18 13:11:01</time>
      </trkpt>
      <trkpt lat="-34.89926" lon="-56.07329">
        <ele>-177.4</ele>
        <time>2022-11-18 13:11:02</time>
      </trkpt>
      <trkpt lat="-34.89927" lon="-56.0733">
        <ele>-170.4</ele>
        <time>2022-11-18 13:11:03</time>
      </trkpt>
      <trkpt lat="-34.89927" lon="-56.0733">
        <ele>-167</ele>
        <time>2022-11-18 13:11:04</time>
      </trkpt>
      <trkpt lat="-34.89927" lon="-56.07331">
        <ele>-164.4</ele>
        <time>2022-11-18 13:11:05</time>
      </trkpt>
      <trkpt lat="-34.89927" lon="-56.07331">
        <ele>-163</ele>
        <time>2022-11-18 13:11:06</time>
      </trkpt>
      <trkpt lat="-34.89927" lon="-56.07331">
        <ele>-162</ele>
        <time>2022-11-18 13:11:07</time>
      </trkpt>
      <trkpt lat="-34.89927" lon="-56.07331">
        <ele>-161.8</ele>
        <time>2022-11-18 13:11:08</time>
      </trkpt>
      <trkpt lat="-34.89927" lon="-56.07332">
        <ele>-160.6</ele>
        <time>2022-11-18 13:11:09</time>
      </trkpt>
      <trkpt lat="-34.89927" lon="-56.07332">
        <ele>-159.6</ele>
        <time>2022-11-18 13:11:10</time>
      </trkpt>
      <trkpt lat="-34.89928" lon="-56.07333">
        <ele>-161.2</ele>
        <time>2022-11-18 13:11:11</time>
      </trkpt>
      <trkpt lat="-34.89928" lon="-56.07333">
        <ele>-162.2</ele>
        <time>2022-11-18 13:11:12</time>
      </trkpt>
      <trkpt lat="-34.89928" lon="-56.07333">
        <ele>-161.2</ele>
        <time>2022-11-18 13:11:13</time>
      </trkpt>
      <trkpt lat="-34.89928" lon="-56.07332">
        <ele>-160.2</ele>
        <time>2022-11-18 13:11:14</time>
      </trkpt>
      <trkpt lat="-34.89928" lon="-56.07331">
        <ele>-159.2</ele>
        <time>2022-11-18 13:11:15</time>
      </trkpt>
      <trkpt lat="-34.89927" lon="-56.0733">
        <ele>-159</ele>
        <time>2022-11-18 13:11:16</time>
      </trkpt>
      <trkpt lat="-34.89927" lon="-56.07329">
        <ele>-159</ele>
        <time>2022-11-18 13:11:17</time>
      </trkpt>
      <trkpt lat="-34.89927" lon="-56.07329">
        <ele>-159</ele>
        <time>2022-11-18 13:11:18</time>
      </trkpt>
      <trkpt lat="-34.89927" lon="-56.07329">
        <ele>-159</ele>
        <time>2022-11-18 13:11:19</time>
      </trkpt>
      <trkpt lat="-34.89927" lon="-56.07327">
        <ele>-158.8</ele>
        <time>2022-11-18 13:11:22</time>
      </trkpt>
      <trkpt lat="-34.89926" lon="-56.0733">
        <ele>-154.6</ele>
        <time>2022-11-18 13:11:23</time>
      </trkpt>
      <trkpt lat="-34.89925" lon="-56.0733">
        <ele>-150.2</ele>
        <time>2022-11-18 13:11:24</time>
      </trkpt>
      <trkpt lat="-34.89925" lon="-56.07331">
        <ele>-147.4</ele>
        <time>2022-11-18 13:11:25</time>
      </trkpt>
      <trkpt lat="-34.89926" lon="-56.07332">
        <ele>-145.6</ele>
        <time>2022-11-18 13:11:26</time>
      </trkpt>
      <trkpt lat="-34.89926" lon="-56.07332">
        <ele>-141.8</ele>
        <time>2022-11-18 13:11:27</time>
      </trkpt>
      <trkpt lat="-34.89926" lon="-56.07333">
        <ele>-139.4</ele>
        <time>2022-11-18 13:11:28</time>
      </trkpt>
      <trkpt lat="-34.89926" lon="-56.07333">
        <ele>-150.6</ele>
        <time>2022-11-18 13:11:29</time>
      </trkpt>
      <trkpt lat="-34.89926" lon="-56.07333">
        <ele>-153</ele>
        <time>2022-11-18 13:11:30</time>
      </trkpt>
      <trkpt lat="-34.89927" lon="-56.07333">
        <ele>-155.6</ele>
        <time>2022-11-18 13:11:31</time>
      </trkpt>
      <trkpt lat="-34.89927" lon="-56.07334">
        <ele>-154.2</ele>
        <time>2022-11-18 13:11:32</time>
      </trkpt>
      <trkpt lat="-34.89928" lon="-56.07334">
        <ele>-148.6</ele>
        <time>2022-11-18 13:11:33</time>
      </trkpt>
      <trkpt lat="-34.89928" lon="-56.07334">
        <ele>-151.8</ele>
        <time>2022-11-18 13:11:34</time>
      </trkpt>
      <trkpt lat="-34.89929" lon="-56.07334">
        <ele>-155.6</ele>
        <time>2022-11-18 13:11:35</time>
      </trkpt>
      <trkpt lat="-34.89929" lon="-56.07334">
        <ele>-158</ele>
        <time>2022-11-18 13:11:36</time>
      </trkpt>
      <trkpt lat="-34.89929" lon="-56.07334">
        <ele>-154.4</ele>
        <time>2022-11-18 13:11:37</time>
      </trkpt>
      <trkpt lat="-34.89929" lon="-56.07334">
        <ele>-147.2</ele>
        <time>2022-11-18 13:11:38</time>
      </trkpt>
      <trkpt lat="-34.89929" lon="-56.07334">
        <ele>-149.6</ele>
        <time>2022-11-18 13:11:39</time>
      </trkpt>
      <trkpt lat="-34.89929" lon="-56.07334">
        <ele>-152.8</ele>
        <time>2022-11-18 13:11:41</time>
      </trkpt>
      <trkpt lat="-34.89929" lon="-56.07334">
        <ele>-154</ele>
        <time>2022-11-18 13:11:43</time>
      </trkpt>
      <trkpt lat="-34.89929" lon="-56.07334">
        <ele>-152.4</ele>
        <time>2022-11-18 13:11:45</time>
      </trkpt>
      <trkpt lat="-34.89929" lon="-56.07334">
        <ele>-153.2</ele>
        <time>2022-11-18 13:11:49</time>
      </trkpt>
      <trkpt lat="-34.89929" lon="-56.07334">
        <ele>-153.8</ele>
        <time>2022-11-18 13:11:53</time>
      </trkpt>
      <trkpt lat="-34.89929" lon="-56.07333">
        <ele>-153.8</ele>
        <time>2022-11-18 13:11:54</time>
      </trkpt>
      <trkpt lat="-34.8993" lon="-56.07333">
        <ele>-154.4</ele>
        <time>2022-11-18 13:11:55</time>
      </trkpt>
      <trkpt lat="-34.8993" lon="-56.07333">
        <ele>-154.8</ele>
        <time>2022-11-18 13:11:56</time>
      </trkpt>
      <trkpt lat="-34.8993" lon="-56.07333">
        <ele>-154.8</ele>
        <time>2022-11-18 13:11:58</time>
      </trkpt>
      <trkpt lat="-34.8993" lon="-56.07332">
        <ele>-155.4</ele>
        <time>2022-11-18 13:11:59</time>
      </trkpt>
      <trkpt lat="-34.8993" lon="-56.07333">
        <ele>-155.4</ele>
        <time>2022-11-18 13:12:00</time>
      </trkpt>
      <trkpt lat="-34.8993" lon="-56.07333">
        <ele>-155.4</ele>
        <time>2022-11-18 13:12:01</time>
      </trkpt>
      <trkpt lat="-34.8993" lon="-56.07333">
        <ele>-155</ele>
        <time>2022-11-18 13:12:02</time>
      </trkpt>
      <trkpt lat="-34.8993" lon="-56.07333">
        <ele>-153.8</ele>
        <time>2022-11-18 13:12:03</time>
      </trkpt>
      <trkpt lat="-34.89929" lon="-56.07333">
        <ele>-151.2</ele>
        <time>2022-11-18 13:12:04</time>
      </trkpt>
      <trkpt lat="-34.89929" lon="-56.07333">
        <ele>-152.4</ele>
        <time>2022-11-18 13:12:05</time>
      </trkpt>
      <trkpt lat="-34.89929" lon="-56.07333">
        <ele>-153.6</ele>
        <time>2022-11-18 13:12:06</time>
      </trkpt>
      <trkpt lat="-34.8993" lon="-56.07333">
        <ele>-155</ele>
        <time>2022-11-18 13:12:07</time>
      </trkpt>
      <trkpt lat="-34.8993" lon="-56.07333">
        <ele>-155</ele>
        <time>2022-11-18 13:12:08</time>
      </trkpt>
      <trkpt lat="-34.89929" lon="-56.07332">
        <ele>-155.8</ele>
        <time>2022-11-18 13:12:09</time>
      </trkpt>
      <trkpt lat="-34.89929" lon="-56.07332">
        <ele>-156</ele>
        <time>2022-11-18 13:12:10</time>
      </trkpt>
      <trkpt lat="-34.8993" lon="-56.07332">
        <ele>-156</ele>
        <time>2022-11-18 13:12:11</time>
      </trkpt>
      <trkpt lat="-34.8993" lon="-56.07332">
        <ele>-155.8</ele>
        <time>2022-11-18 13:12:12</time>
      </trkpt>
      <trkpt lat="-34.8993" lon="-56.07332">
        <ele>-155.8</ele>
        <time>2022-11-18 13:12:13</time>
      </trkpt>
      <trkpt lat="-34.89929" lon="-56.07332">
        <ele>-156.2</ele>
        <time>2022-11-18 13:12:14</time>
      </trkpt>
      <trkpt lat="-34.8993" lon="-56.07332">
        <ele>-156.2</ele>
        <time>2022-11-18 13:12:15</time>
      </trkpt>
      <trkpt lat="-34.8993" lon="-56.07332">
        <ele>-156.2</ele>
        <time>2022-11-18 13:12:16</time>
      </trkpt>
      <trkpt lat="-34.8993" lon="-56.07333">
        <ele>-156.2</ele>
        <time>2022-11-18 13:12:17</time>
      </trkpt>
      <trkpt lat="-34.89929" lon="-56.07336">
        <ele>-156.2</ele>
        <time>2022-11-18 13:12:18</time>
      </trkpt>
      <trkpt lat="-34.89929" lon="-56.07338">
        <ele>-156.8</ele>
        <time>2022-11-18 13:12:19</time>
      </trkpt>
      <trkpt lat="-34.89928" lon="-56.07339">
        <ele>-157</ele>
        <time>2022-11-18 13:12:20</time>
      </trkpt>
      <trkpt lat="-34.89928" lon="-56.0734">
        <ele>-157</ele>
        <time>2022-11-18 13:12:21</time>
      </trkpt>
      <trkpt lat="-34.89928" lon="-56.07342">
        <ele>-157.2</ele>
        <time>2022-11-18 13:12:22</time>
      </trkpt>
      <trkpt lat="-34.89927" lon="-56.0735">
        <ele>-160.4</ele>
        <time>2022-11-18 13:12:23</time>
      </trkpt>
      <trkpt lat="-34.89928" lon="-56.07351">
        <ele>-164.2</ele>
        <time>2022-11-18 13:12:24</time>
      </trkpt>
      <trkpt lat="-34.89927" lon="-56.07352">
        <ele>-186</ele>
        <time>2022-11-18 13:12:25</time>
      </trkpt>
      <trkpt lat="-34.89927" lon="-56.07354">
        <ele>-220.8</ele>
        <time>2022-11-18 13:12:26</time>
      </trkpt>
      <trkpt lat="-34.89926" lon="-56.07355">
        <ele>-238.2</ele>
        <time>2022-11-18 13:12:27</time>
      </trkpt>
      <trkpt lat="-34.89926" lon="-56.07357">
        <ele>-257.8</ele>
        <time>2022-11-18 13:12:28</time>
      </trkpt>
      <trkpt lat="-34.89925" lon="-56.07358">
        <ele>-267.6</ele>
        <time>2022-11-18 13:12:29</time>
      </trkpt>
      <trkpt lat="-34.89925" lon="-56.0736">
        <ele>-270.2</ele>
        <time>2022-11-18 13:12:30</time>
      </trkpt>
      <trkpt lat="-34.89924" lon="-56.07362">
        <ele>-263</ele>
        <time>2022-11-18 13:12:31</time>
      </trkpt>
      <trkpt lat="-34.89924" lon="-56.07364">
        <ele>-267.8</ele>
        <time>2022-11-18 13:12:32</time>
      </trkpt>
      <trkpt lat="-34.89923" lon="-56.07366">
        <ele>-261.8</ele>
        <time>2022-11-18 13:12:33</time>
      </trkpt>
      <trkpt lat="-34.89922" lon="-56.07368">
        <ele>-267.4</ele>
        <time>2022-11-18 13:12:34</time>
      </trkpt>
      <trkpt lat="-34.89922" lon="-56.07368">
        <ele>-261.4</ele>
        <time>2022-11-18 13:12:35</time>
      </trkpt>
      <trkpt lat="-34.89922" lon="-56.0737">
        <ele>-267.2</ele>
        <time>2022-11-18 13:12:36</time>
      </trkpt>
      <trkpt lat="-34.89922" lon="-56.07373">
        <ele>-270</ele>
        <time>2022-11-18 13:12:37</time>
      </trkpt>
      <trkpt lat="-34.89922" lon="-56.07374">
        <ele>-271.4</ele>
        <time>2022-11-18 13:12:39</time>
      </trkpt>
      <trkpt lat="-34.8992" lon="-56.07377">
        <ele>-272.6</ele>
        <time>2022-11-18 13:12:40</time>
      </trkpt>
      <trkpt lat="-34.89913" lon="-56.07382">
        <ele>-271.2</ele>
        <time>2022-11-18 13:12:43</time>
      </trkpt>
      <trkpt lat="-34.8991" lon="-56.07385">
        <ele>-270.8</ele>
        <time>2022-11-18 13:12:46</time>
      </trkpt>
      <trkpt lat="-34.89909" lon="-56.07387">
        <ele>-270</ele>
        <time>2022-11-18 13:12:51</time>
      </trkpt>
      <trkpt lat="-34.89906" lon="-56.0739">
        <ele>-281.4</ele>
        <time>2022-11-18 13:12:52</time>
      </trkpt>
      <trkpt lat="-34.89905" lon="-56.07389">
        <ele>-275.4</ele>
        <time>2022-11-18 13:12:55</time>
      </trkpt>
      <trkpt lat="-34.89903" lon="-56.07391">
        <ele>-272.4</ele>
        <time>2022-11-18 13:12:59</time>
      </trkpt>
      <trkpt lat="-34.89905" lon="-56.07391">
        <ele>-271</ele>
        <time>2022-11-18 13:13:04</time>
      </trkpt>
      <trkpt lat="-34.89903" lon="-56.07392">
        <ele>-269.8</ele>
        <time>2022-11-18 13:13:08</time>
      </trkpt>
      <trkpt lat="-34.89903" lon="-56.07393">
        <ele>-255.8</ele>
        <time>2022-11-18 13:13:09</time>
      </trkpt>
      <trkpt lat="-34.89902" lon="-56.07395">
        <ele>-262.6</ele>
        <time>2022-11-18 13:13:10</time>
      </trkpt>
      <trkpt lat="-34.89902" lon="-56.07394">
        <ele>-252.2</ele>
        <time>2022-11-18 13:13:11</time>
      </trkpt>
      <trkpt lat="-34.89902" lon="-56.07395">
        <ele>-260.8</ele>
        <time>2022-11-18 13:13:20</time>
      </trkpt>
      <trkpt lat="-34.89904" lon="-56.07395">
        <ele>-249.2</ele>
        <time>2022-11-18 13:13:30</time>
      </trkpt>
      <trkpt lat="-34.89904" lon="-56.07396">
        <ele>-246</ele>
        <time>2022-11-18 13:13:31</time>
      </trkpt>
      <trkpt lat="-34.89905" lon="-56.07398">
        <ele>-257.8</ele>
        <time>2022-11-18 13:13:32</time>
      </trkpt>
      <trkpt lat="-34.89906" lon="-56.07398">
        <ele>-249.8</ele>
        <time>2022-11-18 13:13:33</time>
      </trkpt>
      <trkpt lat="-34.89907" lon="-56.07397">
        <ele>-245.8</ele>
        <time>2022-11-18 13:13:34</time>
      </trkpt>
      <trkpt lat="-34.89907" lon="-56.07398">
        <ele>-243.8</ele>
        <time>2022-11-18 13:13:35</time>
      </trkpt>
      <trkpt lat="-34.89907" lon="-56.07399">
        <ele>-242.8</ele>
        <time>2022-11-18 13:13:36</time>
      </trkpt>
      <trkpt lat="-34.89905" lon="-56.07401">
        <ele>-235.4</ele>
        <time>2022-11-18 13:13:37</time>
      </trkpt>
      <trkpt lat="-34.89906" lon="-56.07403">
        <ele>-247.6</ele>
        <time>2022-11-18 13:13:38</time>
      </trkpt>
      <trkpt lat="-34.89905" lon="-56.07404">
        <ele>-253.8</ele>
        <time>2022-11-18 13:13:39</time>
      </trkpt>
      <trkpt lat="-34.89904" lon="-56.07404">
        <ele>-257</ele>
        <time>2022-11-18 13:13:40</time>
      </trkpt>
      <trkpt lat="-34.89903" lon="-56.07404">
        <ele>-258.4</ele>
        <time>2022-11-18 13:13:41</time>
      </trkpt>
      <trkpt lat="-34.89901" lon="-56.07407">
        <ele>-259.6</ele>
        <time>2022-11-18 13:13:42</time>
      </trkpt>
      <trkpt lat="-34.89898" lon="-56.07409">
        <ele>-267</ele>
        <time>2022-11-18 13:13:44</time>
      </trkpt>
      <trkpt lat="-34.89898" lon="-56.07407">
        <ele>-281.4</ele>
        <time>2022-11-18 13:13:45</time>
      </trkpt>
      <trkpt lat="-34.89898" lon="-56.07408">
        <ele>-273.4</ele>
        <time>2022-11-18 13:13:46</time>
      </trkpt>
      <trkpt lat="-34.89899" lon="-56.07408">
        <ele>-284.6</ele>
        <time>2022-11-18 13:13:47</time>
      </trkpt>
      <trkpt lat="-34.89898" lon="-56.0741">
        <ele>-275</ele>
        <time>2022-11-18 13:13:52</time>
      </trkpt>
      <trkpt lat="-34.89898" lon="-56.07412">
        <ele>-285.4</ele>
        <time>2022-11-18 13:13:54</time>
      </trkpt>
      <trkpt lat="-34.89896" lon="-56.07412">
        <ele>-275.4</ele>
        <time>2022-11-18 13:13:55</time>
      </trkpt>
      <trkpt lat="-34.89895" lon="-56.07413">
        <ele>-285.6</ele>
        <time>2022-11-18 13:14:00</time>
      </trkpt>
      <trkpt lat="-34.89894" lon="-56.07414">
        <ele>-275.4</ele>
        <time>2022-11-18 13:14:01</time>
      </trkpt>
      <trkpt lat="-34.89893" lon="-56.07416">
        <ele>-285.6</ele>
        <time>2022-11-18 13:14:09</time>
      </trkpt>
      <trkpt lat="-34.89892" lon="-56.07417">
        <ele>-290.6</ele>
        <time>2022-11-18 13:14:22</time>
      </trkpt>
      <trkpt lat="-34.8989" lon="-56.07419">
        <ele>-293.2</ele>
        <time>2022-11-18 13:14:27</time>
      </trkpt>
      <trkpt lat="-34.89889" lon="-56.07422">
        <ele>-294.4</ele>
        <time>2022-11-18 13:14:28</time>
      </trkpt>
      <trkpt lat="-34.89886" lon="-56.07416">
        <ele>-312.6</ele>
        <time>2022-11-18 13:14:36</time>
      </trkpt>
      <trkpt lat="-34.89886" lon="-56.07416">
        <ele>-304.2</ele>
        <time>2022-11-18 13:14:40</time>
      </trkpt>
      <trkpt lat="-34.89889" lon="-56.07415">
        <ele>-317.2</ele>
        <time>2022-11-18 13:14:41</time>
      </trkpt>
      <trkpt lat="-34.89888" lon="-56.07417">
        <ele>-306.4</ele>
        <time>2022-11-18 13:14:42</time>
      </trkpt>
      <trkpt lat="-34.89887" lon="-56.07418">
        <ele>-318.4</ele>
        <time>2022-11-18 13:14:45</time>
      </trkpt>
      <trkpt lat="-34.89888" lon="-56.07419">
        <ele>-324.4</ele>
        <time>2022-11-18 13:14:54</time>
      </trkpt>
      <trkpt lat="-34.89888" lon="-56.07421">
        <ele>-327.4</ele>
        <time>2022-11-18 13:14:58</time>
      </trkpt>
      <trkpt lat="-34.8989" lon="-56.07421">
        <ele>-328.8</ele>
        <time>2022-11-18 13:15:00</time>
      </trkpt>
      <trkpt lat="-34.8989" lon="-56.07422">
        <ele>-330</ele>
        <time>2022-11-18 13:15:02</time>
      </trkpt>
      <trkpt lat="-34.89891" lon="-56.07429">
        <ele>-331</ele>
        <time>2022-11-18 13:15:21</time>
      </trkpt>
      <trkpt lat="-34.89882" lon="-56.07436">
        <ele>-308.6</ele>
        <time>2022-11-18 13:15:37</time>
      </trkpt>
      <trkpt lat="-34.89883" lon="-56.07432">
        <ele>-297.4</ele>
        <time>2022-11-18 13:15:47</time>
      </trkpt>
      <trkpt lat="-34.89883" lon="-56.07432">
        <ele>-291.8</ele>
        <time>2022-11-18 13:15:48</time>
      </trkpt>
      <trkpt lat="-34.89882" lon="-56.07434">
        <ele>-310.4</ele>
        <time>2022-11-18 13:15:50</time>
      </trkpt>
      <trkpt lat="-34.89883" lon="-56.07434">
        <ele>-298.2</ele>
        <time>2022-11-18 13:15:52</time>
      </trkpt>
      <trkpt lat="-34.89887" lon="-56.07436">
        <ele>-313.8</ele>
        <time>2022-11-18 13:15:58</time>
      </trkpt>
      <trkpt lat="-34.89888" lon="-56.07437">
        <ele>-296.4</ele>
        <time>2022-11-18 13:16:08</time>
      </trkpt>
      <trkpt lat="-34.89889" lon="-56.07439">
        <ele>-292.2</ele>
        <time>2022-11-18 13:16:11</time>
      </trkpt>
      <trkpt lat="-34.8989" lon="-56.0744">
        <ele>-286</ele>
        <time>2022-11-18 13:16:13</time>
      </trkpt>
      <trkpt lat="-34.8989" lon="-56.07443">
        <ele>-282.8</ele>
        <time>2022-11-18 13:16:17</time>
      </trkpt>
      <trkpt lat="-34.8989" lon="-56.07445">
        <ele>-284.4</ele>
        <time>2022-11-18 13:16:19</time>
      </trkpt>
      <trkpt lat="-34.89889" lon="-56.07445">
        <ele>-282</ele>
        <time>2022-11-18 13:16:20</time>
      </trkpt>
      <trkpt lat="-34.89888" lon="-56.07447">
        <ele>-284</ele>
        <time>2022-11-18 13:16:21</time>
      </trkpt>
      <trkpt lat="-34.89887" lon="-56.07448">
        <ele>-281.8</ele>
        <time>2022-11-18 13:16:22</time>
      </trkpt>
      <trkpt lat="-34.89887" lon="-56.0745">
        <ele>-280.8</ele>
        <time>2022-11-18 13:16:28</time>
      </trkpt>
      <trkpt lat="-34.89883" lon="-56.07454">
        <ele>-279.8</ele>
        <time>2022-11-18 13:16:29</time>
      </trkpt>
      <trkpt lat="-34.89883" lon="-56.07457">
        <ele>-270.2</ele>
        <time>2022-11-18 13:16:30</time>
      </trkpt>
      <trkpt lat="-34.89883" lon="-56.07459">
        <ele>-265.4</ele>
        <time>2022-11-18 13:16:31</time>
      </trkpt>
      <trkpt lat="-34.89885" lon="-56.07457">
        <ele>-247.4</ele>
        <time>2022-11-18 13:16:32</time>
      </trkpt>
      <trkpt lat="-34.89885" lon="-56.07457">
        <ele>-254</ele>
        <time>2022-11-18 13:16:33</time>
      </trkpt>
      <trkpt lat="-34.89886" lon="-56.07454">
        <ele>-274.8</ele>
        <time>2022-11-18 13:16:34</time>
      </trkpt>
      <trkpt lat="-34.89886" lon="-56.07456">
        <ele>-267.8</ele>
        <time>2022-11-18 13:16:35</time>
      </trkpt>
      <trkpt lat="-34.8989" lon="-56.07456">
        <ele>-281.8</ele>
        <time>2022-11-18 13:16:36</time>
      </trkpt>
      <trkpt lat="-34.89889" lon="-56.07457">
        <ele>-271.2</ele>
        <time>2022-11-18 13:16:37</time>
      </trkpt>
      <trkpt lat="-34.89889" lon="-56.07457">
        <ele>-283.4</ele>
        <time>2022-11-18 13:16:38</time>
      </trkpt>
      <trkpt lat="-34.89888" lon="-56.07457">
        <ele>-272</ele>
        <time>2022-11-18 13:16:39</time>
      </trkpt>
      <trkpt lat="-34.89888" lon="-56.07458">
        <ele>-283.8</ele>
        <time>2022-11-18 13:16:40</time>
      </trkpt>
      <trkpt lat="-34.89886" lon="-56.07459">
        <ele>-272.2</ele>
        <time>2022-11-18 13:16:41</time>
      </trkpt>
      <trkpt lat="-34.89885" lon="-56.07461">
        <ele>-284</ele>
        <time>2022-11-18 13:16:42</time>
      </trkpt>
      <trkpt lat="-34.89885" lon="-56.0746">
        <ele>-289.8</ele>
        <time>2022-11-18 13:16:43</time>
      </trkpt>
      <trkpt lat="-34.89884" lon="-56.07461">
        <ele>-292.8</ele>
        <time>2022-11-18 13:16:45</time>
      </trkpt>
      <trkpt lat="-34.89883" lon="-56.07459">
        <ele>-331.4</ele>
        <time>2022-11-18 13:16:50</time>
      </trkpt>
      <trkpt lat="-34.89882" lon="-56.0746">
        <ele>-313.6</ele>
        <time>2022-11-18 13:16:52</time>
      </trkpt>
      <trkpt lat="-34.89881" lon="-56.07461">
        <ele>-341.6</ele>
        <time>2022-11-18 13:16:53</time>
      </trkpt>
      <trkpt lat="-34.8988" lon="-56.07462">
        <ele>-318.8</ele>
        <time>2022-11-18 13:16:55</time>
      </trkpt>
      <trkpt lat="-34.8988" lon="-56.07463">
        <ele>-344.2</ele>
        <time>2022-11-18 13:16:56</time>
      </trkpt>
      <trkpt lat="-34.8988" lon="-56.07464">
        <ele>-320</ele>
        <time>2022-11-18 13:16:57</time>
      </trkpt>
      <trkpt lat="-34.8988" lon="-56.07466">
        <ele>-334.2</ele>
        <time>2022-11-18 13:16:58</time>
      </trkpt>
      <trkpt lat="-34.8988" lon="-56.07467">
        <ele>-315</ele>
        <time>2022-11-18 13:17:00</time>
      </trkpt>
      <trkpt lat="-34.8988" lon="-56.07467">
        <ele>-331.6</ele>
        <time>2022-11-18 13:17:01</time>
      </trkpt>
      <trkpt lat="-34.8988" lon="-56.07468">
        <ele>-339.8</ele>
        <time>2022-11-18 13:17:02</time>
      </trkpt>
      <trkpt lat="-34.8988" lon="-56.07469">
        <ele>-344</ele>
        <time>2022-11-18 13:17:03</time>
      </trkpt>
      <trkpt lat="-34.8988" lon="-56.07471">
        <ele>-346.2</ele>
        <time>2022-11-18 13:17:04</time>
      </trkpt>
      <trkpt lat="-34.8988" lon="-56.07473">
        <ele>-328.2</ele>
        <time>2022-11-18 13:17:05</time>
      </trkpt>
      <trkpt lat="-34.89884" lon="-56.07474">
        <ele>-338.2</ele>
        <time>2022-11-18 13:17:06</time>
      </trkpt>
      <trkpt lat="-34.89884" lon="-56.07475">
        <ele>-324.2</ele>
        <time>2022-11-18 13:17:07</time>
      </trkpt>
      <trkpt lat="-34.89883" lon="-56.07475">
        <ele>-336.2</ele>
        <time>2022-11-18 13:17:08</time>
      </trkpt>
      <trkpt lat="-34.89883" lon="-56.07477">
        <ele>-323.2</ele>
        <time>2022-11-18 13:17:09</time>
      </trkpt>
      <trkpt lat="-34.89883" lon="-56.07478">
        <ele>-335.6</ele>
        <time>2022-11-18 13:17:10</time>
      </trkpt>
      <trkpt lat="-34.89884" lon="-56.07478">
        <ele>-323</ele>
        <time>2022-11-18 13:17:11</time>
      </trkpt>
      <trkpt lat="-34.89884" lon="-56.07478">
        <ele>-316.6</ele>
        <time>2022-11-18 13:17:14</time>
      </trkpt>
      <trkpt lat="-34.89884" lon="-56.07478">
        <ele>-313.4</ele>
        <time>2022-11-18 13:17:15</time>
      </trkpt>
      <trkpt lat="-34.89884" lon="-56.07477">
        <ele>-311.8</ele>
        <time>2022-11-18 13:17:16</time>
      </trkpt>
      <trkpt lat="-34.89884" lon="-56.07475">
        <ele>-281.2</ele>
        <time>2022-11-18 13:17:17</time>
      </trkpt>
      <trkpt lat="-34.89883" lon="-56.07476">
        <ele>-295.6</ele>
        <time>2022-11-18 13:17:18</time>
      </trkpt>
      <trkpt lat="-34.89882" lon="-56.07477">
        <ele>-273.4</ele>
        <time>2022-11-18 13:17:20</time>
      </trkpt>
      <trkpt lat="-34.89881" lon="-56.07478">
        <ele>-291.8</ele>
        <time>2022-11-18 13:17:24</time>
      </trkpt>
      <trkpt lat="-34.89881" lon="-56.07478">
        <ele>-271.6</ele>
        <time>2022-11-18 13:17:25</time>
      </trkpt>
      <trkpt lat="-34.8988" lon="-56.07479">
        <ele>-290.8</ele>
        <time>2022-11-18 13:17:26</time>
      </trkpt>
      <trkpt lat="-34.89881" lon="-56.0748">
        <ele>-271</ele>
        <time>2022-11-18 13:17:27</time>
      </trkpt>
      <trkpt lat="-34.8988" lon="-56.07481">
        <ele>-302.2</ele>
        <time>2022-11-18 13:17:28</time>
      </trkpt>
      <trkpt lat="-34.8988" lon="-56.07483">
        <ele>-282</ele>
        <time>2022-11-18 13:17:29</time>
      </trkpt>
      <trkpt lat="-34.8988" lon="-56.07484">
        <ele>-308.6</ele>
        <time>2022-11-18 13:17:30</time>
      </trkpt>
      <trkpt lat="-34.89881" lon="-56.07484">
        <ele>-280</ele>
        <time>2022-11-18 13:17:31</time>
      </trkpt>
      <trkpt lat="-34.8988" lon="-56.07486">
        <ele>-307.6</ele>
        <time>2022-11-18 13:17:32</time>
      </trkpt>
      <trkpt lat="-34.8988" lon="-56.07487">
        <ele>-279.4</ele>
        <time>2022-11-18 13:17:33</time>
      </trkpt>
      <trkpt lat="-34.8988" lon="-56.07486">
        <ele>-286.4</ele>
        <time>2022-11-18 13:17:34</time>
      </trkpt>
      <trkpt lat="-34.89886" lon="-56.07482">
        <ele>-290</ele>
        <time>2022-11-18 13:17:35</time>
      </trkpt>
      <trkpt lat="-34.89886" lon="-56.07484">
        <ele>-291.8</ele>
        <time>2022-11-18 13:17:36</time>
      </trkpt>
      <trkpt lat="-34.89884" lon="-56.07486">
        <ele>-293</ele>
        <time>2022-11-18 13:17:38</time>
      </trkpt>
      <trkpt lat="-34.89884" lon="-56.07487">
        <ele>-347</ele>
        <time>2022-11-18 13:17:39</time>
      </trkpt>
      <trkpt lat="-34.89884" lon="-56.07487">
        <ele>-320.2</ele>
        <time>2022-11-18 13:17:40</time>
      </trkpt>
      <trkpt lat="-34.89884" lon="-56.07489">
        <ele>-360.6</ele>
        <time>2022-11-18 13:17:41</time>
      </trkpt>
      <trkpt lat="-34.89884" lon="-56.0749">
        <ele>-327</ele>
        <time>2022-11-18 13:17:42</time>
      </trkpt>
      <trkpt lat="-34.89883" lon="-56.07491">
        <ele>-364</ele>
        <time>2022-11-18 13:17:43</time>
      </trkpt>
      <trkpt lat="-34.89883" lon="-56.07491">
        <ele>-328.8</ele>
        <time>2022-11-18 13:17:44</time>
      </trkpt>
      <trkpt lat="-34.89882" lon="-56.07492">
        <ele>-358.8</ele>
        <time>2022-11-18 13:17:45</time>
      </trkpt>
      <trkpt lat="-34.89881" lon="-56.07491">
        <ele>-326.2</ele>
        <time>2022-11-18 13:17:47</time>
      </trkpt>
      <trkpt lat="-34.8988" lon="-56.07491">
        <ele>-309.8</ele>
        <time>2022-11-18 13:17:53</time>
      </trkpt>
      <trkpt lat="-34.89881" lon="-56.07492">
        <ele>-313.2</ele>
        <time>2022-11-18 13:17:59</time>
      </trkpt>
      <trkpt lat="-34.8988" lon="-56.07494">
        <ele>-303.4</ele>
        <time>2022-11-18 13:18:00</time>
      </trkpt>
      <trkpt lat="-34.8988" lon="-56.07496">
        <ele>-298.4</ele>
        <time>2022-11-18 13:18:01</time>
      </trkpt>
      <trkpt lat="-34.8988" lon="-56.07498">
        <ele>-288.6</ele>
        <time>2022-11-18 13:18:02</time>
      </trkpt>
      <trkpt lat="-34.89881" lon="-56.07499">
        <ele>-291</ele>
        <time>2022-11-18 13:18:03</time>
      </trkpt>
      <trkpt lat="-34.89882" lon="-56.07501">
        <ele>-285</ele>
        <time>2022-11-18 13:18:04</time>
      </trkpt>
      <trkpt lat="-34.89886" lon="-56.07502">
        <ele>-281.8</ele>
        <time>2022-11-18 13:18:05</time>
      </trkpt>
      <trkpt lat="-34.89886" lon="-56.07504">
        <ele>-280.4</ele>
        <time>2022-11-18 13:18:06</time>
      </trkpt>
      <trkpt lat="-34.89884" lon="-56.07507">
        <ele>-279.2</ele>
        <time>2022-11-18 13:18:07</time>
      </trkpt>
      <trkpt lat="-34.89882" lon="-56.07508">
        <ele>-288.8</ele>
        <time>2022-11-18 13:18:09</time>
      </trkpt>
      <trkpt lat="-34.89881" lon="-56.07508">
        <ele>-283.8</ele>
        <time>2022-11-18 13:18:10</time>
      </trkpt>
      <trkpt lat="-34.89882" lon="-56.07509">
        <ele>-291.2</ele>
        <time>2022-11-18 13:18:11</time>
      </trkpt>
      <trkpt lat="-34.89882" lon="-56.07511">
        <ele>-285</ele>
        <time>2022-11-18 13:18:12</time>
      </trkpt>
      <trkpt lat="-34.89881" lon="-56.07512">
        <ele>-282</ele>
        <time>2022-11-18 13:18:13</time>
      </trkpt>
      <trkpt lat="-34.8988" lon="-56.07513">
        <ele>-280.4</ele>
        <time>2022-11-18 13:18:14</time>
      </trkpt>
      <trkpt lat="-34.89879" lon="-56.07514">
        <ele>-289.4</ele>
        <time>2022-11-18 13:18:18</time>
      </trkpt>
      <trkpt lat="-34.89879" lon="-56.07514">
        <ele>-294</ele>
        <time>2022-11-18 13:18:20</time>
      </trkpt>
      <trkpt lat="-34.8988" lon="-56.07515">
        <ele>-296.2</ele>
        <time>2022-11-18 13:18:21</time>
      </trkpt>
      <trkpt lat="-34.8988" lon="-56.07515">
        <ele>-305</ele>
        <time>2022-11-18 13:18:22</time>
      </trkpt>
      <trkpt lat="-34.89879" lon="-56.07517">
        <ele>-309.4</ele>
        <time>2022-11-18 13:18:23</time>
      </trkpt>
      <trkpt lat="-34.89879" lon="-56.07519">
        <ele>-319.2</ele>
        <time>2022-11-18 13:18:24</time>
      </trkpt>
      <trkpt lat="-34.89878" lon="-56.0752">
        <ele>-316.6</ele>
        <time>2022-11-18 13:18:25</time>
      </trkpt>
      <trkpt lat="-34.89877" lon="-56.07522">
        <ele>-315.2</ele>
        <time>2022-11-18 13:18:26</time>
      </trkpt>
      <trkpt lat="-34.89877" lon="-56.07523">
        <ele>-311</ele>
        <time>2022-11-18 13:18:27</time>
      </trkpt>
      <trkpt lat="-34.89878" lon="-56.07518">
        <ele>-301.2</ele>
        <time>2022-11-18 13:18:28</time>
      </trkpt>
      <trkpt lat="-34.8988" lon="-56.07518">
        <ele>-294.8</ele>
        <time>2022-11-18 13:18:29</time>
      </trkpt>
      <trkpt lat="-34.89882" lon="-56.07518">
        <ele>-287</ele>
        <time>2022-11-18 13:18:30</time>
      </trkpt>
      <trkpt lat="-34.8989" lon="-56.07511">
        <ele>-283</ele>
        <time>2022-11-18 13:18:31</time>
      </trkpt>
      <trkpt lat="-34.8989" lon="-56.07511">
        <ele>-277.2</ele>
        <time>2022-11-18 13:18:32</time>
      </trkpt>
      <trkpt lat="-34.89891" lon="-56.07511">
        <ele>-274.2</ele>
        <time>2022-11-18 13:18:33</time>
      </trkpt>
      <trkpt lat="-34.89891" lon="-56.07511">
        <ele>-261.4</ele>
        <time>2022-11-18 13:18:34</time>
      </trkpt>
      <trkpt lat="-34.89891" lon="-56.07511">
        <ele>-255.8</ele>
        <time>2022-11-18 13:18:35</time>
      </trkpt>
      <trkpt lat="-34.89891" lon="-56.07511">
        <ele>-251.2</ele>
        <time>2022-11-18 13:18:36</time>
      </trkpt>
      <trkpt lat="-34.89876" lon="-56.07531">
        <ele>-229.6</ele>
        <time>2022-11-18 13:18:37</time>
      </trkpt>
      <trkpt lat="-34.89876" lon="-56.07533">
        <ele>-254.4</ele>
        <time>2022-11-18 13:18:38</time>
      </trkpt>
      <trkpt lat="-34.89874" lon="-56.07534">
        <ele>-266.8</ele>
        <time>2022-11-18 13:18:39</time>
      </trkpt>
      <trkpt lat="-34.89873" lon="-56.07535">
        <ele>-273</ele>
        <time>2022-11-18 13:18:40</time>
      </trkpt>
      <trkpt lat="-34.89874" lon="-56.07537">
        <ele>-256.4</ele>
        <time>2022-11-18 13:18:41</time>
      </trkpt>
      <trkpt lat="-34.89873" lon="-56.07539">
        <ele>-267.8</ele>
        <time>2022-11-18 13:18:42</time>
      </trkpt>
      <trkpt lat="-34.89878" lon="-56.07539">
        <ele>-273.4</ele>
        <time>2022-11-18 13:18:43</time>
      </trkpt>
      <trkpt lat="-34.89879" lon="-56.07542">
        <ele>-276.2</ele>
        <time>2022-11-18 13:18:44</time>
      </trkpt>
      <trkpt lat="-34.89878" lon="-56.07543">
        <ele>-279.8</ele>
        <time>2022-11-18 13:18:45</time>
      </trkpt>
      <trkpt lat="-34.89878" lon="-56.07544">
        <ele>-288.2</ele>
        <time>2022-11-18 13:18:46</time>
      </trkpt>
      <trkpt lat="-34.8988" lon="-56.07542">
        <ele>-292.4</ele>
        <time>2022-11-18 13:18:47</time>
      </trkpt>
      <trkpt lat="-34.8988" lon="-56.07543">
        <ele>-294.4</ele>
        <time>2022-11-18 13:18:48</time>
      </trkpt>
      <trkpt lat="-34.8988" lon="-56.07544">
        <ele>-295.4</ele>
        <time>2022-11-18 13:18:49</time>
      </trkpt>
      <trkpt lat="-34.8988" lon="-56.07546">
        <ele>-296.4</ele>
        <time>2022-11-18 13:18:50</time>
      </trkpt>
      <trkpt lat="-34.89879" lon="-56.07548">
        <ele>-296.4</ele>
        <time>2022-11-18 13:18:51</time>
      </trkpt>
      <trkpt lat="-34.89878" lon="-56.07549">
        <ele>-296.4</ele>
        <time>2022-11-18 13:18:52</time>
      </trkpt>
      <trkpt lat="-34.89876" lon="-56.07552">
        <ele>-300.6</ele>
        <time>2022-11-18 13:18:53</time>
      </trkpt>
      <trkpt lat="-34.89876" lon="-56.07552">
        <ele>-302.8</ele>
        <time>2022-11-18 13:18:54</time>
      </trkpt>
      <trkpt lat="-34.89875" lon="-56.07555">
        <ele>-303.8</ele>
        <time>2022-11-18 13:18:55</time>
      </trkpt>
      <trkpt lat="-34.89874" lon="-56.07558">
        <ele>-302.4</ele>
        <time>2022-11-18 13:18:56</time>
      </trkpt>
      <trkpt lat="-34.89873" lon="-56.0756">
        <ele>-301</ele>
        <time>2022-11-18 13:18:58</time>
      </trkpt>
      <trkpt lat="-34.89872" lon="-56.07562">
        <ele>-303</ele>
        <time>2022-11-18 13:18:59</time>
      </trkpt>
      <trkpt lat="-34.89873" lon="-56.0756">
        <ele>-301.8</ele>
        <time>2022-11-18 13:19:00</time>
      </trkpt>
      <trkpt lat="-34.89873" lon="-56.0756">
        <ele>-300.8</ele>
        <time>2022-11-18 13:19:01</time>
      </trkpt>
      <trkpt lat="-34.89873" lon="-56.07567">
        <ele>-300.6</ele>
        <time>2022-11-18 13:19:02</time>
      </trkpt>
      <trkpt lat="-34.89874" lon="-56.07568">
        <ele>-283.8</ele>
        <time>2022-11-18 13:19:03</time>
      </trkpt>
      <trkpt lat="-34.89874" lon="-56.07569">
        <ele>-280.2</ele>
        <time>2022-11-18 13:19:04</time>
      </trkpt>
      <trkpt lat="-34.89873" lon="-56.07569">
        <ele>-277.2</ele>
        <time>2022-11-18 13:19:05</time>
      </trkpt>
      <trkpt lat="-34.89873" lon="-56.0757">
        <ele>-275.6</ele>
        <time>2022-11-18 13:19:06</time>
      </trkpt>
      <trkpt lat="-34.89873" lon="-56.07571">
        <ele>-263.8</ele>
        <time>2022-11-18 13:19:07</time>
      </trkpt>
      <trkpt lat="-34.89873" lon="-56.07573">
        <ele>-257.8</ele>
        <time>2022-11-18 13:19:08</time>
      </trkpt>
      <trkpt lat="-34.89874" lon="-56.07573">
        <ele>-244.8</ele>
        <time>2022-11-18 13:19:09</time>
      </trkpt>
      <trkpt lat="-34.89874" lon="-56.07573">
        <ele>-248.2</ele>
        <time>2022-11-18 13:19:10</time>
      </trkpt>
      <trkpt lat="-34.89875" lon="-56.07572">
        <ele>-240</ele>
        <time>2022-11-18 13:19:11</time>
      </trkpt>
      <trkpt lat="-34.89875" lon="-56.07572">
        <ele>-245.8</ele>
        <time>2022-11-18 13:19:12</time>
      </trkpt>
      <trkpt lat="-34.89875" lon="-56.07572">
        <ele>-238.8</ele>
        <time>2022-11-18 13:19:13</time>
      </trkpt>
      <trkpt lat="-34.89875" lon="-56.07574">
        <ele>-245.2</ele>
        <time>2022-11-18 13:19:15</time>
      </trkpt>
      <trkpt lat="-34.89876" lon="-56.07571">
        <ele>-248.4</ele>
        <time>2022-11-18 13:19:16</time>
      </trkpt>
      <trkpt lat="-34.89875" lon="-56.07573">
        <ele>-250</ele>
        <time>2022-11-18 13:19:17</time>
      </trkpt>
      <trkpt lat="-34.89875" lon="-56.07578">
        <ele>-251.4</ele>
        <time>2022-11-18 13:19:18</time>
      </trkpt>
      <trkpt lat="-34.89874" lon="-56.07581">
        <ele>-251.6</ele>
        <time>2022-11-18 13:19:19</time>
      </trkpt>
      <trkpt lat="-34.89874" lon="-56.07583">
        <ele>-241.6</ele>
        <time>2022-11-18 13:19:20</time>
      </trkpt>
      <trkpt lat="-34.89873" lon="-56.07585">
        <ele>-259.2</ele>
        <time>2022-11-18 13:19:21</time>
      </trkpt>
      <trkpt lat="-34.89873" lon="-56.07585">
        <ele>-267.8</ele>
        <time>2022-11-18 13:19:22</time>
      </trkpt>
      <trkpt lat="-34.89872" lon="-56.07586">
        <ele>-272.2</ele>
        <time>2022-11-18 13:19:23</time>
      </trkpt>
      <trkpt lat="-34.89872" lon="-56.07588">
        <ele>-274.4</ele>
        <time>2022-11-18 13:19:24</time>
      </trkpt>
      <trkpt lat="-34.89872" lon="-56.07588">
        <ele>-275.6</ele>
        <time>2022-11-18 13:19:25</time>
      </trkpt>
      <trkpt lat="-34.89876" lon="-56.07588">
        <ele>-274.4</ele>
        <time>2022-11-18 13:19:26</time>
      </trkpt>
      <trkpt lat="-34.89871" lon="-56.07597">
        <ele>-262.8</ele>
        <time>2022-11-18 13:19:27</time>
      </trkpt>
      <trkpt lat="-34.8987" lon="-56.07599">
        <ele>-268.4</ele>
        <time>2022-11-18 13:19:28</time>
      </trkpt>
      <trkpt lat="-34.89871" lon="-56.076">
        <ele>-260</ele>
        <time>2022-11-18 13:19:29</time>
      </trkpt>
      <trkpt lat="-34.8987" lon="-56.076">
        <ele>-267</ele>
        <time>2022-11-18 13:19:30</time>
      </trkpt>
      <trkpt lat="-34.8987" lon="-56.076">
        <ele>-259.2</ele>
        <time>2022-11-18 13:19:31</time>
      </trkpt>
      <trkpt lat="-34.89869" lon="-56.07602">
        <ele>-255.4</ele>
        <time>2022-11-18 13:19:32</time>
      </trkpt>
      <trkpt lat="-34.89868" lon="-56.07603">
        <ele>-253.6</ele>
        <time>2022-11-18 13:19:34</time>
      </trkpt>
      <trkpt lat="-34.89869" lon="-56.07604">
        <ele>-304.2</ele>
        <time>2022-11-18 13:19:40</time>
      </trkpt>
      <trkpt lat="-34.89868" lon="-56.07604">
        <ele>-270.6</ele>
        <time>2022-11-18 13:19:41</time>
      </trkpt>
      <trkpt lat="-34.8987" lon="-56.07601">
        <ele>-313</ele>
        <time>2022-11-18 13:19:42</time>
      </trkpt>
      <trkpt lat="-34.89869" lon="-56.07602">
        <ele>-275</ele>
        <time>2022-11-18 13:19:43</time>
      </trkpt>
      <trkpt lat="-34.89869" lon="-56.07601">
        <ele>-315.2</ele>
        <time>2022-11-18 13:19:44</time>
      </trkpt>
      <trkpt lat="-34.89869" lon="-56.07603">
        <ele>-276</ele>
        <time>2022-11-18 13:19:45</time>
      </trkpt>
      <trkpt lat="-34.89869" lon="-56.07605">
        <ele>-315.8</ele>
        <time>2022-11-18 13:19:46</time>
      </trkpt>
      <trkpt lat="-34.89869" lon="-56.07606">
        <ele>-276.4</ele>
        <time>2022-11-18 13:19:47</time>
      </trkpt>
      <trkpt lat="-34.89869" lon="-56.07607">
        <ele>-308.2</ele>
        <time>2022-11-18 13:19:48</time>
      </trkpt>
      <trkpt lat="-34.8987" lon="-56.07609">
        <ele>-272.6</ele>
        <time>2022-11-18 13:19:49</time>
      </trkpt>
      <trkpt lat="-34.89871" lon="-56.0761">
        <ele>-306.2</ele>
        <time>2022-11-18 13:19:50</time>
      </trkpt>
      <trkpt lat="-34.89873" lon="-56.07609">
        <ele>-323.2</ele>
        <time>2022-11-18 13:19:51</time>
      </trkpt>
      <trkpt lat="-34.89874" lon="-56.0761">
        <ele>-317</ele>
        <time>2022-11-18 13:19:52</time>
      </trkpt>
      <trkpt lat="-34.89876" lon="-56.07611">
        <ele>-314</ele>
        <time>2022-11-18 13:19:53</time>
      </trkpt>
      <trkpt lat="-34.89878" lon="-56.07612">
        <ele>-312.6</ele>
        <time>2022-11-18 13:19:54</time>
      </trkpt>
      <trkpt lat="-34.89879" lon="-56.07614">
        <ele>-322.6</ele>
        <time>2022-11-18 13:19:55</time>
      </trkpt>
      <trkpt lat="-34.8988" lon="-56.07616">
        <ele>-328.8</ele>
        <time>2022-11-18 13:19:56</time>
      </trkpt>
      <trkpt lat="-34.89881" lon="-56.07618">
        <ele>-334.4</ele>
        <time>2022-11-18 13:19:57</time>
      </trkpt>
      <trkpt lat="-34.89881" lon="-56.0762">
        <ele>-337.2</ele>
        <time>2022-11-18 13:19:58</time>
      </trkpt>
      <trkpt lat="-34.89882" lon="-56.07622">
        <ele>-338.6</ele>
        <time>2022-11-18 13:19:59</time>
      </trkpt>
      <trkpt lat="-34.89883" lon="-56.07623">
        <ele>-333.4</ele>
        <time>2022-11-18 13:20:00</time>
      </trkpt>
      <trkpt lat="-34.89884" lon="-56.07625">
        <ele>-330.6</ele>
        <time>2022-11-18 13:20:01</time>
      </trkpt>
      <trkpt lat="-34.89885" lon="-56.07627">
        <ele>-320.8</ele>
        <time>2022-11-18 13:20:02</time>
      </trkpt>
      <trkpt lat="-34.89886" lon="-56.07628">
        <ele>-316</ele>
        <time>2022-11-18 13:20:03</time>
      </trkpt>
      <trkpt lat="-34.89886" lon="-56.0763">
        <ele>-291.8</ele>
        <time>2022-11-18 13:20:04</time>
      </trkpt>
      <trkpt lat="-34.89887" lon="-56.07631">
        <ele>-279.8</ele>
        <time>2022-11-18 13:20:05</time>
      </trkpt>
      <trkpt lat="-34.89888" lon="-56.07632">
        <ele>-273.8</ele>
        <time>2022-11-18 13:20:06</time>
      </trkpt>
      <trkpt lat="-34.89891" lon="-56.07621">
        <ele>-270.8</ele>
        <time>2022-11-18 13:20:07</time>
      </trkpt>
      <trkpt lat="-34.89888" lon="-56.07618">
        <ele>-267.2</ele>
        <time>2022-11-18 13:20:08</time>
      </trkpt>
      <trkpt lat="-34.89888" lon="-56.07618">
        <ele>-265.4</ele>
        <time>2022-11-18 13:20:09</time>
      </trkpt>
      <trkpt lat="-34.89887" lon="-56.0762">
        <ele>-263</ele>
        <time>2022-11-18 13:20:10</time>
      </trkpt>
      <trkpt lat="-34.89887" lon="-56.07621">
        <ele>-259.4</ele>
        <time>2022-11-18 13:20:11</time>
      </trkpt>
      <trkpt lat="-34.89886" lon="-56.07623">
        <ele>-246.4</ele>
        <time>2022-11-18 13:20:12</time>
      </trkpt>
      <trkpt lat="-34.89885" lon="-56.07624">
        <ele>-233.6</ele>
        <time>2022-11-18 13:20:14</time>
      </trkpt>
      <trkpt lat="-34.89885" lon="-56.07626">
        <ele>-222</ele>
        <time>2022-11-18 13:20:17</time>
      </trkpt>
      <trkpt lat="-34.89884" lon="-56.07627">
        <ele>-206.8</ele>
        <time>2022-11-18 13:20:18</time>
      </trkpt>
      <trkpt lat="-34.89878" lon="-56.07633">
        <ele>-184.2</ele>
        <time>2022-11-18 13:20:19</time>
      </trkpt>
      <trkpt lat="-34.89878" lon="-56.07634">
        <ele>-185.2</ele>
        <time>2022-11-18 13:20:20</time>
      </trkpt>
      <trkpt lat="-34.8988" lon="-56.07637">
        <ele>-192.2</ele>
        <time>2022-11-18 13:20:24</time>
      </trkpt>
      <trkpt lat="-34.89879" lon="-56.0764">
        <ele>-195.8</ele>
        <time>2022-11-18 13:20:25</time>
      </trkpt>
      <trkpt lat="-34.89878" lon="-56.07642">
        <ele>-211.6</ele>
        <time>2022-11-18 13:20:26</time>
      </trkpt>
      <trkpt lat="-34.89878" lon="-56.07642">
        <ele>-219.4</ele>
        <time>2022-11-18 13:20:28</time>
      </trkpt>
      <trkpt lat="-34.89877" lon="-56.07645">
        <ele>-276.4</ele>
        <time>2022-11-18 13:20:29</time>
      </trkpt>
      <trkpt lat="-34.89876" lon="-56.07645">
        <ele>-305</ele>
        <time>2022-11-18 13:20:30</time>
      </trkpt>
      <trkpt lat="-34.89877" lon="-56.07644">
        <ele>-334.4</ele>
        <time>2022-11-18 13:20:31</time>
      </trkpt>
      <trkpt lat="-34.89876" lon="-56.07635">
        <ele>-331</ele>
        <time>2022-11-18 13:20:32</time>
      </trkpt>
      <trkpt lat="-34.89877" lon="-56.07633">
        <ele>-332.2</ele>
        <time>2022-11-18 13:20:33</time>
      </trkpt>
      <trkpt lat="-34.89876" lon="-56.07635">
        <ele>-330.2</ele>
        <time>2022-11-18 13:20:34</time>
      </trkpt>
      <trkpt lat="-34.89876" lon="-56.07638">
        <ele>-331.8</ele>
        <time>2022-11-18 13:20:35</time>
      </trkpt>
      <trkpt lat="-34.89875" lon="-56.07639">
        <ele>-330</ele>
        <time>2022-11-18 13:20:36</time>
      </trkpt>
      <trkpt lat="-34.89874" lon="-56.07641">
        <ele>-331.8</ele>
        <time>2022-11-18 13:20:37</time>
      </trkpt>
      <trkpt lat="-34.89872" lon="-56.07642">
        <ele>-329.8</ele>
        <time>2022-11-18 13:20:38</time>
      </trkpt>
      <trkpt lat="-34.89871" lon="-56.07647">
        <ele>-329</ele>
        <time>2022-11-18 13:20:39</time>
      </trkpt>
      <trkpt lat="-34.8987" lon="-56.07649">
        <ele>-328.4</ele>
        <time>2022-11-18 13:20:40</time>
      </trkpt>
      <trkpt lat="-34.89866" lon="-56.07651">
        <ele>-328</ele>
        <time>2022-11-18 13:20:44</time>
      </trkpt>
      <trkpt lat="-34.89864" lon="-56.07652">
        <ele>-296.2</ele>
        <time>2022-11-18 13:20:45</time>
      </trkpt>
      <trkpt lat="-34.89866" lon="-56.07654">
        <ele>-290.2</ele>
        <time>2022-11-18 13:20:46</time>
      </trkpt>
      <trkpt lat="-34.89866" lon="-56.07656">
        <ele>-284.8</ele>
        <time>2022-11-18 13:20:48</time>
      </trkpt>
      <trkpt lat="-34.89867" lon="-56.07657">
        <ele>-282</ele>
        <time>2022-11-18 13:20:49</time>
      </trkpt>
      <trkpt lat="-34.89871" lon="-56.07659">
        <ele>-280.6</ele>
        <time>2022-11-18 13:20:50</time>
      </trkpt>
      <trkpt lat="-34.89873" lon="-56.0766">
        <ele>-280</ele>
        <time>2022-11-18 13:20:52</time>
      </trkpt>
      <trkpt lat="-34.89873" lon="-56.07662">
        <ele>-279.6</ele>
        <time>2022-11-18 13:20:54</time>
      </trkpt>
      <trkpt lat="-34.89874" lon="-56.07663">
        <ele>-279.4</ele>
        <time>2022-11-18 13:20:55</time>
      </trkpt>
      <trkpt lat="-34.89877" lon="-56.07676">
        <ele>-250.4</ele>
        <time>2022-11-18 13:20:56</time>
      </trkpt>
      <trkpt lat="-34.89876" lon="-56.07679">
        <ele>-310.6</ele>
        <time>2022-11-18 13:20:59</time>
      </trkpt>
      <trkpt lat="-34.89875" lon="-56.07681">
        <ele>-266.2</ele>
        <time>2022-11-18 13:21:03</time>
      </trkpt>
      <trkpt lat="-34.89875" lon="-56.07683">
        <ele>-322.4</ele>
        <time>2022-11-18 13:21:05</time>
      </trkpt>
      <trkpt lat="-34.89875" lon="-56.07684">
        <ele>-272</ele>
        <time>2022-11-18 13:21:06</time>
      </trkpt>
      <trkpt lat="-34.89873" lon="-56.07685">
        <ele>-325.4</ele>
        <time>2022-11-18 13:21:07</time>
      </trkpt>
      <trkpt lat="-34.89871" lon="-56.07687">
        <ele>-273.6</ele>
        <time>2022-11-18 13:21:08</time>
      </trkpt>
      <trkpt lat="-34.89871" lon="-56.07689">
        <ele>-326.2</ele>
        <time>2022-11-18 13:21:09</time>
      </trkpt>
      <trkpt lat="-34.8987" lon="-56.07691">
        <ele>-274</ele>
        <time>2022-11-18 13:21:10</time>
      </trkpt>
      <trkpt lat="-34.89869" lon="-56.07693">
        <ele>-326.4</ele>
        <time>2022-11-18 13:21:11</time>
      </trkpt>
      <trkpt lat="-34.89868" lon="-56.07694">
        <ele>-274</ele>
        <time>2022-11-18 13:21:12</time>
      </trkpt>
      <trkpt lat="-34.8987" lon="-56.07694">
        <ele>-326.4</ele>
        <time>2022-11-18 13:21:13</time>
      </trkpt>
      <trkpt lat="-34.89871" lon="-56.07695">
        <ele>-274</ele>
        <time>2022-11-18 13:21:14</time>
      </trkpt>
      <trkpt lat="-34.8987" lon="-56.07695">
        <ele>-326.4</ele>
        <time>2022-11-18 13:21:15</time>
      </trkpt>
      <trkpt lat="-34.89869" lon="-56.07695">
        <ele>-274</ele>
        <time>2022-11-18 13:21:16</time>
      </trkpt>
      <trkpt lat="-34.89869" lon="-56.07696">
        <ele>-292.4</ele>
        <time>2022-11-18 13:21:17</time>
      </trkpt>
      <trkpt lat="-34.89869" lon="-56.07695">
        <ele>-248</ele>
        <time>2022-11-18 13:21:18</time>
      </trkpt>
      <trkpt lat="-34.8987" lon="-56.07694">
        <ele>-279.4</ele>
        <time>2022-11-18 13:21:20</time>
      </trkpt>
      <trkpt lat="-34.89871" lon="-56.07695">
        <ele>-238</ele>
        <time>2022-11-18 13:21:21</time>
      </trkpt>
      <trkpt lat="-34.89871" lon="-56.07696">
        <ele>-274.4</ele>
        <time>2022-11-18 13:21:22</time>
      </trkpt>
      <trkpt lat="-34.89872" lon="-56.07695">
        <ele>-235.4</ele>
        <time>2022-11-18 13:21:23</time>
      </trkpt>
      <trkpt lat="-34.89875" lon="-56.07694">
        <ele>-273.2</ele>
        <time>2022-11-18 13:21:24</time>
      </trkpt>
      <trkpt lat="-34.89875" lon="-56.07692">
        <ele>-234.8</ele>
        <time>2022-11-18 13:21:25</time>
      </trkpt>
      <trkpt lat="-34.89875" lon="-56.0769">
        <ele>-272.8</ele>
        <time>2022-11-18 13:21:26</time>
      </trkpt>
      <trkpt lat="-34.89876" lon="-56.0769">
        <ele>-222.4</ele>
        <time>2022-11-18 13:21:27</time>
      </trkpt>
      <trkpt lat="-34.89877" lon="-56.07689">
        <ele>-266.6</ele>
        <time>2022-11-18 13:21:36</time>
      </trkpt>
      <trkpt lat="-34.89881" lon="-56.07689">
        <ele>-288.8</ele>
        <time>2022-11-18 13:21:42</time>
      </trkpt>
      <trkpt lat="-34.89882" lon="-56.0769">
        <ele>-299.8</ele>
        <time>2022-11-18 13:21:43</time>
      </trkpt>
      <trkpt lat="-34.89882" lon="-56.07691">
        <ele>-305.4</ele>
        <time>2022-11-18 13:21:44</time>
      </trkpt>
      <trkpt lat="-34.89882" lon="-56.07692">
        <ele>-308.2</ele>
        <time>2022-11-18 13:21:45</time>
      </trkpt>
      <trkpt lat="-34.89882" lon="-56.07694">
        <ele>-309.4</ele>
        <time>2022-11-18 13:21:46</time>
      </trkpt>
      <trkpt lat="-34.89883" lon="-56.07694">
        <ele>-276.6</ele>
        <time>2022-11-18 13:21:47</time>
      </trkpt>
      <trkpt lat="-34.89883" lon="-56.07693">
        <ele>-259.8</ele>
        <time>2022-11-18 13:21:48</time>
      </trkpt>
      <trkpt lat="-34.89884" lon="-56.07694">
        <ele>-239</ele>
        <time>2022-11-18 13:21:50</time>
      </trkpt>
      <trkpt lat="-34.89885" lon="-56.07694">
        <ele>-228.4</ele>
        <time>2022-11-18 13:21:51</time>
      </trkpt>
      <trkpt lat="-34.89882" lon="-56.0769">
        <ele>-217.6</ele>
        <time>2022-11-18 13:21:52</time>
      </trkpt>
      <trkpt lat="-34.89881" lon="-56.07688">
        <ele>-212.2</ele>
        <time>2022-11-18 13:21:53</time>
      </trkpt>
      <trkpt lat="-34.89881" lon="-56.07688">
        <ele>-209.2</ele>
        <time>2022-11-18 13:21:54</time>
      </trkpt>
      <trkpt lat="-34.89881" lon="-56.07688">
        <ele>-207.8</ele>
        <time>2022-11-18 13:21:55</time>
      </trkpt>
      <trkpt lat="-34.89881" lon="-56.07689">
        <ele>-191.2</ele>
        <time>2022-11-18 13:21:56</time>
      </trkpt>
      <trkpt lat="-34.89881" lon="-56.07689">
        <ele>-178</ele>
        <time>2022-11-18 13:21:57</time>
      </trkpt>
      <trkpt lat="-34.89882" lon="-56.07689">
        <ele>-173.6</ele>
        <time>2022-11-18 13:21:58</time>
      </trkpt>
      <trkpt lat="-34.89882" lon="-56.0769">
        <ele>-167.2</ele>
        <time>2022-11-18 13:21:59</time>
      </trkpt>
      <trkpt lat="-34.89882" lon="-56.0769">
        <ele>-164</ele>
        <time>2022-11-18 13:22:00</time>
      </trkpt>
    </trkseg>
  </trk>
</gpx>
